Darstellungsparameter: Aktuell verwendete Einstellungen:
Skalierung der Graphiken ... ?
xyx+y,   Skalierungsfaktor:      Skalierung: Modus: x, Faktor: 1
Darstellungszeitraum ... ?
Vom - - bis: - -   Zeitraum: 13.08.2008 - 12.11.2008
Min/Max/Avg-Anzeige ... ?
Zeige MMA aktuell
Zeige MMA Monat
Zeige MMA alles
Zeige --A aktuell
Zeige --A Monat
Zeige --A alles
Keine MMA-Anzeige
MMA:
Average (ber die Originaldaten)
MMA-Basis: 17.04.2019 - 19.05.2019
Quicknavigation für Darstellung... ?
Tage:      1T, 2T, 3T, 5T -1T -2T -3T -5T +1T +2T +3T +5T
Wochen: 1W, 2W, 3W -1W -2W -3W +1W +2W +3W
Monate: 1M, 3M, 6M -1M -3M -6M +1M +3M +6M
Jahre:    1J, 3J, 5J, 10J -1J -3J -5J -10J +1J +3J +5J +10J
Nutze für die Darstellung ... ?
Originaldaten oder ...
Mittelwerte Minima Maxima auf...
Stundenbasis Tagesbasis Wochenbasis
Monatsbasis Jahresbasis      Datenbasis: Mittelwerte auf Stundenbasis
Darstellen als:
Statistik (Auto) Statistik J:M      Darstellung:
Zur Graphik,    zurück zur Übersicht aller Sensoren.
 
Tabellarische Datenbersicht: ?
 
Sensor: Nr:Datum:Temp:Abs-Feuchte:Windchill:Wind:
Aussen-T/F 1 13-08-2008 00:00:00 14.7 C 10.15 g/m*3 14.7 C 0 km/h
2 13-08-2008 01:00:00 14.34 C 10.52 g/m*3 14.34 C 0 km/h
3 13-08-2008 02:00:00 14.46 C 10.67 g/m*3 14.46 C 0 km/h
4 13-08-2008 03:00:00 14.26 C 10.71 g/m*3 14.26 C 0 km/h
5 13-08-2008 04:00:00 14.72 C 9.96 g/m*3 14.72 C 0 km/h
6 13-08-2008 05:00:00 15.48 C 8.87 g/m*3 15.48 C 0 km/h
7 13-08-2008 06:00:00 15.84 C 8.53 g/m*3 15.84 C 0 km/h
8 13-08-2008 07:00:00 16.12 C 8.48 g/m*3 16.12 C 0 km/h
9 13-08-2008 08:00:00 16.72 C 8.31 g/m*3 16.72 C 0 km/h
10 13-08-2008 09:00:00 17.48 C 8.04 g/m*3 17.48 C 0 km/h
11 13-08-2008 10:00:00 18.04 C 8.04 g/m*3 18.04 C 0 km/h
12 13-08-2008 11:00:00 18.52 C 8.71 g/m*3 18.52 C 0 km/h
13 13-08-2008 12:00:00 20.34 C 7.72 g/m*3 20.34 C 0 km/h
14 13-08-2008 13:00:00 21.16 C 7.4 g/m*3 21.16 C 0 km/h
15 13-08-2008 14:00:00 21.88 C 7.59 g/m*3 21.88 C 0 km/h
16 13-08-2008 15:00:00 20.26 C 9.23 g/m*3 20.26 C 0 km/h
17 13-08-2008 16:00:00 23.56 C 7.38 g/m*3 23.56 C 0 km/h
18 13-08-2008 17:00:00 23.82 C 6.5 g/m*3 23.82 C 0 km/h
19 13-08-2008 18:00:00 23 C 6.62 g/m*3 23 C 0 km/h
20 13-08-2008 19:00:00 21.48 C 7.12 g/m*3 21.48 C 0 km/h
21 13-08-2008 20:00:00 19.5 C 8.36 g/m*3 19.5 C 0 km/h
22 13-08-2008 21:00:00 19.3 C 7.13 g/m*3 19.3 C 0 km/h
23 13-08-2008 22:00:00 18.16 C 7.69 g/m*3 18.16 C 0 km/h
24 13-08-2008 23:00:00 17.32 C 7.96 g/m*3 17.32 C 0 km/h
25 14-08-2008 00:00:00 16.58 C 8.32 g/m*3 16.58 C 0 km/h
Sensor: Nr:Datum:Temp:Abs-Feuchte:Windchill:Wind:
Aussen-T/F 26 14-08-2008 01:00:00 16.12 C 8.59 g/m*3 16.12 C 0 km/h
27 14-08-2008 02:00:00 15.7 C 8.67 g/m*3 15.7 C 0 km/h
28 14-08-2008 03:00:00 14.9 C 8.9 g/m*3 14.9 C 0 km/h
29 14-08-2008 04:00:00 14.26 C 9 g/m*3 14.26 C 0 km/h
30 14-08-2008 05:00:00 13.68 C 9.11 g/m*3 13.68 C 0 km/h
31 14-08-2008 06:00:00 13.66 C 9.1 g/m*3 13.66 C 0 km/h
32 14-08-2008 07:00:00 13.9 C 9.06 g/m*3 13.9 C 0 km/h
33 14-08-2008 08:00:00 14.74 C 8.94 g/m*3 14.74 C 0 km/h
34 14-08-2008 09:00:00 16.44 C 7.67 g/m*3 16.44 C 0 km/h
35 14-08-2008 10:00:00 18.08 C 7.07 g/m*3 18.08 C 0 km/h
36 14-08-2008 11:00:00 19.82 C 6.98 g/m*3 19.82 C 0 km/h
37 14-08-2008 12:00:00 21.58 C 5.95 g/m*3 21.58 C 0 km/h
38 14-08-2008 13:00:00 23.38 C 6.18 g/m*3 23.38 C 0 km/h
39 14-08-2008 14:00:00 23.4 C 5.85 g/m*3 23.4 C 0 km/h
40 14-08-2008 15:00:00 24.44 C 5.53 g/m*3 24.44 C 0 km/h
41 14-08-2008 16:00:00 25.52 C 5.26 g/m*3 25.52 C 0 km/h
42 14-08-2008 17:00:00 26.32 C 5.06 g/m*3 26.32 C 0 km/h
43 14-08-2008 18:00:00 26.58 C 5.03 g/m*3 26.58 C 0 km/h
44 14-08-2008 19:00:00 24.4 C 5.43 g/m*3 24.4 C 0 km/h
45 14-08-2008 20:00:00 21.72 C 6.03 g/m*3 21.72 C 0 km/h
46 14-08-2008 21:00:00 19.14 C 6.34 g/m*3 19.14 C 0 km/h
47 14-08-2008 22:00:00 17.98 C 6.84 g/m*3 17.98 C 0 km/h
48 14-08-2008 23:00:00 17.24 C 7.34 g/m*3 17.24 C 0 km/h
49 15-08-2008 00:00:00 16.86 C 7.58 g/m*3 16.86 C 0 km/h
50 15-08-2008 01:00:00 16.44 C 7.7 g/m*3 16.44 C 0 km/h
Sensor: Nr:Datum:Temp:Abs-Feuchte:Windchill:Wind:
Aussen-T/F 51 15-08-2008 02:00:00 15.86 C 7.84 g/m*3 15.86 C 0 km/h
52 15-08-2008 03:00:00 15.4 C 8.07 g/m*3 15.4 C 0 km/h
53 15-08-2008 04:00:00 14.66 C 8.34 g/m*3 14.66 C 0 km/h
54 15-08-2008 05:00:00 14.08 C 8.39 g/m*3 14.08 C 0 km/h
55 15-08-2008 06:00:00 13.58 C 8.51 g/m*3 13.58 C 0 km/h
56 15-08-2008 07:00:00 13.06 C 8.61 g/m*3 13.06 C 0 km/h
57 15-08-2008 08:00:00 13.3 C 8.8 g/m*3 13.3 C 0 km/h
58 15-08-2008 09:00:00 15.26 C 8.83 g/m*3 15.26 C 0 km/h
59 15-08-2008 10:00:00 18.06 C 8.08 g/m*3 18.06 C 0 km/h
60 15-08-2008 11:00:00 20.22 C 7.42 g/m*3 20.22 C 0 km/h
61 15-08-2008 12:00:00 22.36 C 7.21 g/m*3 22.36 C 0 km/h
62 15-08-2008 13:00:00 22.02 C 6.88 g/m*3 22.02 C 0 km/h
63 15-08-2008 14:00:00 20.26 C 8.14 g/m*3 20.26 C 0 km/h
64 15-08-2008 15:00:00 21.72 C 7.72 g/m*3 21.72 C 0 km/h
65 15-08-2008 16:00:00 24.44 C 6.78 g/m*3 24.44 C 0 km/h
66 15-08-2008 17:00:00 24.28 C 6.94 g/m*3 24.28 C 0 km/h
67 15-08-2008 18:00:00 23.86 C 6.91 g/m*3 23.86 C 0 km/h
68 15-08-2008 19:00:00 24.02 C 7.1 g/m*3 24.02 C 0 km/h
69 15-08-2008 20:00:00 19.58 C 7.59 g/m*3 19.58 C 0 km/h
70 15-08-2008 21:00:00 18.08 C 8.02 g/m*3 18.08 C 0 km/h
71 15-08-2008 22:00:00 16.94 C 8.71 g/m*3 16.94 C 0 km/h
72 15-08-2008 23:00:00 16.36 C 8.33 g/m*3 16.36 C 0 km/h
73 16-08-2008 00:00:00 15.08 C 8.45 g/m*3 15.08 C 0 km/h
74 16-08-2008 01:00:00 14.08 C 8.63 g/m*3 14.08 C 0 km/h
75 16-08-2008 02:00:00 13.38 C 8.59 g/m*3 13.38 C 0 km/h
Sensor: Nr:Datum:Temp:Abs-Feuchte:Windchill:Wind:
Aussen-T/F 76 16-08-2008 03:00:00 12.58 C 8.6 g/m*3 12.58 C 0 km/h
77 16-08-2008 04:00:00 11.8 C 8.59 g/m*3 11.8 C 0 km/h
78 16-08-2008 05:00:00 11.1 C 8.4 g/m*3 11.1 C 0 km/h
79 16-08-2008 06:00:00 10.62 C 8.25 g/m*3 10.62 C 0 km/h
80 16-08-2008 07:00:00 10.8 C 8.32 g/m*3 10.8 C 0 km/h
81 16-08-2008 08:00:00 11.66 C 8.64 g/m*3 11.66 C 0 km/h
82 16-08-2008 09:00:00 13.58 C 8.72 g/m*3 13.58 C 0 km/h
83 16-08-2008 10:00:00 16.72 C 8.74 g/m*3 16.72 C 0 km/h
84 16-08-2008 11:00:00 20.16 C 8.27 g/m*3 20.16 C 0 km/h
85 16-08-2008 12:00:00 22.18 C 6.63 g/m*3 22.18 C 0 km/h
86 16-08-2008 13:00:00 24.26 C 5.48 g/m*3 24.26 C 0 km/h
87 16-08-2008 14:00:00 26.24 C 5.18 g/m*3 26.24 C 0 km/h
88 16-08-2008 15:00:00 28.84 C 5.69 g/m*3 28.84 C 0 km/h
89 16-08-2008 16:00:00 30.12 C 6.1 g/m*3 30.12 C 0 km/h
90 16-08-2008 17:00:00 29.44 C 5.88 g/m*3 29.44 C 0 km/h
91 16-08-2008 18:00:00 30.14 C 6.11 g/m*3 30.14 C 0 km/h
92 16-08-2008 19:00:00 25.24 C 6.21 g/m*3 25.24 C 0 km/h
93 16-08-2008 20:00:00 20.86 C 6.69 g/m*3 20.86 C 0 km/h
94 16-08-2008 21:00:00 18.88 C 6.96 g/m*3 18.88 C 0 km/h
95 16-08-2008 22:00:00 18.28 C 7.18 g/m*3 18.28 C 0 km/h
96 16-08-2008 23:00:00 17.32 C 7.46 g/m*3 17.32 C 0 km/h
97 17-08-2008 00:00:00 16.12 C 7.22 g/m*3 16.12 C 0 km/h
98 17-08-2008 01:00:00 15.14 C 7.5 g/m*3 15.14 C 0 km/h
99 17-08-2008 02:00:00 14.38 C 7.61 g/m*3 14.38 C 0 km/h
100 17-08-2008 03:00:00 13.66 C 7.8 g/m*3 13.66 C 0 km/h
Sensor: Nr:Datum:Temp:Abs-Feuchte:Windchill:Wind:
Aussen-T/F 101 17-08-2008 04:00:00 13.08 C 7.84 g/m*3 13.08 C 0 km/h
102 17-08-2008 05:00:00 12.54 C 7.91 g/m*3 12.54 C 0 km/h
103 17-08-2008 06:00:00 12.02 C 7.98 g/m*3 12.02 C 0 km/h
104 17-08-2008 07:00:00 12.12 C 8.14 g/m*3 12.12 C 0 km/h
105 17-08-2008 08:00:00 12.96 C 8.39 g/m*3 12.96 C 0 km/h
106 17-08-2008 09:00:00 15.06 C 8.52 g/m*3 15.06 C 0 km/h
107 17-08-2008 10:00:00 18.68 C 8.99 g/m*3 18.68 C 0 km/h
108 17-08-2008 11:00:00 22.26 C 8.16 g/m*3 22.26 C 0 km/h
109 17-08-2008 12:00:00 24.22 C 5.9 g/m*3 24.22 C 0 km/h
110 17-08-2008 13:00:00 25.92 C 4.9 g/m*3 25.92 C 0 km/h
111 17-08-2008 14:00:00 26.4 C 5.33 g/m*3 26.4 C 0 km/h
112 17-08-2008 15:00:00 26.44 C 5.74 g/m*3 26.44 C 0 km/h
113 17-08-2008 16:00:00 27 C 5.56 g/m*3 27 C 0 km/h
114 17-08-2008 17:00:00 25.8 C 6.21 g/m*3 25.8 C 0 km/h
115 17-08-2008 18:00:00 24.9 C 6.82 g/m*3 24.9 C 0 km/h
116 17-08-2008 19:00:00 24.38 C 7.56 g/m*3 24.38 C 0 km/h
117 17-08-2008 20:00:00 21.74 C 8.03 g/m*3 21.74 C 0 km/h
118 17-08-2008 21:00:00 19.38 C 10 g/m*3 19.38 C 0 km/h
119 17-08-2008 22:00:00 17.375 C 12.21 g/m*3 17.38 C 0 km/h
120 17-08-2008 23:00:00 16.54 C 11.46 g/m*3 16.54 C 0 km/h
121 18-08-2008 00:00:00 16.14 C 11.27 g/m*3 16.14 C 0 km/h
122 18-08-2008 01:00:00 16.54 C 11.4 g/m*3 16.54 C 0 km/h
123 18-08-2008 02:00:00 16.58 C 11.43 g/m*3 16.58 C 0 km/h
124 18-08-2008 03:00:00 15.96 C 11.25 g/m*3 15.96 C 0 km/h
125 18-08-2008 04:00:00 15.42 C 11.15 g/m*3 15.42 C 0 km/h
Sensor: Nr:Datum:Temp:Abs-Feuchte:Windchill:Wind:
Aussen-T/F 126 18-08-2008 05:00:00 15.7 C 11.37 g/m*3 15.7 C 0 km/h
127 18-08-2008 06:00:00 15.56 C 11.17 g/m*3 15.56 C 0 km/h
128 18-08-2008 07:00:00 15.22 C 11.2 g/m*3 15.22 C 0 km/h
129 18-08-2008 08:00:00 16.34 C 11.63 g/m*3 16.34 C 0 km/h
130 18-08-2008 09:00:00 18.92 C 11.55 g/m*3 18.92 C 0 km/h
131 18-08-2008 10:00:00 20.68 C 10.79 g/m*3 20.68 C 0 km/h
132 18-08-2008 11:00:00 22.4 C 10.13 g/m*3 22.4 C 0 km/h
133 18-08-2008 12:00:00 23.66 C 9.43 g/m*3 23.66 C 0 km/h
134 18-08-2008 13:00:00 24.8 C 9.15 g/m*3 24.8 C 0 km/h
135 18-08-2008 14:00:00 24.64 C 8.89 g/m*3 24.64 C 0 km/h
136 18-08-2008 15:00:00 25.3 C 8.24 g/m*3 25.3 C 0 km/h
137 18-08-2008 16:00:00 26.32 C 8.62 g/m*3 26.32 C 0 km/h
138 18-08-2008 17:00:00 29.3 C 7.24 g/m*3 29.3 C 0 km/h
139 18-08-2008 18:00:00 29 C 7.01 g/m*3 29 C 0 km/h
140 18-08-2008 19:00:00 27.86 C 7.66 g/m*3 27.86 C 0 km/h
141 18-08-2008 20:00:00 25.56 C 8.88 g/m*3 25.56 C 0 km/h
142 18-08-2008 21:00:00 23.1 C 9.47 g/m*3 23.1 C 0 km/h
143 18-08-2008 22:00:00 22.24 C 9.41 g/m*3 22.24 C 0 km/h
144 18-08-2008 23:00:00 21.8 C 9.63 g/m*3 21.8 C 0 km/h
145 19-08-2008 00:00:00 21.1 C 11.09 g/m*3 21.1 C 0 km/h
146 19-08-2008 01:00:00 19.96 C 11.86 g/m*3 19.96 C 0 km/h
147 19-08-2008 02:00:00 19.2 C 11.71 g/m*3 19.2 C 0 km/h
148 19-08-2008 03:00:00 18.82 C 11.8 g/m*3 18.82 C 0 km/h
149 19-08-2008 04:00:00 18.72 C 11.44 g/m*3 18.72 C 0 km/h
150 19-08-2008 05:00:00 18.78 C 10.75 g/m*3 18.78 C 0 km/h
Sensor: Nr:Datum:Temp:Abs-Feuchte:Windchill:Wind:
Aussen-T/F 151 19-08-2008 06:00:00 18.46 C 10.1 g/m*3 18.46 C 0 km/h
152 19-08-2008 07:00:00 18.32 C 9.58 g/m*3 18.32 C 0 km/h
153 19-08-2008 08:00:00 19.5 C 8.89 g/m*3 19.5 C 0 km/h
154 19-08-2008 09:00:00 20.1 C 8.55 g/m*3 20.1 C 0 km/h
155 19-08-2008 10:00:00 20.8 C 8.76 g/m*3 20.8 C 0 km/h
156 19-08-2008 11:00:00 21.7 C 8.85 g/m*3 21.7 C 0 km/h
157 19-08-2008 12:00:00 22.66 C 8.43 g/m*3 22.66 C 0 km/h
158 19-08-2008 13:00:00 23.56 C 8.06 g/m*3 23.56 C 0 km/h
159 19-08-2008 14:00:00 23.94 C 7.85 g/m*3 23.94 C 0 km/h
160 19-08-2008 15:00:00 24 C 8.01 g/m*3 24 C 0 km/h
161 19-08-2008 16:00:00 23.76 C 8.03 g/m*3 23.76 C 0 km/h
162 19-08-2008 17:00:00 23.4 C 8.2 g/m*3 23.4 C 0 km/h
163 19-08-2008 18:00:00 22.62 C 8.57 g/m*3 22.62 C 0 km/h
164 19-08-2008 19:00:00 21.64 C 8.97 g/m*3 21.64 C 0 km/h
165 19-08-2008 20:00:00 21.04 C 9.33 g/m*3 21.04 C 0 km/h
166 19-08-2008 21:00:00 19.58 C 9.44 g/m*3 19.58 C 0 km/h
167 19-08-2008 22:00:00 18.96 C 9.66 g/m*3 18.96 C 0 km/h
168 19-08-2008 23:00:00 18.4 C 10 g/m*3 18.4 C 0 km/h
169 20-08-2008 00:00:00 18 C 10.32 g/m*3 18 C 0 km/h
170 20-08-2008 01:00:00 17.24 C 11.16 g/m*3 17.24 C 0 km/h
171 20-08-2008 02:00:00 16.78 C 11.37 g/m*3 16.78 C 0 km/h
172 20-08-2008 03:00:00 16.5 C 10.78 g/m*3 16.5 C 0 km/h
173 20-08-2008 04:00:00 16.46 C 10.67 g/m*3 16.46 C 0 km/h
174 20-08-2008 05:00:00 16.26 C 10.49 g/m*3 16.26 C 0 km/h
175 20-08-2008 06:00:00 15.94 C 10.34 g/m*3 15.94 C 0 km/h
Sensor: Nr:Datum:Temp:Abs-Feuchte:Windchill:Wind:
Aussen-T/F 176 20-08-2008 07:00:00 16.08 C 10.13 g/m*3 16.08 C 0 km/h
177 20-08-2008 08:00:00 16.46 C 9.72 g/m*3 16.46 C 0 km/h
178 20-08-2008 09:00:00 17.52 C 9.16 g/m*3 17.52 C 0 km/h
179 20-08-2008 10:00:00 19.04 C 9.11 g/m*3 19.04 C 0 km/h
180 20-08-2008 11:00:00 19.78 C 8.77 g/m*3 19.78 C 0 km/h
181 20-08-2008 12:00:00 20.82 C 8.34 g/m*3 20.82 C 0 km/h
182 20-08-2008 13:00:00 20.78 C 8.39 g/m*3 20.78 C 0 km/h
183 20-08-2008 14:00:00 22.06 C 7.98 g/m*3 22.06 C 0 km/h
184 20-08-2008 15:00:00 22.3 C 7.78 g/m*3 22.3 C 0 km/h
185 20-08-2008 16:00:00 21.26 C 7.85 g/m*3 21.26 C 0 km/h
186 20-08-2008 17:00:00 23.26 C 7.59 g/m*3 23.26 C 0 km/h
187 20-08-2008 18:00:00 21.68 C 7.24 g/m*3 21.68 C 0 km/h
188 20-08-2008 19:00:00 20.3 C 7.56 g/m*3 20.3 C 0 km/h
189 20-08-2008 20:00:00 19.4 C 7.94 g/m*3 19.4 C 0 km/h
190 20-08-2008 21:00:00 18.34 C 8.75 g/m*3 18.34 C 0 km/h
191 20-08-2008 22:00:00 17.76 C 9.02 g/m*3 17.76 C 0 km/h
192 20-08-2008 23:00:00 17.66 C 9.03 g/m*3 17.66 C 0 km/h
193 21-08-2008 00:00:00 17.3 C 9.05 g/m*3 17.3 C 0 km/h
194 21-08-2008 01:00:00 16.62 C 8.97 g/m*3 16.62 C 0 km/h
195 21-08-2008 02:00:00 15.54 C 9.04 g/m*3 15.54 C 0 km/h
196 21-08-2008 03:00:00 14.4 C 9.1 g/m*3 14.4 C 0 km/h
197 21-08-2008 04:00:00 13.58 C 9.03 g/m*3 13.58 C 0 km/h
198 21-08-2008 05:00:00 13.12 C 9.05 g/m*3 13.12 C 0 km/h
199 21-08-2008 06:00:00 13.08 C 9.12 g/m*3 13.08 C 0 km/h
200 21-08-2008 07:00:00 14.02 C 9.4 g/m*3 14.02 C 0 km/h
Sensor: Nr:Datum:Temp:Abs-Feuchte:Windchill:Wind:
Aussen-T/F 201 21-08-2008 08:00:00 15.06 C 9.29 g/m*3 15.06 C 0 km/h
202 21-08-2008 09:00:00 16.14 C 9.29 g/m*3 16.14 C 0 km/h
203 21-08-2008 10:00:00 18.64 C 9.16 g/m*3 18.64 C 0 km/h
204 21-08-2008 11:00:00 20.92 C 8.13 g/m*3 20.92 C 0 km/h
205 21-08-2008 12:00:00 22.7 C 7.88 g/m*3 22.7 C 0 km/h
206 21-08-2008 13:00:00 24.28 C 7.21 g/m*3 24.28 C 0 km/h
207 21-08-2008 14:00:00 25.3 C 6.88 g/m*3 25.3 C 0 km/h
208 21-08-2008 15:00:00 25.74 C 6.96 g/m*3 25.74 C 0 km/h
209 21-08-2008 16:00:00 25.56 C 7.27 g/m*3 25.56 C 0 km/h
210 21-08-2008 17:00:00 25.44 C 7.36 g/m*3 25.44 C 0 km/h
211 21-08-2008 18:00:00 25.04 C 7.66 g/m*3 25.04 C 0 km/h
212 21-08-2008 19:00:00 23.12 C 8.2 g/m*3 23.12 C 0 km/h
213 21-08-2008 20:00:00 22.48 C 8.5 g/m*3 22.48 C 0 km/h
214 21-08-2008 21:00:00 21.82 C 8.68 g/m*3 21.82 C 0 km/h
215 21-08-2008 22:00:00 20.96 C 8.85 g/m*3 20.96 C 0 km/h
216 21-08-2008 23:00:00 20.44 C 9.18 g/m*3 20.44 C 0 km/h
217 22-08-2008 00:00:00 20.02 C 9.27 g/m*3 20.02 C 0 km/h
218 22-08-2008 01:00:00 19.74 C 9.53 g/m*3 19.74 C 0 km/h
219 22-08-2008 02:00:00 18.72 C 9.46 g/m*3 18.72 C 0 km/h
220 22-08-2008 03:00:00 18.48 C 9.45 g/m*3 18.48 C 0 km/h
221 22-08-2008 04:00:00 18.36 C 9.54 g/m*3 18.36 C 0 km/h
222 22-08-2008 05:00:00 18.12 C 9.65 g/m*3 18.12 C 0 km/h
223 22-08-2008 06:00:00 17.3 C 9.75 g/m*3 17.3 C 0 km/h
224 22-08-2008 07:00:00 17.1 C 10.1 g/m*3 17.1 C 0 km/h
225 22-08-2008 08:00:00 17.82 C 10.09 g/m*3 17.82 C 0 km/h
Sensor: Nr:Datum:Temp:Abs-Feuchte:Windchill:Wind:
Aussen-T/F 226 22-08-2008 09:00:00 18.78 C 10.04 g/m*3 18.78 C 0 km/h
227 22-08-2008 10:00:00 22.04 C 9.77 g/m*3 22.04 C 0 km/h
228 22-08-2008 11:00:00 24.46 C 9.2 g/m*3 24.46 C 0 km/h
229 22-08-2008 12:00:00 24.68 C 9 g/m*3 24.68 C 0 km/h
230 22-08-2008 13:00:00 23.26 C 9.93 g/m*3 23.26 C 0 km/h
231 22-08-2008 14:00:00 18.28 C 12.37 g/m*3 18.28 C 0 km/h
232 22-08-2008 15:00:00 18.22 C 13.38 g/m*3 18.22 C 0 km/h
233 22-08-2008 16:00:00 18.28 C 13.77 g/m*3 18.28 C 0 km/h
234 22-08-2008 17:00:00 17.66 C 13.25 g/m*3 17.66 C 0 km/h
235 22-08-2008 18:00:00 16.08 C 11.94 g/m*3 16.08 C 0 km/h
236 22-08-2008 19:00:00 15.32 C 11.85 g/m*3 15.32 C 0 km/h
237 22-08-2008 20:00:00 15.36 C 12.11 g/m*3 15.36 C 0 km/h
238 22-08-2008 21:00:00 15.24 C 12.13 g/m*3 15.24 C 0 km/h
239 22-08-2008 22:00:00 14.88 C 11.97 g/m*3 14.88 C 0 km/h
240 22-08-2008 23:00:00 14.68 C 11.85 g/m*3 14.68 C 0 km/h
241 23-08-2008 00:00:00 14.18 C 11.49 g/m*3 14.18 C 0 km/h
242 23-08-2008 01:00:00 13.82 C 11.26 g/m*3 13.82 C 0 km/h
243 23-08-2008 02:00:00 13.7 C 11.06 g/m*3 13.7 C 0 km/h
244 23-08-2008 03:00:00 12.94 C 9.94 g/m*3 12.94 C 0 km/h
245 23-08-2008 04:00:00 11.54 C 9.3 g/m*3 11.54 C 0 km/h
246 23-08-2008 05:00:00 10.92 C 9.14 g/m*3 10.92 C 0 km/h
247 23-08-2008 06:00:00 10.92 C 9.24 g/m*3 10.92 C 0 km/h
248 23-08-2008 07:00:00 10.98 C 9.26 g/m*3 10.98 C 0 km/h
249 23-08-2008 08:00:00 12.38 C 9.49 g/m*3 12.38 C 0 km/h
250 23-08-2008 09:00:00 13.44 C 9.07 g/m*3 13.44 C 0 km/h
Sensor: Nr:Datum:Temp:Abs-Feuchte:Windchill:Wind:
Aussen-T/F 251 23-08-2008 10:00:00 15.2 C 8.83 g/m*3 15.2 C 0 km/h
252 23-08-2008 11:00:00 17.02 C 8.46 g/m*3 17.02 C 0 km/h
253 23-08-2008 12:00:00 17.82 C 7.81 g/m*3 17.82 C 0 km/h
254 23-08-2008 13:00:00 17.92 C 7.55 g/m*3 17.92 C 0 km/h
255 23-08-2008 14:00:00 17.74 C 6.47 g/m*3 17.74 C 0 km/h
256 23-08-2008 15:00:00 17.14 C 6.48 g/m*3 17.14 C 0 km/h
257 23-08-2008 16:00:00 17.84 C 7.39 g/m*3 17.84 C 0 km/h
258 23-08-2008 17:00:00 19.52 C 7.53 g/m*3 19.52 C 0 km/h
259 23-08-2008 18:00:00 18.68 C 6.94 g/m*3 18.68 C 0 km/h
260 23-08-2008 19:00:00 16.78 C 8.88 g/m*3 16.78 C 0 km/h
261 23-08-2008 20:00:00 15.76 C 8.84 g/m*3 15.76 C 0 km/h
262 23-08-2008 21:00:00 14.2 C 9.92 g/m*3 14.2 C 0 km/h
263 23-08-2008 22:00:00 14.36 C 9.69 g/m*3 14.36 C 0 km/h
264 23-08-2008 23:00:00 14.02 C 9.3 g/m*3 14.02 C 0 km/h
265 24-08-2008 00:00:00 13.68 C 9.08 g/m*3 13.68 C 0 km/h
266 24-08-2008 01:00:00 13.3 C 8.92 g/m*3 13.3 C 0 km/h
267 24-08-2008 02:00:00 12.8 C 8.92 g/m*3 12.8 C 0 km/h
268 24-08-2008 03:00:00 12.34 C 8.9 g/m*3 12.34 C 0 km/h
269 24-08-2008 04:00:00 11.92 C 8.82 g/m*3 11.92 C 0 km/h
270 24-08-2008 05:00:00 11.22 C 8.77 g/m*3 11.22 C 0 km/h
271 24-08-2008 06:00:00 11.58 C 8.93 g/m*3 11.58 C 0 km/h
272 24-08-2008 07:00:00 11.7 C 8.89 g/m*3 11.7 C 0 km/h
273 24-08-2008 08:00:00 11.94 C 9.02 g/m*3 11.94 C 0 km/h
274 24-08-2008 09:00:00 13.4 C 9.28 g/m*3 13.4 C 0 km/h
275 24-08-2008 10:00:00 15.82 C 9.19 g/m*3 15.82 C 0 km/h
Sensor: Nr:Datum:Temp:Abs-Feuchte:Windchill:Wind:
Aussen-T/F 276 24-08-2008 11:00:00 17.7 C 8.48 g/m*3 17.7 C 0 km/h
277 24-08-2008 12:00:00 19.42 C 7.25 g/m*3 19.42 C 0 km/h
278 24-08-2008 13:00:00 20.94 C 6.72 g/m*3 20.94 C 0 km/h
279 24-08-2008 14:00:00 21.78 C 6.13 g/m*3 21.78 C 0 km/h
280 24-08-2008 15:00:00 22.6 C 6.15 g/m*3 22.6 C 0 km/h
281 24-08-2008 16:00:00 22.62 C 6.15 g/m*3 22.62 C 0 km/h
282 24-08-2008 17:00:00 22.78 C 6.05 g/m*3 22.78 C 0 km/h
283 24-08-2008 18:00:00 21.52 C 7.17 g/m*3 21.52 C 0 km/h
284 24-08-2008 19:00:00 20.28 C 7.66 g/m*3 20.28 C 0 km/h
285 24-08-2008 20:00:00 18.58 C 8.01 g/m*3 18.58 C 0 km/h
286 24-08-2008 21:00:00 17.9 C 8.24 g/m*3 17.9 C 0 km/h
287 24-08-2008 22:00:00 17.12 C 8.69 g/m*3 17.12 C 0 km/h
288 24-08-2008 23:00:00 15.3 C 10.34 g/m*3 15.3 C 0 km/h
289 25-08-2008 00:00:00 14.46 C 10.97 g/m*3 14.46 C 0 km/h
290 25-08-2008 01:00:00 14.44 C 11.15 g/m*3 14.44 C 0 km/h
291 25-08-2008 02:00:00 14.66 C 11.33 g/m*3 14.66 C 0 km/h
292 25-08-2008 03:00:00 14.44 C 11.08 g/m*3 14.44 C 0 km/h
293 25-08-2008 04:00:00 14.3 C 11.03 g/m*3 14.3 C 0 km/h
294 25-08-2008 05:00:00 14.22 C 11.1 g/m*3 14.22 C 0 km/h
295 25-08-2008 06:00:00 14.48 C 10.96 g/m*3 14.48 C 0 km/h
296 25-08-2008 07:00:00 14.72 C 11.04 g/m*3 14.72 C 0 km/h
297 25-08-2008 08:00:00 14.96 C 11.18 g/m*3 14.96 C 0 km/h
298 25-08-2008 09:00:00 15.72 C 11.57 g/m*3 15.72 C 0 km/h
299 25-08-2008 10:00:00 16.88 C 11.69 g/m*3 16.88 C 0 km/h
300 25-08-2008 11:00:00 17.8 C 11.44 g/m*3 17.8 C 0 km/h
Sensor: Nr:Datum:Temp:Abs-Feuchte:Windchill:Wind:
Aussen-T/F 301 25-08-2008 12:00:00 19.7 C 10.8 g/m*3 19.7 C 0 km/h
302 25-08-2008 13:00:00 19.92 C 10.39 g/m*3 19.92 C 0 km/h
303 25-08-2008 14:00:00 20.68 C 10.25 g/m*3 20.68 C 0 km/h
304 25-08-2008 15:00:00 21.22 C 10.28 g/m*3 21.22 C 0 km/h
305 25-08-2008 16:00:00 22.64 C 9.95 g/m*3 22.64 C 0 km/h
306 25-08-2008 17:00:00 23.2 C 9.85 g/m*3 23.2 C 0 km/h
307 25-08-2008 18:00:00 21.24 C 10.36 g/m*3 21.24 C 0 km/h
308 25-08-2008 19:00:00 20.72 C 10.49 g/m*3 20.72 C 0 km/h
309 25-08-2008 20:00:00 18.86 C 9.76 g/m*3 18.86 C 0 km/h
310 25-08-2008 21:00:00 17.24 C 9.98 g/m*3 17.24 C 0 km/h
311 25-08-2008 22:00:00 16.48 C 9.82 g/m*3 16.48 C 0 km/h
312 25-08-2008 23:00:00 15.48 C 9.93 g/m*3 15.48 C 0 km/h
313 26-08-2008 00:00:00 14.56 C 10.14 g/m*3 14.56 C 0 km/h
314 26-08-2008 01:00:00 13.94 C 9.93 g/m*3 13.94 C 0 km/h
315 26-08-2008 02:00:00 13.92 C 9.99 g/m*3 13.92 C 0 km/h
316 26-08-2008 03:00:00 14.08 C 9.87 g/m*3 14.08 C 0 km/h
317 26-08-2008 04:00:00 14.2 C 9.96 g/m*3 14.2 C 0 km/h
318 26-08-2008 05:00:00 14.6 C 10.06 g/m*3 14.6 C 0 km/h
319 26-08-2008 06:00:00 14.78 C 9.84 g/m*3 14.78 C 0 km/h
320 26-08-2008 07:00:00 15.16 C 9.74 g/m*3 15.16 C 0 km/h
321 26-08-2008 08:00:00 15.82 C 9.78 g/m*3 15.82 C 0 km/h
322 26-08-2008 09:00:00 16.82 C 9.65 g/m*3 16.82 C 0 km/h
323 26-08-2008 10:00:00 18.22 C 9.52 g/m*3 18.22 C 0 km/h
324 26-08-2008 11:00:00 20.56 C 9.25 g/m*3 20.56 C 0 km/h
325 26-08-2008 12:00:00 22.68 C 8.88 g/m*3 22.68 C 0 km/h
Sensor: Nr:Datum:Temp:Abs-Feuchte:Windchill:Wind:
Aussen-T/F 326 26-08-2008 13:00:00 23.52 C 9.1 g/m*3 23.52 C 0 km/h
327 26-08-2008 14:00:00 23.78 C 8.94 g/m*3 23.78 C 0 km/h
328 26-08-2008 15:00:00 24.82 C 8.8 g/m*3 24.82 C 0 km/h
329 26-08-2008 16:00:00 25.78 C 8.71 g/m*3 25.78 C 0 km/h
330 26-08-2008 17:00:00 26.36 C 8.49 g/m*3 26.36 C 0 km/h
331 26-08-2008 18:00:00 25.84 C 8.93 g/m*3 25.84 C 0 km/h
332 26-08-2008 19:00:00 24.04 C 9.55 g/m*3 24.04 C 0 km/h
333 26-08-2008 20:00:00 22.04 C 10 g/m*3 22.04 C 0 km/h
334 26-08-2008 21:00:00 20.46 C 10.51 g/m*3 20.46 C 0 km/h
335 26-08-2008 22:00:00 18.82 C 11 g/m*3 18.82 C 0 km/h
336 26-08-2008 23:00:00 17.74 C 11.19 g/m*3 17.74 C 0 km/h
337 27-08-2008 00:00:00 16.8 C 11.27 g/m*3 16.8 C 0 km/h
338 27-08-2008 01:00:00 16.06 C 11.19 g/m*3 16.06 C 0 km/h
339 27-08-2008 02:00:00 15.68 C 11.17 g/m*3 15.68 C 0 km/h
340 27-08-2008 03:00:00 15.74 C 11.13 g/m*3 15.74 C 0 km/h
341 27-08-2008 04:00:00 15.36 C 10.88 g/m*3 15.36 C 0 km/h
342 27-08-2008 05:00:00 14.34 C 10.62 g/m*3 14.34 C 0 km/h
343 27-08-2008 06:00:00 14.16 C 10.74 g/m*3 14.16 C 0 km/h
344 27-08-2008 07:00:00 14.42 C 10.82 g/m*3 14.42 C 0 km/h
345 27-08-2008 08:00:00 14.88 C 10.59 g/m*3 14.88 C 0 km/h
346 27-08-2008 09:00:00 16.3 C 10.74 g/m*3 16.3 C 0 km/h
347 27-08-2008 10:00:00 18.12 C 10.8 g/m*3 18.12 C 0 km/h
348 27-08-2008 11:00:00 20.58 C 9.65 g/m*3 20.58 C 0 km/h
349 27-08-2008 12:00:00 21.84 C 9.38 g/m*3 21.84 C 0 km/h
350 27-08-2008 13:00:00 23.42 C 9.26 g/m*3 23.42 C 0 km/h
Sensor: Nr:Datum:Temp:Abs-Feuchte:Windchill:Wind:
Aussen-T/F 351 27-08-2008 14:00:00 25.38 C 8.94 g/m*3 25.38 C 0 km/h
352 27-08-2008 15:00:00 27.12 C 8.76 g/m*3 27.12 C 0 km/h
353 27-08-2008 16:00:00 28.84 C 8.6 g/m*3 28.84 C 0 km/h
354 27-08-2008 17:00:00 27.4 C 8.84 g/m*3 27.4 C 0 km/h
355 27-08-2008 18:00:00 26.1 C 9.25 g/m*3 26.1 C 0 km/h
356 27-08-2008 19:00:00 23.36 C 9.69 g/m*3 23.36 C 0 km/h
357 27-08-2008 20:00:00 21.56 C 9.69 g/m*3 21.56 C 0 km/h
358 27-08-2008 21:00:00 20.56 C 9.46 g/m*3 20.56 C 0 km/h
359 27-08-2008 22:00:00 19.94 C 9.3 g/m*3 19.94 C 0 km/h
360 27-08-2008 23:00:00 19.6 C 9.59 g/m*3 19.6 C 0 km/h
361 28-08-2008 00:00:00 19.24 C 9.65 g/m*3 19.24 C 0 km/h
362 28-08-2008 01:00:00 19 C 9.75 g/m*3 19 C 0 km/h
363 28-08-2008 02:00:00 18.78 C 10.01 g/m*3 18.78 C 0 km/h
364 28-08-2008 03:00:00 18.54 C 10.09 g/m*3 18.54 C 0 km/h
365 28-08-2008 04:00:00 18.36 C 10.23 g/m*3 18.36 C 0 km/h
366 28-08-2008 05:00:00 18.14 C 10.16 g/m*3 18.14 C 0 km/h
367 28-08-2008 06:00:00 17.9 C 10.26 g/m*3 17.9 C 0 km/h
368 28-08-2008 07:00:00 17.88 C 10.4 g/m*3 17.88 C 0 km/h
369 28-08-2008 08:00:00 18.4 C 10.7 g/m*3 18.4 C 0 km/h
370 28-08-2008 09:00:00 19.16 C 10.13 g/m*3 19.16 C 0 km/h
371 28-08-2008 10:00:00 19.92 C 9.43 g/m*3 19.92 C 0 km/h
372 28-08-2008 11:00:00 21.8 C 8.13 g/m*3 21.8 C 0 km/h
373 28-08-2008 12:00:00 23.16 C 7.47 g/m*3 23.16 C 0 km/h
374 28-08-2008 13:00:00 23.42 C 7.49 g/m*3 23.42 C 0 km/h
375 28-08-2008 14:00:00 23.34 C 7.75 g/m*3 23.34 C 0 km/h
Sensor: Nr:Datum:Temp:Abs-Feuchte:Windchill:Wind:
Aussen-T/F 376 28-08-2008 15:00:00 23.82 C 7.71 g/m*3 23.82 C 0 km/h
377 28-08-2008 16:00:00 23.08 C 8.01 g/m*3 23.08 C 0 km/h
378 28-08-2008 17:00:00 22.46 C 8.05 g/m*3 22.46 C 0 km/h
379 28-08-2008 18:00:00 21.84 C 8.19 g/m*3 21.84 C 0 km/h
380 28-08-2008 19:00:00 21.42 C 8.6 g/m*3 21.42 C 0 km/h
381 28-08-2008 20:00:00 20.46 C 9.2 g/m*3 20.46 C 0 km/h
382 28-08-2008 21:00:00 19.9 C 9.38 g/m*3 19.9 C 0 km/h
383 28-08-2008 22:00:00 19.34 C 9.74 g/m*3 19.34 C 0 km/h
384 28-08-2008 23:00:00 19.14 C 9.89 g/m*3 19.14 C 0 km/h
385 29-08-2008 00:00:00 18.9 C 10.01 g/m*3 18.9 C 0 km/h
386 29-08-2008 01:00:00 18.72 C 9.87 g/m*3 18.72 C 0 km/h
387 29-08-2008 02:00:00 18.5 C 9.65 g/m*3 18.5 C 0 km/h
388 29-08-2008 03:00:00 18.24 C 9.69 g/m*3 18.24 C 0 km/h
389 29-08-2008 04:00:00 18.1 C 9.46 g/m*3 18.1 C 0 km/h
390 29-08-2008 05:00:00 17.94 C 9.31 g/m*3 17.94 C 0 km/h
391 29-08-2008 06:00:00 17.8 C 9.41 g/m*3 17.8 C 0 km/h
392 29-08-2008 07:00:00 17.84 C 9.55 g/m*3 17.84 C 0 km/h
393 29-08-2008 08:00:00 18.08 C 9.54 g/m*3 18.08 C 0 km/h
394 29-08-2008 09:00:00 18.54 C 9.8 g/m*3 18.54 C 0 km/h
395 29-08-2008 10:00:00 19.92 C 9.39 g/m*3 19.92 C 0 km/h
396 29-08-2008 11:00:00 20.74 C 9.38 g/m*3 20.74 C 0 km/h
397 29-08-2008 12:00:00 21.54 C 9.41 g/m*3 21.54 C 0 km/h
398 29-08-2008 13:00:00 23.36 C 8.85 g/m*3 23.36 C 0 km/h
399 29-08-2008 14:00:00 24.14 C 8.95 g/m*3 24.14 C 0 km/h
400 29-08-2008 15:00:00 24.76 C 8.63 g/m*3 24.76 C 0 km/h
Sensor: Nr:Datum:Temp:Abs-Feuchte:Windchill:Wind:
Aussen-T/F 401 29-08-2008 16:00:00 25.3 C 8.71 g/m*3 25.3 C 0 km/h
402 29-08-2008 17:00:00 27.22 C 8.6 g/m*3 27.22 C 0 km/h
403 29-08-2008 18:00:00 27.74 C 8.63 g/m*3 27.74 C 0 km/h
404 29-08-2008 19:00:00 24.98 C 9.06 g/m*3 24.98 C 0 km/h
405 29-08-2008 20:00:00 21.52 C 10.01 g/m*3 21.52 C 0 km/h
406 29-08-2008 21:00:00 19.38 C 10.43 g/m*3 19.38 C 0 km/h
407 29-08-2008 22:00:00 18.7 C 10.77 g/m*3 18.7 C 0 km/h
408 29-08-2008 23:00:00 17.88 C 10.92 g/m*3 17.88 C 0 km/h
409 30-08-2008 00:00:00 16.92 C 10.92 g/m*3 16.92 C 0 km/h
410 30-08-2008 01:00:00 16.18 C 10.85 g/m*3 16.18 C 0 km/h
411 30-08-2008 02:00:00 15.54 C 10.68 g/m*3 15.54 C 0 km/h
412 30-08-2008 03:00:00 14.9 C 10.45 g/m*3 14.9 C 0 km/h
413 30-08-2008 04:00:00 14.44 C 10.29 g/m*3 14.44 C 0 km/h
414 30-08-2008 05:00:00 14.4 C 10.41 g/m*3 14.4 C 0 km/h
415 30-08-2008 06:00:00 14.38 C 10.64 g/m*3 14.38 C 0 km/h
416 30-08-2008 07:00:00 14.8 C 11.05 g/m*3 14.8 C 0 km/h
417 30-08-2008 08:00:00 15.52 C 11.04 g/m*3 15.52 C 0 km/h
418 30-08-2008 09:00:00 16.44 C 11.16 g/m*3 16.44 C 0 km/h
419 30-08-2008 10:00:00 17.98 C 11.66 g/m*3 17.98 C 0 km/h
420 30-08-2008 11:00:00 20.7 C 11.23 g/m*3 20.7 C 0 km/h
421 30-08-2008 12:00:00 23.34 C 10.6 g/m*3 23.34 C 0 km/h
422 30-08-2008 13:00:00 25.52 C 9.81 g/m*3 25.52 C 0 km/h
423 30-08-2008 14:00:00 28.24 C 9.31 g/m*3 28.24 C 0 km/h
424 30-08-2008 15:00:00 30.28 C 8.62 g/m*3 30.28 C 0 km/h
425 30-08-2008 16:00:00 31.38 C 7.84 g/m*3 31.38 C 0 km/h
Sensor: Nr:Datum:Temp:Abs-Feuchte:Windchill:Wind:
Aussen-T/F 426 30-08-2008 17:00:00 31.88 C 7.04 g/m*3 31.88 C 0 km/h
427 30-08-2008 18:00:00 32 C 6.89 g/m*3 32 C 0 km/h
428 30-08-2008 19:00:00 30.04 C 8.14 g/m*3 30.04 C 0 km/h
429 30-08-2008 20:00:00 24.5 C 9.09 g/m*3 24.5 C 0 km/h
430 30-08-2008 21:00:00 22.22 C 9.63 g/m*3 22.22 C 0 km/h
431 30-08-2008 22:00:00 20.94 C 9.75 g/m*3 20.94 C 0 km/h
432 30-08-2008 23:00:00 19.9 C 9.69 g/m*3 19.9 C 0 km/h
433 31-08-2008 00:00:00 18.82 C 9.8 g/m*3 18.82 C 0 km/h
434 31-08-2008 01:00:00 17.88 C 9.79 g/m*3 17.88 C 0 km/h
435 31-08-2008 02:00:00 16.96 C 10.13 g/m*3 16.96 C 0 km/h
436 31-08-2008 03:00:00 16.04 C 9.83 g/m*3 16.04 C 0 km/h
437 31-08-2008 04:00:00 15.38 C 10.03 g/m*3 15.38 C 0 km/h
438 31-08-2008 05:00:00 14.68 C 9.71 g/m*3 14.68 C 0 km/h
439 31-08-2008 06:00:00 14.1 C 9.47 g/m*3 14.1 C 0 km/h
440 31-08-2008 07:00:00 14.02 C 9.61 g/m*3 14.02 C 0 km/h
441 31-08-2008 08:00:00 14.48 C 9.84 g/m*3 14.48 C 0 km/h
442 31-08-2008 09:00:00 15.96 C 10.22 g/m*3 15.96 C 0 km/h
443 31-08-2008 10:00:00 18.88 C 10.03 g/m*3 18.88 C 0 km/h
444 31-08-2008 11:00:00 22.1 C 9.88 g/m*3 22.1 C 0 km/h
445 31-08-2008 12:00:00 25.18 C 8.65 g/m*3 25.18 C 0 km/h
446 31-08-2008 13:00:00 27.14 C 8.3 g/m*3 27.14 C 0 km/h
447 31-08-2008 14:00:00 29.5 C 8.5 g/m*3 29.5 C 0 km/h
448 31-08-2008 15:00:00 30.98 C 7.86 g/m*3 30.98 C 0 km/h
449 31-08-2008 16:00:00 31.92 C 7.46 g/m*3 31.92 C 0 km/h
450 31-08-2008 17:00:00 31.62 C 8.07 g/m*3 31.62 C 0 km/h
Sensor: Nr:Datum:Temp:Abs-Feuchte:Windchill:Wind:
Aussen-T/F 451 31-08-2008 18:00:00 32.22 C 7.79 g/m*3 32.22 C 0 km/h
452 31-08-2008 19:00:00 30.08 C 9.56 g/m*3 30.08 C 0 km/h
453 31-08-2008 20:00:00 25.74 C 10.61 g/m*3 25.74 C 0 km/h
454 31-08-2008 21:00:00 24.5 C 11.28 g/m*3 24.5 C 0 km/h
455 31-08-2008 22:00:00 23.42 C 11.7 g/m*3 23.42 C 0 km/h
456 31-08-2008 23:00:00 22.62 C 11.87 g/m*3 22.62 C 0 km/h
457 01-09-2008 00:00:00 22.08 C 11.97 g/m*3 22.08 C 0 km/h
458 01-09-2008 01:00:00 21.84 C 12.04 g/m*3 21.84 C 0 km/h
459 01-09-2008 02:00:00 21.42 C 12.16 g/m*3 21.42 C 0 km/h
460 01-09-2008 03:00:00 20.8 C 11.84 g/m*3 20.8 C 0 km/h
461 01-09-2008 04:00:00 20.68 C 11.72 g/m*3 20.68 C 0 km/h
462 01-09-2008 05:00:00 19.24 C 12.89 g/m*3 19.24 C 0 km/h
463 01-09-2008 06:00:00 19.14 C 13.28 g/m*3 19.14 C 0 km/h
464 01-09-2008 07:00:00 18.74 C 13.61 g/m*3 18.74 C 0 km/h
465 01-09-2008 08:00:00 19.12 C 13.36 g/m*3 19.12 C 0 km/h
466 01-09-2008 09:00:00 19.98 C 13.12 g/m*3 19.98 C 0 km/h
467 01-09-2008 10:00:00 21.42 C 11.71 g/m*3 21.42 C 0 km/h
468 01-09-2008 11:00:00 22.42 C 10.46 g/m*3 22.42 C 0 km/h
469 01-09-2008 12:00:00 21.9 C 9.8 g/m*3 21.9 C 0 km/h
470 01-09-2008 13:00:00 23.36 C 8.98 g/m*3 23.36 C 0 km/h
471 01-09-2008 14:00:00 24.4 C 7.43 g/m*3 24.4 C 0 km/h
472 01-09-2008 15:00:00 23.56 C 7.6 g/m*3 23.56 C 0 km/h
473 01-09-2008 16:00:00 23.32 C 7.08 g/m*3 23.32 C 0 km/h
474 01-09-2008 17:00:00 22.9 C 6.95 g/m*3 22.9 C 0 km/h
475 01-09-2008 18:00:00 22.34 C 7.01 g/m*3 22.34 C 0 km/h
Sensor: Nr:Datum:Temp:Abs-Feuchte:Windchill:Wind:
Aussen-T/F 476 01-09-2008 19:00:00 21.18 C 7.55 g/m*3 21.18 C 0 km/h
477 01-09-2008 20:00:00 19.58 C 8.06 g/m*3 19.58 C 0 km/h
478 01-09-2008 21:00:00 18.6 C 8.4 g/m*3 18.6 C 0 km/h
479 01-09-2008 22:00:00 17.54 C 8.64 g/m*3 17.54 C 0 km/h
480 01-09-2008 23:00:00 16.98 C 8.93 g/m*3 16.98 C 0 km/h
481 02-09-2008 00:00:00 16.58 C 9.17 g/m*3 16.58 C 0 km/h
482 02-09-2008 01:00:00 15.78 C 9.44 g/m*3 15.78 C 0 km/h
483 02-09-2008 02:00:00 15.14 C 9.39 g/m*3 15.14 C 0 km/h
484 02-09-2008 03:00:00 14.14 C 9.37 g/m*3 14.14 C 0 km/h
485 02-09-2008 04:00:00 13.72 C 9.41 g/m*3 13.72 C 0 km/h
486 02-09-2008 05:00:00 13.24 C 9.37 g/m*3 13.24 C 0 km/h
487 02-09-2008 06:00:00 12.64 C 9.25 g/m*3 12.64 C 0 km/h
488 02-09-2008 07:00:00 12.52 C 9.25 g/m*3 12.52 C 0 km/h
489 02-09-2008 08:00:00 13.88 C 9.89 g/m*3 13.88 C 0 km/h
490 02-09-2008 09:00:00 15.68 C 9.86 g/m*3 15.68 C 0 km/h
491 02-09-2008 10:00:00 18.64 C 10.02 g/m*3 18.64 C 0 km/h
492 02-09-2008 11:00:00 20.92 C 9.15 g/m*3 20.92 C 0 km/h
493 02-09-2008 12:00:00 22.6 C 8.52 g/m*3 22.6 C 0 km/h
494 02-09-2008 13:00:00 23.56 C 7.68 g/m*3 23.56 C 0 km/h
495 02-09-2008 14:00:00 24.88 C 7.36 g/m*3 24.88 C 0 km/h
496 02-09-2008 15:00:00 25.26 C 7.29 g/m*3 25.26 C 0 km/h
497 02-09-2008 16:00:00 24.48 C 7.15 g/m*3 24.48 C 0 km/h
498 02-09-2008 17:00:00 24.4 C 7.48 g/m*3 24.4 C 0 km/h
499 02-09-2008 18:00:00 23.92 C 7.93 g/m*3 23.92 C 0 km/h
500 02-09-2008 19:00:00 23.24 C 8.08 g/m*3 23.24 C 0 km/h
Sensor: Nr:Datum:Temp:Abs-Feuchte:Windchill:Wind:
Aussen-T/F 501 02-09-2008 20:00:00 21.96 C 8.37 g/m*3 21.96 C 0 km/h
502 02-09-2008 21:00:00 21.08 C 8.83 g/m*3 21.08 C 0 km/h
503 02-09-2008 22:00:00 20.24 C 9.08 g/m*3 20.24 C 0 km/h
504 02-09-2008 23:00:00 20.22 C 9.35 g/m*3 20.22 C 0 km/h
505 03-09-2008 00:00:00 19.66 C 10.4 g/m*3 19.66 C 0 km/h
506 03-09-2008 01:00:00 18.26 C 12.45 g/m*3 18.26 C 0 km/h
507 03-09-2008 02:00:00 18.4 C 11.99 g/m*3 18.4 C 0 km/h
508 03-09-2008 03:00:00 18.02 C 12.03 g/m*3 18.02 C 0 km/h
509 03-09-2008 04:00:00 16.28 C 12.33 g/m*3 16.28 C 0 km/h
510 03-09-2008 05:00:00 15.82 C 12.37 g/m*3 15.82 C 0 km/h
511 03-09-2008 06:00:00 15.5 C 12.29 g/m*3 15.5 C 0 km/h
512 03-09-2008 07:00:00 14.88 C 11.58 g/m*3 14.88 C 0 km/h
513 03-09-2008 08:00:00 15.08 C 10.44 g/m*3 15.08 C 0 km/h
514 03-09-2008 09:00:00 15.9 C 9.97 g/m*3 15.9 C 0 km/h
515 03-09-2008 10:00:00 16.42 C 9.14 g/m*3 16.42 C 0 km/h
516 03-09-2008 11:00:00 16.66 C 8.85 g/m*3 16.66 C 0 km/h
517 03-09-2008 12:00:00 17.06 C 9 g/m*3 17.06 C 0 km/h
518 03-09-2008 13:00:00 17.06 C 8.57 g/m*3 17.06 C 0 km/h
519 03-09-2008 14:00:00 14.28 C 9.87 g/m*3 14.28 C 0 km/h
520 03-09-2008 15:00:00 13.8 C 10.15 g/m*3 13.8 C 0 km/h
521 03-09-2008 16:00:00 13.78 C 10.31 g/m*3 13.78 C 0 km/h
522 03-09-2008 17:00:00 13.82 C 10.52 g/m*3 13.82 C 0 km/h
523 03-09-2008 18:00:00 13.64 C 10.5 g/m*3 13.64 C 0 km/h
524 03-09-2008 19:00:00 12.92 C 9.98 g/m*3 12.92 C 0 km/h
525 03-09-2008 20:00:00 12.56 C 9.62 g/m*3 12.56 C 0 km/h
Sensor: Nr:Datum:Temp:Abs-Feuchte:Windchill:Wind:
Aussen-T/F 526 03-09-2008 21:00:00 12.18 C 9.25 g/m*3 12.18 C 0 km/h
527 03-09-2008 22:00:00 11.72 C 8.86 g/m*3 11.72 C 0 km/h
528 03-09-2008 23:00:00 11.36 C 8.76 g/m*3 11.36 C 0 km/h
529 04-09-2008 00:00:00 10.92 C 8.45 g/m*3 10.92 C 0 km/h
530 04-09-2008 01:00:00 10.14 C 8.3 g/m*3 10.14 C 0 km/h
531 04-09-2008 02:00:00 10.24 C 8.34 g/m*3 10.24 C 0 km/h
532 04-09-2008 03:00:00 9.54 C 8.16 g/m*3 9.54 C 0 km/h
533 04-09-2008 04:00:00 9.34 C 8.11 g/m*3 9.34 C 0 km/h
534 04-09-2008 05:00:00 9.08 C 8.08 g/m*3 9.08 C 0 km/h
535 04-09-2008 06:00:00 8.64 C 7.94 g/m*3 8.64 C 0 km/h
536 04-09-2008 07:00:00 9.36 C 8.28 g/m*3 9.36 C 0 km/h
537 04-09-2008 08:00:00 9.94 C 8.44 g/m*3 9.94 C 0 km/h
538 04-09-2008 09:00:00 11.44 C 8.89 g/m*3 11.44 C 0 km/h
539 04-09-2008 10:00:00 14.3 C 8.21 g/m*3 14.3 C 0 km/h
540 04-09-2008 11:00:00 14.9 C 7.65 g/m*3 14.9 C 0 km/h
541 04-09-2008 12:00:00 16.62 C 7.52 g/m*3 16.62 C 0 km/h
542 04-09-2008 13:00:00 17.54 C 7.2 g/m*3 17.54 C 0 km/h
543 04-09-2008 14:00:00 17.16 C 6.66 g/m*3 17.16 C 0 km/h
544 04-09-2008 15:00:00 17.9 C 6.63 g/m*3 17.9 C 0 km/h
545 04-09-2008 16:00:00 19.1 C 6.2 g/m*3 19.1 C 0 km/h
546 04-09-2008 17:00:00 19.7 C 5.84 g/m*3 19.7 C 0 km/h
547 04-09-2008 18:00:00 18.66 C 6.04 g/m*3 18.66 C 0 km/h
548 04-09-2008 19:00:00 16.88 C 6.64 g/m*3 16.88 C 0 km/h
549 04-09-2008 20:00:00 14.94 C 7.33 g/m*3 14.94 C 0 km/h
550 04-09-2008 21:00:00 14.5 C 7.01 g/m*3 14.5 C 0 km/h
Sensor: Nr:Datum:Temp:Abs-Feuchte:Windchill:Wind:
Aussen-T/F 551 04-09-2008 22:00:00 14.18 C 7.56 g/m*3 14.18 C 0 km/h
552 04-09-2008 23:00:00 13.84 C 8.24 g/m*3 13.84 C 0 km/h
553 05-09-2008 00:00:00 13.6 C 8.4 g/m*3 13.6 C 0 km/h
554 05-09-2008 01:00:00 13.24 C 8.93 g/m*3 13.24 C 0 km/h
555 05-09-2008 02:00:00 13.18 C 8.9 g/m*3 13.18 C 0 km/h
556 05-09-2008 03:00:00 12.84 C 9.3 g/m*3 12.84 C 0 km/h
557 05-09-2008 04:00:00 12.48 C 9.36 g/m*3 12.48 C 0 km/h
558 05-09-2008 05:00:00 12.24 C 9.33 g/m*3 12.24 C 0 km/h
559 05-09-2008 06:00:00 12.6 C 9.4 g/m*3 12.6 C 0 km/h
560 05-09-2008 07:00:00 13.18 C 9.5 g/m*3 13.18 C 0 km/h
561 05-09-2008 08:00:00 13.48 C 9.58 g/m*3 13.48 C 0 km/h
562 05-09-2008 09:00:00 15.08 C 10.1 g/m*3 15.08 C 0 km/h
563 05-09-2008 10:00:00 17.48 C 9.77 g/m*3 17.48 C 0 km/h
564 05-09-2008 11:00:00 18.86 C 9.6 g/m*3 18.86 C 0 km/h
565 05-09-2008 12:00:00 20.74 C 9.56 g/m*3 20.74 C 0 km/h
566 05-09-2008 13:00:00 22.04 C 9.69 g/m*3 22.04 C 0 km/h
567 05-09-2008 14:00:00 22.02 C 9.95 g/m*3 22.02 C 0 km/h
568 05-09-2008 15:00:00 20.92 C 10.47 g/m*3 20.92 C 0 km/h
569 05-09-2008 16:00:00 22.1 C 10.54 g/m*3 22.1 C 0 km/h
570 05-09-2008 17:00:00 21.9 C 10.69 g/m*3 21.9 C 0 km/h
571 05-09-2008 18:00:00 21.52 C 10.87 g/m*3 21.52 C 0 km/h
572 05-09-2008 19:00:00 20.02 C 11.66 g/m*3 20.02 C 0 km/h
573 05-09-2008 20:00:00 16.98 C 12.57 g/m*3 16.98 C 0 km/h
574 05-09-2008 21:00:00 16.98 C 13.15 g/m*3 16.98 C 0 km/h
575 05-09-2008 22:00:00 17.14 C 13.51 g/m*3 17.14 C 0 km/h
Sensor: Nr:Datum:Temp:Abs-Feuchte:Windchill:Wind:
Aussen-T/F 576 05-09-2008 23:00:00 16.84 C 13.44 g/m*3 16.84 C 0 km/h
577 06-09-2008 00:00:00 16.42 C 13.16 g/m*3 16.42 C 0 km/h
578 06-09-2008 01:00:00 15.86 C 12.78 g/m*3 15.86 C 0 km/h
579 06-09-2008 02:00:00 15.68 C 12.7 g/m*3 15.68 C 0 km/h
580 06-09-2008 03:00:00 15.58 C 12.51 g/m*3 15.58 C 0 km/h
581 06-09-2008 04:00:00 15.4 C 12.48 g/m*3 15.4 C 0 km/h
582 06-09-2008 05:00:00 15.28 C 12.39 g/m*3 15.28 C 0 km/h
583 06-09-2008 06:00:00 15.72 C 12.73 g/m*3 15.72 C 0 km/h
584 06-09-2008 07:00:00 16 C 12.75 g/m*3 16 C 0 km/h
585 06-09-2008 08:00:00 16.66 C 12.39 g/m*3 16.66 C 0 km/h
586 06-09-2008 09:00:00 18.3 C 11.98 g/m*3 18.3 C 0 km/h
587 06-09-2008 10:00:00 19.92 C 10.87 g/m*3 19.92 C 0 km/h
588 06-09-2008 11:00:00 21.04 C 10.43 g/m*3 21.04 C 0 km/h
589 06-09-2008 12:00:00 21.02 C 10.12 g/m*3 21.02 C 0 km/h
590 06-09-2008 13:00:00 20.78 C 9.73 g/m*3 20.78 C 0 km/h
591 06-09-2008 14:00:00 20.14 C 9.62 g/m*3 20.14 C 0 km/h
592 06-09-2008 15:00:00 19.72 C 8.23 g/m*3 19.72 C 0 km/h
593 06-09-2008 16:00:00 19.28 C 8.91 g/m*3 19.28 C 0 km/h
594 06-09-2008 17:00:00 18.22 C 10.74 g/m*3 18.22 C 0 km/h
595 06-09-2008 18:00:00 18.34 C 10.81 g/m*3 18.34 C 0 km/h
596 06-09-2008 19:00:00 17.6 C 10.95 g/m*3 17.6 C 0 km/h
597 06-09-2008 20:00:00 16.96 C 10.86 g/m*3 16.96 C 0 km/h
598 06-09-2008 21:00:00 16.38 C 10.34 g/m*3 16.38 C 0 km/h
599 06-09-2008 22:00:00 15.72 C 10.53 g/m*3 15.72 C 0 km/h
600 06-09-2008 23:00:00 15.48 C 10.46 g/m*3 15.48 C 0 km/h
Sensor: Nr:Datum:Temp:Abs-Feuchte:Windchill:Wind:
Aussen-T/F 601 07-09-2008 00:00:00 15.26 C 10.27 g/m*3 15.26 C 0 km/h
602 07-09-2008 01:00:00 15.26 C 10.16 g/m*3 15.26 C 0 km/h
603 07-09-2008 02:00:00 15.08 C 9.9 g/m*3 15.08 C 0 km/h
604 07-09-2008 03:00:00 14.3 C 9.63 g/m*3 14.3 C 0 km/h
605 07-09-2008 04:00:00 14.06 C 9.56 g/m*3 14.06 C 0 km/h
606 07-09-2008 05:00:00 13.48 C 9.46 g/m*3 13.48 C 0 km/h
607 07-09-2008 06:00:00 13.32 C 9.49 g/m*3 13.32 C 0 km/h
608 07-09-2008 07:00:00 13.96 C 9.14 g/m*3 13.96 C 0 km/h
609 07-09-2008 08:00:00 14.68 C 9.18 g/m*3 14.68 C 0 km/h
610 07-09-2008 09:00:00 16.04 C 8.66 g/m*3 16.04 C 0 km/h
611 07-09-2008 10:00:00 17.84 C 8.37 g/m*3 17.84 C 0 km/h
612 07-09-2008 11:00:00 17.54 C 8.43 g/m*3 17.54 C 0 km/h
613 07-09-2008 12:00:00 18.82 C 8.13 g/m*3 18.82 C 0 km/h
614 07-09-2008 13:00:00 19.62 C 8.32 g/m*3 19.62 C 0 km/h
615 07-09-2008 14:00:00 20.32 C 8.17 g/m*3 20.32 C 0 km/h
616 07-09-2008 15:00:00 19.54 C 8.58 g/m*3 19.54 C 0 km/h
617 07-09-2008 16:00:00 18.22 C 10.92 g/m*3 18.22 C 0 km/h
618 07-09-2008 17:00:00 19.94 C 9.27 g/m*3 19.94 C 0 km/h
619 07-09-2008 18:00:00 21.14 C 8.53 g/m*3 21.14 C 0 km/h
620 07-09-2008 19:00:00 19.12 C 8.8 g/m*3 19.12 C 0 km/h
621 07-09-2008 20:00:00 17.8 C 9.14 g/m*3 17.8 C 0 km/h
622 07-09-2008 21:00:00 16.78 C 9.22 g/m*3 16.78 C 0 km/h
623 07-09-2008 22:00:00 16.12 C 9.5 g/m*3 16.12 C 0 km/h
624 07-09-2008 23:00:00 15.82 C 9.6 g/m*3 15.82 C 0 km/h
625 08-09-2008 00:00:00 15.64 C 9.47 g/m*3 15.64 C 0 km/h
Sensor: Nr:Datum:Temp:Abs-Feuchte:Windchill:Wind:
Aussen-T/F 626 08-09-2008 01:00:00 15.38 C 9.4 g/m*3 15.38 C 0 km/h
627 08-09-2008 02:00:00 14.94 C 9.48 g/m*3 14.94 C 0 km/h
628 08-09-2008 03:00:00 14.28 C 9.35 g/m*3 14.28 C 0 km/h
629 08-09-2008 04:00:00 14.34 C 9.41 g/m*3 14.34 C 0 km/h
630 08-09-2008 05:00:00 14.1 C 8.98 g/m*3 14.1 C 0 km/h
631 08-09-2008 06:00:00 13.12 C 9 g/m*3 13.12 C 0 km/h
632 08-09-2008 07:00:00 13.32 C 9.44 g/m*3 13.32 C 0 km/h
633 08-09-2008 08:00:00 14.66 C 9.57 g/m*3 14.66 C 0 km/h
634 08-09-2008 09:00:00 15.58 C 9.4 g/m*3 15.58 C 0 km/h
635 08-09-2008 10:00:00 16.84 C 8.89 g/m*3 16.84 C 0 km/h
636 08-09-2008 11:00:00 17.88 C 8.33 g/m*3 17.88 C 0 km/h
637 08-09-2008 12:00:00 19.48 C 7.68 g/m*3 19.48 C 0 km/h
638 08-09-2008 13:00:00 20.86 C 7.41 g/m*3 20.86 C 0 km/h
639 08-09-2008 14:00:00 22.26 C 6.82 g/m*3 22.26 C 0 km/h
640 08-09-2008 15:00:00 23.425 C 6.48 g/m*3 23.43 C 0 km/h
641 08-09-2008 16:00:00 23.92 C 6.19 g/m*3 23.92 C 0 km/h
642 08-09-2008 17:00:00 23.75 C 5.9 g/m*3 23.75 C 0 km/h
643 08-09-2008 18:00:00 23.20833 C 6.45 g/m*3 23.21 C 0 km/h
644 08-09-2008 19:00:00 21.5 C 7.28 g/m*3 21.5 C 0 km/h
645 08-09-2008 20:00:00 18.23333 C 7.59 g/m*3 18.23 C 0 km/h
646 08-09-2008 21:00:00 16.89167 C 8.05 g/m*3 16.89 C 0 km/h
647 08-09-2008 22:00:00 15.50833 C 8.22 g/m*3 15.51 C 0 km/h
648 08-09-2008 23:00:00 14.61667 C 8.38 g/m*3 14.62 C 0 km/h
649 09-09-2008 00:00:00 13.55 C 8.53 g/m*3 13.55 C 0 km/h
650 09-09-2008 01:00:00 12.70833 C 8.5 g/m*3 12.71 C 0 km/h
Sensor: Nr:Datum:Temp:Abs-Feuchte:Windchill:Wind:
Aussen-T/F 651 09-09-2008 02:00:00 12.10833 C 8.49 g/m*3 12.11 C 0 km/h
652 09-09-2008 03:00:00 11.46667 C 8.37 g/m*3 11.47 C 0 km/h
653 09-09-2008 04:00:00 10.99167 C 8.25 g/m*3 10.99 C 0 km/h
654 09-09-2008 05:00:00 10.41667 C 8.02 g/m*3 10.42 C 0 km/h
655 09-09-2008 06:00:00 10.05833 C 8 g/m*3 10.06 C 0 km/h
656 09-09-2008 07:00:00 10.13333 C 8.17 g/m*3 10.13 C 0 km/h
657 09-09-2008 08:00:00 10.53333 C 8.42 g/m*3 10.53 C 0 km/h
658 09-09-2008 09:00:00 11.91667 C 8.71 g/m*3 11.92 C 0 km/h
659 09-09-2008 10:00:00 12.96667 C 9.11 g/m*3 12.97 C 0 km/h
660 09-09-2008 11:00:00 16.43333 C 10.17 g/m*3 16.43 C 0 km/h
661 09-09-2008 12:00:00 20.125 C 10.42 g/m*3 20.13 C 0 km/h
662 09-09-2008 13:00:00 23.60833 C 8.39 g/m*3 23.61 C 0 km/h
663 09-09-2008 14:00:00 26.38333 C 7.07 g/m*3 26.38 C 0 km/h
664 09-09-2008 15:00:00 28.06667 C 6.19 g/m*3 28.07 C 0 km/h
665 09-09-2008 16:00:00 29.75833 C 6.34 g/m*3 29.76 C 0 km/h
666 09-09-2008 17:00:00 30 C 6.09 g/m*3 30 C 0 km/h
667 09-09-2008 18:00:00 29.025 C 6.38 g/m*3 29.03 C 0 km/h
668 09-09-2008 19:00:00 24.125 C 7.05 g/m*3 24.13 C 0 km/h
669 09-09-2008 20:00:00 20.9 C 7.35 g/m*3 20.9 C 0 km/h
670 09-09-2008 21:00:00 19.9 C 7.87 g/m*3 19.9 C 0 km/h
671 09-09-2008 22:00:00 19.94167 C 8.38 g/m*3 19.94 C 0 km/h
672 09-09-2008 23:00:00 19.76667 C 9.02 g/m*3 19.77 C 0 km/h
673 10-09-2008 00:00:00 19.1 C 9.54 g/m*3 19.1 C 0 km/h
674 10-09-2008 01:00:00 18.125 C 9.76 g/m*3 18.13 C 0 km/h
675 10-09-2008 02:00:00 17.50833 C 9.63 g/m*3 17.51 C 0 km/h
Sensor: Nr:Datum:Temp:Abs-Feuchte:Windchill:Wind:
Aussen-T/F 676 10-09-2008 03:00:00 16.5 C 9.76 g/m*3 16.5 C 0 km/h
677 10-09-2008 04:00:00 15.825 C 10.02 g/m*3 15.83 C 0 km/h
678 10-09-2008 05:00:00 15.66667 C 10.56 g/m*3 15.67 C 0 km/h
679 10-09-2008 06:00:00 15.84167 C 10.68 g/m*3 15.84 C 0 km/h
680 10-09-2008 07:00:00 16.08333 C 10.94 g/m*3 16.08 C 0 km/h
681 10-09-2008 08:00:00 17.375 C 10.89 g/m*3 17.38 C 0 km/h
682 10-09-2008 09:00:00 18.6 C 11.1 g/m*3 18.6 C 0 km/h
683 10-09-2008 10:00:00 21.175 C 11.15 g/m*3 21.18 C 0 km/h
684 10-09-2008 11:00:00 22.3 C 11.16 g/m*3 22.3 C 0 km/h
685 10-09-2008 12:00:00 23.56667 C 11.11 g/m*3 23.57 C 0 km/h
686 10-09-2008 13:00:00 24.71667 C 10.67 g/m*3 24.72 C 0 km/h
687 10-09-2008 14:00:00 25.75833 C 9.99 g/m*3 25.76 C 0 km/h
688 10-09-2008 15:00:00 26.96667 C 9.38 g/m*3 26.97 C 0 km/h
689 10-09-2008 16:00:00 27.44167 C 9.12 g/m*3 27.44 C 0 km/h
690 10-09-2008 17:00:00 27.8 C 8.79 g/m*3 27.8 C 0 km/h
691 10-09-2008 18:00:00 27.48333 C 8.99 g/m*3 27.48 C 0 km/h
692 10-09-2008 19:00:00 25.26667 C 9.56 g/m*3 25.27 C 0 km/h
693 10-09-2008 20:00:00 22.40833 C 10.6 g/m*3 22.41 C 0 km/h
694 10-09-2008 21:00:00 21.01667 C 11.17 g/m*3 21.02 C 0 km/h
695 10-09-2008 22:00:00 20.275 C 11.24 g/m*3 20.27 C 0 km/h
696 10-09-2008 23:00:00 19.65833 C 11.84 g/m*3 19.66 C 0 km/h
697 11-09-2008 00:00:00 18.65 C 12.01 g/m*3 18.65 C 0 km/h
698 11-09-2008 01:00:00 17.45833 C 11.6 g/m*3 17.46 C 0 km/h
699 11-09-2008 02:00:00 16.58333 C 11.41 g/m*3 16.58 C 0 km/h
700 11-09-2008 03:00:00 15.94167 C 11.08 g/m*3 15.94 C 0 km/h
Sensor: Nr:Datum:Temp:Abs-Feuchte:Windchill:Wind:
Aussen-T/F 701 11-09-2008 04:00:00 15.4 C 10.9 g/m*3 15.4 C 0 km/h
702 11-09-2008 05:00:00 15.51667 C 11.1 g/m*3 15.52 C 0 km/h
703 11-09-2008 06:00:00 15.225 C 11 g/m*3 15.23 C 0 km/h
704 11-09-2008 07:00:00 15.48333 C 11.28 g/m*3 15.48 C 0 km/h
705 11-09-2008 08:00:00 16.21667 C 11.68 g/m*3 16.22 C 0 km/h
706 11-09-2008 09:00:00 17.45 C 12.05 g/m*3 17.45 C 0 km/h
707 11-09-2008 10:00:00 19.45833 C 12.08 g/m*3 19.46 C 0 km/h
708 11-09-2008 11:00:00 20.94167 C 11.81 g/m*3 20.94 C 0 km/h
709 11-09-2008 12:00:00 22.11667 C 12.18 g/m*3 22.12 C 0 km/h
710 11-09-2008 13:00:00 25.21667 C 11.98 g/m*3 25.22 C 0 km/h
711 11-09-2008 14:00:00 27.94167 C 11.27 g/m*3 27.94 C 0 km/h
712 11-09-2008 15:00:00 29.03333 C 10.05 g/m*3 29.03 C 0 km/h
713 11-09-2008 16:00:00 26.6 C 10.91 g/m*3 26.6 C 0 km/h
714 11-09-2008 17:00:00 24.04167 C 12.23 g/m*3 24.04 C 0 km/h
715 11-09-2008 18:00:00 21.51667 C 15.19 g/m*3 21.52 C 0 km/h
716 11-09-2008 19:00:00 21.40833 C 14.93 g/m*3 21.41 C 0 km/h
717 11-09-2008 20:00:00 20.025 C 14.31 g/m*3 20.02 C 0 km/h
718 11-09-2008 21:00:00 19.36667 C 14.04 g/m*3 19.37 C 0 km/h
719 11-09-2008 22:00:00 18.80833 C 13.86 g/m*3 18.81 C 0 km/h
720 11-09-2008 23:00:00 18.275 C 13.6 g/m*3 18.27 C 0 km/h
721 12-09-2008 00:00:00 18.09167 C 13.59 g/m*3 18.09 C 0 km/h
722 12-09-2008 01:00:00 18.21667 C 13.59 g/m*3 18.22 C 0 km/h
723 12-09-2008 02:00:00 18.28333 C 13.43 g/m*3 18.28 C 0 km/h
724 12-09-2008 03:00:00 18.01667 C 13.47 g/m*3 18.02 C 0 km/h
725 12-09-2008 04:00:00 17.79167 C 13.51 g/m*3 17.79 C 0 km/h
Sensor: Nr:Datum:Temp:Abs-Feuchte:Windchill:Wind:
Aussen-T/F 726 12-09-2008 05:00:00 17.46667 C 13.3 g/m*3 17.47 C 0 km/h
727 12-09-2008 06:00:00 17.29167 C 13.23 g/m*3 17.29 C 0 km/h
728 12-09-2008 07:00:00 16.9 C 12.9 g/m*3 16.9 C 0 km/h
729 12-09-2008 08:00:00 17.2 C 12.94 g/m*3 17.2 C 0 km/h
730 12-09-2008 09:00:00 17.03333 C 12.98 g/m*3 17.03 C 0 km/h
731 12-09-2008 10:00:00 17.54167 C 13.56 g/m*3 17.54 C 0 km/h
732 12-09-2008 11:00:00 17.64167 C 13.74 g/m*3 17.64 C 0 km/h
733 12-09-2008 12:00:00 17.85 C 13.97 g/m*3 17.85 C 0 km/h
734 12-09-2008 13:00:00 18.01667 C 14.07 g/m*3 18.02 C 0 km/h
735 12-09-2008 14:00:00 17.39167 C 13.62 g/m*3 17.39 C 0 km/h
736 12-09-2008 15:00:00 15.89167 C 12.51 g/m*3 15.89 C 0 km/h
737 12-09-2008 16:00:00 15.78333 C 12.56 g/m*3 15.78 C 0 km/h
738 12-09-2008 17:00:00 15.65 C 12.54 g/m*3 15.65 C 0 km/h
739 12-09-2008 18:00:00 15.51667 C 12.44 g/m*3 15.52 C 0 km/h
740 12-09-2008 19:00:00 15.10833 C 12.17 g/m*3 15.11 C 0 km/h
741 12-09-2008 20:00:00 14.85833 C 11.97 g/m*3 14.86 C 0 km/h
742 12-09-2008 21:00:00 14.55833 C 11.61 g/m*3 14.56 C 0 km/h
743 12-09-2008 22:00:00 14.33333 C 11.41 g/m*3 14.33 C 0 km/h
744 12-09-2008 23:00:00 14.18333 C 11.22 g/m*3 14.18 C 0 km/h
745 13-09-2008 00:00:00 14.10833 C 11.05 g/m*3 14.11 C 0 km/h
746 13-09-2008 01:00:00 14.11667 C 11.04 g/m*3 14.12 C 0 km/h
747 13-09-2008 02:00:00 13.82727 C 10.95 g/m*3 13.83 C 0 km/h
748 13-09-2008 03:00:00 13.69167 C 11.09 g/m*3 13.69 C 0 km/h
749 13-09-2008 04:00:00 13.8 C 11.2 g/m*3 13.8 C 0 km/h
750 13-09-2008 05:00:00 13.725 C 11.12 g/m*3 13.73 C 0 km/h
Sensor: Nr:Datum:Temp:Abs-Feuchte:Windchill:Wind:
Aussen-T/F 751 13-09-2008 06:00:00 13.53333 C 10.95 g/m*3 13.53 C 0 km/h
752 13-09-2008 07:00:00 13.56667 C 11.12 g/m*3 13.57 C 0 km/h
753 13-09-2008 08:00:00 13.61667 C 11.19 g/m*3 13.62 C 0 km/h
754 13-09-2008 09:00:00 13.175 C 10.89 g/m*3 13.18 C 0 km/h
755 13-09-2008 10:00:00 12.96667 C 10.75 g/m*3 12.97 C 0 km/h
756 13-09-2008 11:00:00 12.4 C 10.38 g/m*3 12.4 C 0 km/h
757 13-09-2008 12:00:00 12.1 C 10.19 g/m*3 12.1 C 0 km/h
758 13-09-2008 13:00:00 11.83333 C 9.99 g/m*3 11.83 C 0 km/h
759 13-09-2008 14:00:00 12.05 C 10 g/m*3 12.05 C 0 km/h
760 13-09-2008 15:00:00 13.95 C 10.86 g/m*3 13.95 C 0 km/h
761 13-09-2008 16:00:00 14.925 C 10.63 g/m*3 14.93 C 0 km/h
762 13-09-2008 17:00:00 14.4 C 10.12 g/m*3 14.4 C 0 km/h
763 13-09-2008 18:00:00 13.30833 C 9.69 g/m*3 13.31 C 0 km/h
764 13-09-2008 19:00:00 12.09167 C 9.29 g/m*3 12.09 C 0 km/h
765 13-09-2008 20:00:00 10.375 C 8.48 g/m*3 10.38 C 0 km/h
766 13-09-2008 21:00:00 9.20833 C 7.88 g/m*3 9.21 C 0 km/h
767 13-09-2008 22:00:00 8.50833 C 7.47 g/m*3 8.51 C 0 km/h
768 13-09-2008 23:00:00 8.16667 C 6.88 g/m*3 8.17 C 0 km/h
769 14-09-2008 00:00:00 8.075 C 6.56 g/m*3 8.07 C 0 km/h
770 14-09-2008 01:00:00 8.2 C 6.21 g/m*3 8.2 C 0 km/h
771 14-09-2008 02:00:00 8.325 C 6.17 g/m*3 8.32 C 0 km/h
772 14-09-2008 03:00:00 8.20833 C 6.03 g/m*3 8.21 C 0 km/h
773 14-09-2008 04:00:00 7.35833 C 6.11 g/m*3 7.36 C 0 km/h
774 14-09-2008 05:00:00 7.09167 C 6.11 g/m*3 7.09 C 0 km/h
775 14-09-2008 06:00:00 6.7 C 6.07 g/m*3 6.7 C 0 km/h
Sensor: Nr:Datum:Temp:Abs-Feuchte:Windchill:Wind:
Aussen-T/F 776 14-09-2008 07:00:00 5.9 C 6 g/m*3 5.9 C 0 km/h
777 14-09-2008 08:00:00 5.90833 C 6.22 g/m*3 5.91 C 0 km/h
778 14-09-2008 09:00:00 7.1 C 6.71 g/m*3 7.1 C 0 km/h
779 14-09-2008 10:00:00 9.725 C 6.87 g/m*3 9.73 C 0 km/h
780 14-09-2008 11:00:00 12.71667 C 5.59 g/m*3 12.72 C 0 km/h
781 14-09-2008 12:00:00 14.51667 C 4.72 g/m*3 14.52 C 0 km/h
782 14-09-2008 13:00:00 15.95833 C 4.82 g/m*3 15.96 C 0 km/h
783 14-09-2008 14:00:00 18.45 C 4.76 g/m*3 18.45 C 0 km/h
784 14-09-2008 15:00:00 18.61667 C 4.77 g/m*3 18.62 C 0 km/h
785 14-09-2008 16:00:00 19.04167 C 4.91 g/m*3 19.04 C 0 km/h
786 14-09-2008 17:00:00 18.975 C 5.21 g/m*3 18.98 C 0 km/h
787 14-09-2008 18:00:00 16.79167 C 5.57 g/m*3 16.79 C 0 km/h
788 14-09-2008 19:00:00 14.63333 C 5.51 g/m*3 14.63 C 0 km/h
789 14-09-2008 20:00:00 12.68333 C 5.54 g/m*3 12.68 C 0 km/h
790 14-09-2008 21:00:00 12.30833 C 6.06 g/m*3 12.31 C 0 km/h
791 14-09-2008 22:00:00 11.85833 C 6.31 g/m*3 11.86 C 0 km/h
792 14-09-2008 23:00:00 10.75 C 6.51 g/m*3 10.75 C 0 km/h
793 15-09-2008 00:00:00 9.60833 C 6.54 g/m*3 9.61 C 0 km/h
794 15-09-2008 01:00:00 8.96667 C 6.51 g/m*3 8.97 C 0 km/h
795 15-09-2008 02:00:00 8.71667 C 6.4 g/m*3 8.72 C 0 km/h
796 15-09-2008 03:00:00 8.24167 C 6.42 g/m*3 8.24 C 0 km/h
797 15-09-2008 04:00:00 7.625 C 6.52 g/m*3 7.63 C 0 km/h
798 15-09-2008 05:00:00 7.20833 C 6.58 g/m*3 7.21 C 0 km/h
799 15-09-2008 06:00:00 6.69167 C 6.57 g/m*3 6.69 C 0 km/h
800 15-09-2008 07:00:00 6.175 C 6.49 g/m*3 6.18 C 0 km/h
Sensor: Nr:Datum:Temp:Abs-Feuchte:Windchill:Wind:
Aussen-T/F 801 15-09-2008 08:00:00 6.46667 C 6.65 g/m*3 6.47 C 0 km/h
802 15-09-2008 09:00:00 7.80833 C 6.97 g/m*3 7.81 C 0 km/h
803 15-09-2008 10:00:00 10.20833 C 6.97 g/m*3 10.21 C 0 km/h
804 15-09-2008 11:00:00 12.15833 C 6.49 g/m*3 12.16 C 0 km/h
805 15-09-2008 12:00:00 13.6 C 5.89 g/m*3 13.6 C 0 km/h
806 15-09-2008 13:00:00 13.76667 C 6.19 g/m*3 13.77 C 0 km/h
807 15-09-2008 14:00:00 13.09167 C 6.97 g/m*3 13.09 C 0 km/h
808 15-09-2008 15:00:00 13.15 C 8.96 g/m*3 13.15 C 0 km/h
809 15-09-2008 16:00:00 14.18333 C 8.83 g/m*3 14.18 C 0 km/h
810 15-09-2008 17:00:00 12.63333 C 7.98 g/m*3 12.63 C 0 km/h
811 15-09-2008 18:00:00 11.875 C 7.62 g/m*3 11.88 C 0 km/h
812 15-09-2008 19:00:00 11.21667 C 7.38 g/m*3 11.22 C 0 km/h
813 15-09-2008 20:00:00 10.975 C 7.54 g/m*3 10.98 C 0 km/h
814 15-09-2008 21:00:00 10.84167 C 7.5 g/m*3 10.84 C 0 km/h
815 15-09-2008 22:00:00 10.79167 C 7.46 g/m*3 10.79 C 0 km/h
816 15-09-2008 23:00:00 10.51667 C 7.53 g/m*3 10.52 C 0 km/h
817 16-09-2008 00:00:00 10.21667 C 7.52 g/m*3 10.22 C 0 km/h
818 16-09-2008 01:00:00 9.95 C 7.59 g/m*3 9.95 C 0 km/h
819 16-09-2008 02:00:00 9.425 C 7.5 g/m*3 9.43 C 0 km/h
820 16-09-2008 03:00:00 8.875 C 7.3 g/m*3 8.88 C 0 km/h
821 16-09-2008 04:00:00 7.575 C 6.96 g/m*3 7.58 C 0 km/h
822 16-09-2008 05:00:00 6.94167 C 6.86 g/m*3 6.94 C 0 km/h
823 16-09-2008 06:00:00 6.64167 C 6.88 g/m*3 6.64 C 0 km/h
824 16-09-2008 07:00:00 7.20833 C 7.23 g/m*3 7.21 C 0 km/h
825 16-09-2008 08:00:00 8.15 C 7.61 g/m*3 8.15 C 0 km/h
Sensor: Nr:Datum:Temp:Abs-Feuchte:Windchill:Wind:
Aussen-T/F 826 16-09-2008 09:00:00 9.6 C 7.77 g/m*3 9.6 C 0 km/h
827 16-09-2008 10:00:00 11.075 C 7.56 g/m*3 11.08 C 0 km/h
828 16-09-2008 11:00:00 12.99167 C 7.36 g/m*3 12.99 C 0 km/h
829 16-09-2008 12:00:00 14.51667 C 6.73 g/m*3 14.52 C 0 km/h
830 16-09-2008 13:00:00 14.08333 C 6.95 g/m*3 14.08 C 0 km/h
831 16-09-2008 14:00:00 15.54167 C 6.68 g/m*3 15.54 C 0 km/h
832 16-09-2008 15:00:00 14.75833 C 7.32 g/m*3 14.76 C 0 km/h
833 16-09-2008 16:00:00 16.06667 C 6.34 g/m*3 16.07 C 0 km/h
834 16-09-2008 17:00:00 14.85 C 6.35 g/m*3 14.85 C 0 km/h
835 16-09-2008 18:00:00 13.51667 C 6.95 g/m*3 13.52 C 0 km/h
836 16-09-2008 19:00:00 12.775 C 6.52 g/m*3 12.78 C 0 km/h
837 16-09-2008 20:00:00 12.225 C 6.03 g/m*3 12.23 C 0 km/h
838 16-09-2008 21:00:00 11.95 C 6.11 g/m*3 11.95 C 0 km/h
839 16-09-2008 22:00:00 11.50833 C 6.35 g/m*3 11.51 C 0 km/h
840 16-09-2008 23:00:00 11.24167 C 6.39 g/m*3 11.24 C 0 km/h
841 17-09-2008 00:00:00 10.95833 C 6.59 g/m*3 10.96 C 0 km/h
842 17-09-2008 01:00:00 10.53333 C 6.26 g/m*3 10.53 C 0 km/h
843 17-09-2008 02:00:00 9.975 C 6.06 g/m*3 9.98 C 0 km/h
844 17-09-2008 03:00:00 8.08333 C 5.81 g/m*3 8.08 C 0 km/h
845 17-09-2008 04:00:00 7.05 C 5.75 g/m*3 7.05 C 0 km/h
846 17-09-2008 05:00:00 6.525 C 5.64 g/m*3 6.53 C 0 km/h
847 17-09-2008 06:00:00 5.88333 C 5.71 g/m*3 5.88 C 0 km/h
848 17-09-2008 07:00:00 5.63333 C 5.76 g/m*3 5.63 C 0 km/h
849 17-09-2008 08:00:00 6.51667 C 6.18 g/m*3 6.52 C 0 km/h
850 17-09-2008 09:00:00 7.95833 C 6.38 g/m*3 7.96 C 0 km/h
Sensor: Nr:Datum:Temp:Abs-Feuchte:Windchill:Wind:
Aussen-T/F 851 17-09-2008 10:00:00 10.35 C 6.46 g/m*3 10.35 C 0 km/h
852 17-09-2008 11:00:00 12.91667 C 5.39 g/m*3 12.92 C 0 km/h
853 17-09-2008 12:00:00 14.51667 C 4.89 g/m*3 14.52 C 0 km/h
854 17-09-2008 13:00:00 16.43333 C 4.96 g/m*3 16.43 C 0 km/h
855 17-09-2008 14:00:00 17.78333 C 4.88 g/m*3 17.78 C 0 km/h
856 17-09-2008 15:00:00 19.125 C 4.57 g/m*3 19.13 C 0 km/h
857 17-09-2008 16:00:00 19.075 C 4.45 g/m*3 19.08 C 0 km/h
858 17-09-2008 17:00:00 18.10833 C 4.52 g/m*3 18.11 C 0 km/h
859 17-09-2008 18:00:00 15.925 C 4.63 g/m*3 15.93 C 0 km/h
860 17-09-2008 19:00:00 12.61667 C 5.11 g/m*3 12.62 C 0 km/h
861 17-09-2008 20:00:00 10.2 C 5.23 g/m*3 10.2 C 0 km/h
862 17-09-2008 21:00:00 9.46667 C 5.23 g/m*3 9.47 C 0 km/h
863 17-09-2008 22:00:00 8.7 C 5.09 g/m*3 8.7 C 0 km/h
864 17-09-2008 23:00:00 7.83333 C 5.09 g/m*3 7.83 C 0 km/h
865 18-09-2008 00:00:00 7.05 C 5.12 g/m*3 7.05 C 0 km/h
866 18-09-2008 01:00:00 6.19167 C 5.24 g/m*3 6.19 C 0 km/h
867 18-09-2008 02:00:00 5.65 C 5.3 g/m*3 5.65 C 0 km/h
868 18-09-2008 03:00:00 5.275 C 5.31 g/m*3 5.28 C 0 km/h
869 18-09-2008 04:00:00 5.18333 C 5.44 g/m*3 5.18 C 0 km/h
870 18-09-2008 05:00:00 5.13333 C 5.32 g/m*3 5.13 C 0 km/h
871 18-09-2008 06:00:00 5.25833 C 5.41 g/m*3 5.26 C 0 km/h
872 18-09-2008 07:00:00 5.16667 C 5.38 g/m*3 5.17 C 0 km/h
873 18-09-2008 08:00:00 6.275 C 5.65 g/m*3 6.28 C 0 km/h
874 18-09-2008 09:00:00 7.73333 C 5.33 g/m*3 7.73 C 0 km/h
875 18-09-2008 10:00:00 10.025 C 4.74 g/m*3 10.03 C 0 km/h
Sensor: Nr:Datum:Temp:Abs-Feuchte:Windchill:Wind:
Aussen-T/F 876 18-09-2008 11:00:00 11.74167 C 4.48 g/m*3 11.74 C 0 km/h
877 18-09-2008 12:00:00 13.73333 C 4.22 g/m*3 13.73 C 0 km/h
878 18-09-2008 13:00:00 14.575 C 3.76 g/m*3 14.58 C 0 km/h
879 18-09-2008 14:00:00 16.73333 C 3.75 g/m*3 16.73 C 0 km/h
880 18-09-2008 15:00:00 18.53333 C 3.77 g/m*3 18.53 C 0 km/h
881 18-09-2008 16:00:00 19.875 C 3.6 g/m*3 19.88 C 0 km/h
882 18-09-2008 17:00:00 20.15833 C 3.5 g/m*3 20.16 C 0 km/h
883 18-09-2008 18:00:00 19 C 4.13 g/m*3 19 C 0 km/h
884 18-09-2008 19:00:00 14.45833 C 4.69 g/m*3 14.46 C 0 km/h
885 18-09-2008 20:00:00 10.975 C 5.14 g/m*3 10.98 C 0 km/h
886 18-09-2008 21:00:00 9.875 C 5.39 g/m*3 9.88 C 0 km/h
887 18-09-2008 22:00:00 8.775 C 5.58 g/m*3 8.78 C 0 km/h
888 18-09-2008 23:00:00 7.80833 C 5.64 g/m*3 7.81 C 0 km/h
889 19-09-2008 00:00:00 7.10833 C 5.83 g/m*3 7.11 C 0 km/h
890 19-09-2008 01:00:00 6.35 C 5.84 g/m*3 6.35 C 0 km/h
891 19-09-2008 02:00:00 5.75 C 5.82 g/m*3 5.75 C 0 km/h
892 19-09-2008 03:00:00 5.225 C 5.72 g/m*3 5.23 C 0 km/h
893 19-09-2008 04:00:00 4.70833 C 5.65 g/m*3 4.71 C 0 km/h
894 19-09-2008 05:00:00 4.25 C 5.54 g/m*3 4.25 C 0 km/h
895 19-09-2008 06:00:00 3.80833 C 5.51 g/m*3 3.81 C 0 km/h
896 19-09-2008 07:00:00 3.45 C 5.45 g/m*3 3.45 C 0 km/h
897 19-09-2008 08:00:00 3.675 C 5.67 g/m*3 3.68 C 0 km/h
898 19-09-2008 09:00:00 4.55833 C 6.03 g/m*3 4.56 C 0 km/h
899 19-09-2008 10:00:00 7.325 C 7.16 g/m*3 7.33 C 0 km/h
900 19-09-2008 11:00:00 10.725 C 6.95 g/m*3 10.73 C 0 km/h
Sensor: Nr:Datum:Temp:Abs-Feuchte:Windchill:Wind:
Aussen-T/F 901 19-09-2008 12:00:00 13.7 C 6.4 g/m*3 13.7 C 0 km/h
902 19-09-2008 13:00:00 16.34167 C 5.24 g/m*3 16.34 C 0 km/h
903 19-09-2008 14:00:00 18.81667 C 4.63 g/m*3 18.82 C 0 km/h
904 19-09-2008 15:00:00 19.91667 C 4.49 g/m*3 19.92 C 0 km/h
905 19-09-2008 16:00:00 21.34167 C 3.92 g/m*3 21.34 C 0 km/h
906 19-09-2008 17:00:00 19.35833 C 4.74 g/m*3 19.36 C 0 km/h
907 19-09-2008 18:00:00 16.725 C 5.35 g/m*3 16.73 C 0 km/h
908 19-09-2008 19:00:00 14.525 C 5.55 g/m*3 14.53 C 0 km/h
909 19-09-2008 20:00:00 13.08333 C 5.56 g/m*3 13.08 C 0 km/h
910 19-09-2008 21:00:00 11.46667 C 5.57 g/m*3 11.47 C 0 km/h
911 19-09-2008 22:00:00 10.25 C 6.04 g/m*3 10.25 C 0 km/h
912 19-09-2008 23:00:00 9.14167 C 6.13 g/m*3 9.14 C 0 km/h
913 20-09-2008 00:00:00 8.23333 C 6.34 g/m*3 8.23 C 0 km/h
914 20-09-2008 01:00:00 7.59167 C 6.33 g/m*3 7.59 C 0 km/h
915 20-09-2008 02:00:00 7.01667 C 6.33 g/m*3 7.02 C 0 km/h
916 20-09-2008 03:00:00 6.39167 C 6.27 g/m*3 6.39 C 0 km/h
917 20-09-2008 04:00:00 6.025 C 6.18 g/m*3 6.03 C 0 km/h
918 20-09-2008 05:00:00 5.475 C 6.16 g/m*3 5.48 C 0 km/h
919 20-09-2008 06:00:00 4.96667 C 5.99 g/m*3 4.97 C 0 km/h
920 20-09-2008 07:00:00 4.55 C 5.89 g/m*3 4.55 C 0 km/h
921 20-09-2008 08:00:00 4.76667 C 6.03 g/m*3 4.77 C 0 km/h
922 20-09-2008 09:00:00 5.59167 C 6.45 g/m*3 5.59 C 0 km/h
923 20-09-2008 10:00:00 8.23333 C 7.39 g/m*3 8.23 C 0 km/h
924 20-09-2008 11:00:00 11.65833 C 7.36 g/m*3 11.66 C 0 km/h
925 20-09-2008 12:00:00 15.20833 C 6.63 g/m*3 15.21 C 0 km/h
Sensor: Nr:Datum:Temp:Abs-Feuchte:Windchill:Wind:
Aussen-T/F 926 20-09-2008 13:00:00 17.475 C 4.88 g/m*3 17.48 C 0 km/h
927 20-09-2008 14:00:00 17.50833 C 4.45 g/m*3 17.51 C 0 km/h
928 20-09-2008 15:00:00 18.01667 C 4.3 g/m*3 18.02 C 0 km/h
929 20-09-2008 16:00:00 18.14167 C 4.48 g/m*3 18.14 C 0 km/h
930 20-09-2008 17:00:00 18.65833 C 4.62 g/m*3 18.66 C 0 km/h
931 20-09-2008 18:00:00 18.5 C 4.72 g/m*3 18.5 C 0 km/h
932 20-09-2008 19:00:00 14.61667 C 5.03 g/m*3 14.62 C 0 km/h
933 20-09-2008 20:00:00 12.525 C 5.29 g/m*3 12.53 C 0 km/h
934 20-09-2008 21:00:00 11.125 C 5.39 g/m*3 11.13 C 0 km/h
935 20-09-2008 22:00:00 10.925 C 5.73 g/m*3 10.93 C 0 km/h
936 20-09-2008 23:00:00 10.93333 C 6.03 g/m*3 10.93 C 0 km/h
937 21-09-2008 00:00:00 10.15 C 6.15 g/m*3 10.15 C 0 km/h
938 21-09-2008 01:00:00 9.69167 C 6.26 g/m*3 9.69 C 0 km/h
939 21-09-2008 02:00:00 8.59167 C 6.31 g/m*3 8.59 C 0 km/h
940 21-09-2008 03:00:00 7.90833 C 6.34 g/m*3 7.91 C 0 km/h
941 21-09-2008 04:00:00 7.95 C 6.5 g/m*3 7.95 C 0 km/h
942 21-09-2008 05:00:00 7.725 C 6.59 g/m*3 7.73 C 0 km/h
943 21-09-2008 06:00:00 7.20833 C 6.51 g/m*3 7.21 C 0 km/h
944 21-09-2008 07:00:00 7.15833 C 6.58 g/m*3 7.16 C 0 km/h
945 21-09-2008 08:00:00 7.78333 C 6.79 g/m*3 7.78 C 0 km/h
946 21-09-2008 09:00:00 8.78333 C 6.98 g/m*3 8.78 C 0 km/h
947 21-09-2008 10:00:00 10.70833 C 6.77 g/m*3 10.71 C 0 km/h
948 21-09-2008 11:00:00 12.54167 C 6.32 g/m*3 12.54 C 0 km/h
949 21-09-2008 12:00:00 14.15 C 6.03 g/m*3 14.15 C 0 km/h
950 21-09-2008 13:00:00 15.61667 C 6.02 g/m*3 15.62 C 0 km/h
Sensor: Nr:Datum:Temp:Abs-Feuchte:Windchill:Wind:
Aussen-T/F 951 21-09-2008 14:00:00 16.05833 C 6 g/m*3 16.06 C 0 km/h
952 21-09-2008 15:00:00 17.16667 C 6.31 g/m*3 17.17 C 0 km/h
953 21-09-2008 16:00:00 17.86667 C 6.16 g/m*3 17.87 C 0 km/h
954 21-09-2008 17:00:00 16.35 C 6.49 g/m*3 16.35 C 0 km/h
955 21-09-2008 18:00:00 16.50833 C 6.63 g/m*3 16.51 C 0 km/h
956 21-09-2008 19:00:00 14.11667 C 7.22 g/m*3 14.12 C 0 km/h
957 21-09-2008 20:00:00 12.31667 C 7.75 g/m*3 12.32 C 0 km/h
958 21-09-2008 21:00:00 11.6 C 7.93 g/m*3 11.6 C 0 km/h
959 21-09-2008 22:00:00 11.10833 C 8.04 g/m*3 11.11 C 0 km/h
960 21-09-2008 23:00:00 11.075 C 8.26 g/m*3 11.08 C 0 km/h
961 22-09-2008 00:00:00 10.65 C 7.94 g/m*3 10.65 C 0 km/h
962 22-09-2008 01:00:00 9.90833 C 7.99 g/m*3 9.91 C 0 km/h
963 22-09-2008 02:00:00 10.60833 C 8.41 g/m*3 10.61 C 0 km/h
964 22-09-2008 03:00:00 10.83333 C 8.47 g/m*3 10.83 C 0 km/h
965 22-09-2008 04:00:00 10.81667 C 8.33 g/m*3 10.82 C 0 km/h
966 22-09-2008 05:00:00 10.46667 C 8.05 g/m*3 10.47 C 0 km/h
967 22-09-2008 06:00:00 10.6 C 8.09 g/m*3 10.6 C 0 km/h
968 22-09-2008 07:00:00 10.61667 C 8.01 g/m*3 10.62 C 0 km/h
969 22-09-2008 08:00:00 10.94167 C 8.08 g/m*3 10.94 C 0 km/h
970 22-09-2008 09:00:00 11.89167 C 7.97 g/m*3 11.89 C 0 km/h
971 22-09-2008 10:00:00 13.06667 C 7.55 g/m*3 13.07 C 0 km/h
972 22-09-2008 11:00:00 13.725 C 7.44 g/m*3 13.73 C 0 km/h
973 22-09-2008 12:00:00 15.51667 C 6.73 g/m*3 15.52 C 0 km/h
974 22-09-2008 13:00:00 16.59167 C 6.19 g/m*3 16.59 C 0 km/h
975 22-09-2008 14:00:00 15.65833 C 6.25 g/m*3 15.66 C 0 km/h
Sensor: Nr:Datum:Temp:Abs-Feuchte:Windchill:Wind:
Aussen-T/F 976 22-09-2008 15:00:00 14.66667 C 6.68 g/m*3 14.67 C 0 km/h
977 22-09-2008 16:00:00 14.775 C 6.91 g/m*3 14.78 C 0 km/h
978 22-09-2008 17:00:00 15.625 C 6.63 g/m*3 15.63 C 0 km/h
979 22-09-2008 18:00:00 14.975 C 6.5 g/m*3 14.98 C 0 km/h
980 22-09-2008 19:00:00 13.19167 C 6.71 g/m*3 13.19 C 0 km/h
981 22-09-2008 20:00:00 12.33333 C 6.96 g/m*3 12.33 C 0 km/h
982 22-09-2008 21:00:00 11.9 C 7.05 g/m*3 11.9 C 0 km/h
983 22-09-2008 22:00:00 11.29167 C 7.2 g/m*3 11.29 C 0 km/h
984 22-09-2008 23:00:00 11 C 7.29 g/m*3 11 C 0 km/h
985 23-09-2008 00:00:00 10.55833 C 7.36 g/m*3 10.56 C 0 km/h
986 23-09-2008 01:00:00 10.31667 C 7.51 g/m*3 10.32 C 0 km/h
987 23-09-2008 02:00:00 9.9 C 7.81 g/m*3 9.9 C 0 km/h
988 23-09-2008 03:00:00 10.025 C 8.18 g/m*3 10.03 C 0 km/h
989 23-09-2008 04:00:00 10.43333 C 8.37 g/m*3 10.43 C 0 km/h
990 23-09-2008 05:00:00 10.65833 C 8.44 g/m*3 10.66 C 0 km/h
991 23-09-2008 06:00:00 10.44167 C 8.36 g/m*3 10.44 C 0 km/h
992 23-09-2008 07:00:00 10.69167 C 8.52 g/m*3 10.69 C 0 km/h
993 23-09-2008 08:00:00 11.58333 C 8.62 g/m*3 11.58 C 0 km/h
994 23-09-2008 09:00:00 12.51667 C 8.21 g/m*3 12.52 C 0 km/h
995 23-09-2008 10:00:00 13.14167 C 7.98 g/m*3 13.14 C 0 km/h
996 23-09-2008 11:00:00 13.36667 C 7.91 g/m*3 13.37 C 0 km/h
997 23-09-2008 12:00:00 14.325 C 7.78 g/m*3 14.33 C 0 km/h
998 23-09-2008 13:00:00 14.86667 C 7.36 g/m*3 14.87 C 0 km/h
999 23-09-2008 14:00:00 15.65833 C 6.84 g/m*3 15.66 C 0 km/h
1000 23-09-2008 15:00:00 15.575 C 6.77 g/m*3 15.58 C 0 km/h
Sensor: Nr:Datum:Temp:Abs-Feuchte:Windchill:Wind:
Aussen-T/F 1001 23-09-2008 16:00:00 14.775 C 7.21 g/m*3 14.78 C 0 km/h
1002 23-09-2008 17:00:00 13.24167 C 8.32 g/m*3 13.24 C 0 km/h
1003 23-09-2008 18:00:00 12.58333 C 9.02 g/m*3 12.58 C 0 km/h
1004 23-09-2008 19:00:00 12.025 C 9.36 g/m*3 12.03 C 0 km/h
1005 23-09-2008 20:00:00 11.71667 C 9.48 g/m*3 11.72 C 0 km/h
1006 23-09-2008 21:00:00 11.675 C 9.6 g/m*3 11.68 C 0 km/h
1007 23-09-2008 22:00:00 11.525 C 9.53 g/m*3 11.53 C 0 km/h
1008 23-09-2008 23:00:00 11.46667 C 9.59 g/m*3 11.47 C 0 km/h
1009 24-09-2008 00:00:00 11.225 C 9.46 g/m*3 11.23 C 0 km/h
1010 24-09-2008 01:00:00 11.45 C 9.68 g/m*3 11.45 C 0 km/h
1011 24-09-2008 02:00:00 11.36667 C 9.63 g/m*3 11.37 C 0 km/h
1012 24-09-2008 03:00:00 11.04167 C 9.43 g/m*3 11.04 C 0 km/h
1013 24-09-2008 04:00:00 10.90833 C 9.36 g/m*3 10.91 C 0 km/h
1014 24-09-2008 05:00:00 10.78333 C 9.38 g/m*3 10.78 C 0 km/h
1015 24-09-2008 06:00:00 10.81667 C 9.4 g/m*3 10.82 C 0 km/h
1016 24-09-2008 07:00:00 10.94167 C 9.47 g/m*3 10.94 C 0 km/h
1017 24-09-2008 08:00:00 11.25 C 9.66 g/m*3 11.25 C 0 km/h
1018 24-09-2008 09:00:00 12.10833 C 10.09 g/m*3 12.11 C 0 km/h
1019 24-09-2008 10:00:00 13.4 C 10.55 g/m*3 13.4 C 0 km/h
1020 24-09-2008 11:00:00 14.3 C 10.28 g/m*3 14.3 C 0 km/h
1021 24-09-2008 12:00:00 15.90833 C 8.86 g/m*3 15.91 C 0 km/h
1022 24-09-2008 13:00:00 17.375 C 8.18 g/m*3 17.38 C 0 km/h
1023 24-09-2008 14:00:00 18.45 C 7.64 g/m*3 18.45 C 0 km/h
1024 24-09-2008 15:00:00 16.48333 C 8.04 g/m*3 16.48 C 0 km/h
1025 24-09-2008 16:00:00 16.14167 C 8.18 g/m*3 16.14 C 0 km/h
Sensor: Nr:Datum:Temp:Abs-Feuchte:Windchill:Wind:
Aussen-T/F 1026 24-09-2008 17:00:00 15.70833 C 8.82 g/m*3 15.71 C 0 km/h
1027 24-09-2008 18:00:00 14.85 C 8.85 g/m*3 14.85 C 0 km/h
1028 24-09-2008 19:00:00 13.525 C 8.91 g/m*3 13.53 C 0 km/h
1029 24-09-2008 20:00:00 12.91667 C 9.2 g/m*3 12.92 C 0 km/h
1030 24-09-2008 21:00:00 12.93333 C 9.11 g/m*3 12.93 C 0 km/h
1031 24-09-2008 22:00:00 12.8 C 8.76 g/m*3 12.8 C 0 km/h
1032 24-09-2008 23:00:00 12.70833 C 8.75 g/m*3 12.71 C 0 km/h
1033 25-09-2008 00:00:00 12.26667 C 8.56 g/m*3 12.27 C 0 km/h
1034 25-09-2008 01:00:00 11.59167 C 8.31 g/m*3 11.59 C 0 km/h
1035 25-09-2008 02:00:00 11.125 C 8.29 g/m*3 11.13 C 0 km/h
1036 25-09-2008 03:00:00 9.98333 C 8.04 g/m*3 9.98 C 0 km/h
1037 25-09-2008 04:00:00 9.19167 C 7.89 g/m*3 9.19 C 0 km/h
1038 25-09-2008 05:00:00 8.68333 C 7.8 g/m*3 8.68 C 0 km/h
1039 25-09-2008 06:00:00 8.66667 C 7.87 g/m*3 8.67 C 0 km/h
1040 25-09-2008 07:00:00 8.08333 C 7.56 g/m*3 8.08 C 0 km/h
1041 25-09-2008 08:00:00 8.56667 C 7.87 g/m*3 8.57 C 0 km/h
1042 25-09-2008 09:00:00 9.99167 C 8.57 g/m*3 9.99 C 0 km/h
1043 25-09-2008 10:00:00 11.15 C 8.7 g/m*3 11.15 C 0 km/h
1044 25-09-2008 11:00:00 13.41667 C 8.77 g/m*3 13.42 C 0 km/h
1045 25-09-2008 12:00:00 16.24167 C 7.65 g/m*3 16.24 C 0 km/h
1046 25-09-2008 13:00:00 16.95833 C 6.63 g/m*3 16.96 C 0 km/h
1047 25-09-2008 14:00:00 18.08333 C 6.64 g/m*3 18.08 C 0 km/h
1048 25-09-2008 15:00:00 18.075 C 6.66 g/m*3 18.08 C 0 km/h
1049 25-09-2008 16:00:00 18.51667 C 6.33 g/m*3 18.52 C 0 km/h
1050 25-09-2008 17:00:00 17.59167 C 6.36 g/m*3 17.59 C 0 km/h
Sensor: Nr:Datum:Temp:Abs-Feuchte:Windchill:Wind:
Aussen-T/F 1051 25-09-2008 18:00:00 16.09167 C 6.67 g/m*3 16.09 C 0 km/h
1052 25-09-2008 19:00:00 13.29167 C 7.17 g/m*3 13.29 C 0 km/h
1053 25-09-2008 20:00:00 11.95 C 6.83 g/m*3 11.95 C 0 km/h
1054 25-09-2008 21:00:00 11.76667 C 6.84 g/m*3 11.77 C 0 km/h
1055 25-09-2008 22:00:00 10.7 C 6.84 g/m*3 10.7 C 0 km/h
1056 25-09-2008 23:00:00 9.63333 C 6.99 g/m*3 9.63 C 0 km/h
1057 26-09-2008 00:00:00 9.025 C 7.02 g/m*3 9.03 C 0 km/h
1058 26-09-2008 01:00:00 8.58333 C 7.12 g/m*3 8.58 C 0 km/h
1059 26-09-2008 02:00:00 8.125 C 7.1 g/m*3 8.13 C 0 km/h
1060 26-09-2008 03:00:00 7.48333 C 6.99 g/m*3 7.48 C 0 km/h
1061 26-09-2008 04:00:00 7.05833 C 6.95 g/m*3 7.06 C 0 km/h
1062 26-09-2008 05:00:00 6.58333 C 6.86 g/m*3 6.58 C 0 km/h
1063 26-09-2008 06:00:00 6.075 C 6.66 g/m*3 6.08 C 0 km/h
1064 26-09-2008 07:00:00 5.73333 C 6.63 g/m*3 5.73 C 0 km/h
1065 26-09-2008 08:00:00 5.875 C 6.69 g/m*3 5.88 C 0 km/h
1066 26-09-2008 09:00:00 6.675 C 7.06 g/m*3 6.68 C 0 km/h
1067 26-09-2008 10:00:00 8.90833 C 8.17 g/m*3 8.91 C 0 km/h
1068 26-09-2008 11:00:00 11.65 C 8.69 g/m*3 11.65 C 0 km/h
1069 26-09-2008 12:00:00 14.95833 C 6.25 g/m*3 14.96 C 0 km/h
1070 26-09-2008 13:00:00 17.15 C 5.3 g/m*3 17.15 C 0 km/h
1071 26-09-2008 14:00:00 19.325 C 4.9 g/m*3 19.33 C 0 km/h
1072 26-09-2008 15:00:00 20.875 C 4.67 g/m*3 20.88 C 0 km/h
1073 26-09-2008 16:00:00 21.65833 C 4.77 g/m*3 21.66 C 0 km/h
1074 26-09-2008 17:00:00 21.53333 C 4.94 g/m*3 21.53 C 0 km/h
1075 26-09-2008 18:00:00 19.16667 C 5.6 g/m*3 19.17 C 0 km/h
Sensor: Nr:Datum:Temp:Abs-Feuchte:Windchill:Wind:
Aussen-T/F 1076 26-09-2008 19:00:00 15.44167 C 6.02 g/m*3 15.44 C 0 km/h
1077 26-09-2008 20:00:00 13.09167 C 6.5 g/m*3 13.09 C 0 km/h
1078 26-09-2008 21:00:00 11.9 C 6.77 g/m*3 11.9 C 0 km/h
1079 26-09-2008 22:00:00 11.025 C 6.93 g/m*3 11.03 C 0 km/h
1080 26-09-2008 23:00:00 10.225 C 6.93 g/m*3 10.23 C 0 km/h
1081 27-09-2008 00:00:00 9.225 C 6.9 g/m*3 9.23 C 0 km/h
1082 27-09-2008 01:00:00 8.45833 C 6.82 g/m*3 8.46 C 0 km/h
1083 27-09-2008 02:00:00 7.55 C 6.68 g/m*3 7.55 C 0 km/h
1084 27-09-2008 03:00:00 7.03333 C 6.6 g/m*3 7.03 C 0 km/h
1085 27-09-2008 04:00:00 6.425 C 6.49 g/m*3 6.43 C 0 km/h
1086 27-09-2008 05:00:00 5.93333 C 6.38 g/m*3 5.93 C 0 km/h
1087 27-09-2008 06:00:00 5.43333 C 6.23 g/m*3 5.43 C 0 km/h
1088 27-09-2008 07:00:00 5.425 C 6.34 g/m*3 5.43 C 0 km/h
1089 27-09-2008 08:00:00 5.90833 C 6.62 g/m*3 5.91 C 0 km/h
1090 27-09-2008 09:00:00 7.2 C 6.95 g/m*3 7.2 C 0 km/h
1091 27-09-2008 10:00:00 9.04167 C 7.31 g/m*3 9.04 C 0 km/h
1092 27-09-2008 11:00:00 10.625 C 7.63 g/m*3 10.63 C 0 km/h
1093 27-09-2008 12:00:00 12.875 C 7.94 g/m*3 12.88 C 0 km/h
1094 27-09-2008 13:00:00 15.7 C 7.72 g/m*3 15.7 C 0 km/h
1095 27-09-2008 14:00:00 19.425 C 6.39 g/m*3 19.43 C 0 km/h
1096 27-09-2008 15:00:00 21.65 C 5.66 g/m*3 21.65 C 0 km/h
1097 27-09-2008 16:00:00 22.98333 C 5.37 g/m*3 22.98 C 0 km/h
1098 27-09-2008 17:00:00 22.71667 C 5.54 g/m*3 22.72 C 0 km/h
1099 27-09-2008 18:00:00 20.3 C 6.26 g/m*3 20.3 C 0 km/h
1100 27-09-2008 19:00:00 15.775 C 6.14 g/m*3 15.78 C 0 km/h
Sensor: Nr:Datum:Temp:Abs-Feuchte:Windchill:Wind:
Aussen-T/F 1101 27-09-2008 20:00:00 13.58333 C 6.63 g/m*3 13.58 C 0 km/h
1102 27-09-2008 21:00:00 12.10833 C 6.85 g/m*3 12.11 C 0 km/h
1103 27-09-2008 22:00:00 10.95455 C 6.97 g/m*3 10.95 C 0 km/h
1104 27-09-2008 23:00:00 10.075 C 7.03 g/m*3 10.07 C 0 km/h
1105 28-09-2008 00:00:00 9.45 C 7.06 g/m*3 9.45 C 0 km/h
1106 28-09-2008 01:00:00 8.63333 C 6.98 g/m*3 8.63 C 0 km/h
1107 28-09-2008 02:00:00 7.90833 C 6.81 g/m*3 7.91 C 0 km/h
1108 28-09-2008 03:00:00 7.25833 C 6.57 g/m*3 7.26 C 0 km/h
1109 28-09-2008 04:00:00 6.625 C 6.45 g/m*3 6.63 C 0 km/h
1110 28-09-2008 05:00:00 6.23333 C 6.44 g/m*3 6.23 C 0 km/h
1111 28-09-2008 06:00:00 6.475 C 6.66 g/m*3 6.48 C 0 km/h
1112 28-09-2008 07:00:00 6.41667 C 6.65 g/m*3 6.42 C 0 km/h
1113 28-09-2008 08:00:00 6.4 C 6.61 g/m*3 6.4 C 0 km/h
1114 28-09-2008 09:00:00 6.275 C 6.63 g/m*3 6.28 C 0 km/h
1115 28-09-2008 10:00:00 7.5 C 6.9 g/m*3 7.5 C 0 km/h
1116 28-09-2008 11:00:00 9.54167 C 7.26 g/m*3 9.54 C 0 km/h
1117 28-09-2008 12:00:00 12.86667 C 7.49 g/m*3 12.87 C 0 km/h
1118 28-09-2008 13:00:00 16.075 C 7.54 g/m*3 16.08 C 0 km/h
1119 28-09-2008 14:00:00 19.325 C 7.27 g/m*3 19.33 C 0 km/h
1120 28-09-2008 15:00:00 21.33333 C 5.84 g/m*3 21.33 C 0 km/h
1121 28-09-2008 16:00:00 22.38333 C 5.59 g/m*3 22.38 C 0 km/h
1122 28-09-2008 17:00:00 22.34167 C 6.04 g/m*3 22.34 C 0 km/h
1123 28-09-2008 18:00:00 19.49167 C 6.32 g/m*3 19.49 C 0 km/h
1124 28-09-2008 19:00:00 15.8 C 6.49 g/m*3 15.8 C 0 km/h
1125 28-09-2008 20:00:00 14.01667 C 6.74 g/m*3 14.02 C 0 km/h
Sensor: Nr:Datum:Temp:Abs-Feuchte:Windchill:Wind:
Aussen-T/F 1126 28-09-2008 21:00:00 12.55833 C 7.14 g/m*3 12.56 C 0 km/h
1127 28-09-2008 22:00:00 11.55 C 7.3 g/m*3 11.55 C 0 km/h
1128 28-09-2008 23:00:00 10.7 C 7.25 g/m*3 10.7 C 0 km/h
1129 29-09-2008 00:00:00 9.91667 C 7.35 g/m*3 9.92 C 0 km/h
1130 29-09-2008 01:00:00 9.65 C 7.38 g/m*3 9.65 C 0 km/h
1131 29-09-2008 02:00:00 8.84167 C 7.13 g/m*3 8.84 C 0 km/h
1132 29-09-2008 03:00:00 8.16667 C 6.95 g/m*3 8.17 C 0 km/h
1133 29-09-2008 04:00:00 7.80833 C 7 g/m*3 7.81 C 0 km/h
1134 29-09-2008 05:00:00 7.45 C 6.85 g/m*3 7.45 C 0 km/h
1135 29-09-2008 06:00:00 6.98333 C 6.64 g/m*3 6.98 C 0 km/h
1136 29-09-2008 07:00:00 6.49167 C 6.53 g/m*3 6.49 C 0 km/h
1137 29-09-2008 08:00:00 7.10833 C 6.81 g/m*3 7.11 C 0 km/h
1138 29-09-2008 09:00:00 8.025 C 7.01 g/m*3 8.03 C 0 km/h
1139 29-09-2008 10:00:00 9.75833 C 7.31 g/m*3 9.76 C 0 km/h
1140 29-09-2008 11:00:00 12.5 C 7.54 g/m*3 12.5 C 0 km/h
1141 29-09-2008 12:00:00 15.175 C 7.42 g/m*3 15.18 C 0 km/h
1142 29-09-2008 13:00:00 16.70833 C 7.45 g/m*3 16.71 C 0 km/h
1143 29-09-2008 14:00:00 16.54167 C 7.59 g/m*3 16.54 C 0 km/h
1144 29-09-2008 15:00:00 16.15 C 7.93 g/m*3 16.15 C 0 km/h
1145 29-09-2008 16:00:00 16.96667 C 7.36 g/m*3 16.97 C 0 km/h
1146 29-09-2008 17:00:00 16.575 C 6.95 g/m*3 16.58 C 0 km/h
1147 29-09-2008 18:00:00 14.09167 C 7.51 g/m*3 14.09 C 0 km/h
1148 29-09-2008 19:00:00 13.03333 C 7.71 g/m*3 13.03 C 0 km/h
1149 29-09-2008 20:00:00 12.90833 C 7.26 g/m*3 12.91 C 0 km/h
1150 29-09-2008 21:00:00 11.51667 C 7.17 g/m*3 11.52 C 0 km/h
Sensor: Nr:Datum:Temp:Abs-Feuchte:Windchill:Wind:
Aussen-T/F 1151 29-09-2008 22:00:00 11.66667 C 6.9 g/m*3 11.67 C 0 km/h
1152 29-09-2008 23:00:00 11.34167 C 6.72 g/m*3 11.34 C 0 km/h
1153 30-09-2008 00:00:00 10.44167 C 6.74 g/m*3 10.44 C 0 km/h
1154 30-09-2008 01:00:00 9.36667 C 6.86 g/m*3 9.37 C 0 km/h
1155 30-09-2008 02:00:00 8.76667 C 6.88 g/m*3 8.77 C 0 km/h
1156 30-09-2008 03:00:00 8.18333 C 6.76 g/m*3 8.18 C 0 km/h
1157 30-09-2008 04:00:00 7.93333 C 6.92 g/m*3 7.93 C 0 km/h
1158 30-09-2008 05:00:00 8.29167 C 6.98 g/m*3 8.29 C 0 km/h
1159 30-09-2008 06:00:00 8.68333 C 6.83 g/m*3 8.68 C 0 km/h
1160 30-09-2008 07:00:00 9.21667 C 6.64 g/m*3 9.22 C 0 km/h
1161 30-09-2008 08:00:00 9.34167 C 6.8 g/m*3 9.34 C 0 km/h
1162 30-09-2008 09:00:00 10.175 C 6.88 g/m*3 10.18 C 0 km/h
1163 30-09-2008 10:00:00 9.61667 C 7.6 g/m*3 9.62 C 0 km/h
1164 30-09-2008 11:00:00 9.76667 C 7.91 g/m*3 9.77 C 0 km/h
1165 30-09-2008 12:00:00 10.48333 C 7.94 g/m*3 10.48 C 0 km/h
1166 30-09-2008 13:00:00 11.65833 C 7.69 g/m*3 11.66 C 0 km/h
1167 30-09-2008 14:00:00 12.16667 C 7.69 g/m*3 12.17 C 0 km/h
1168 30-09-2008 15:00:00 12.35833 C 7.81 g/m*3 12.36 C 0 km/h
1169 30-09-2008 16:00:00 12.225 C 7.94 g/m*3 12.23 C 0 km/h
1170 30-09-2008 17:00:00 12.19167 C 8.15 g/m*3 12.19 C 0 km/h
1171 30-09-2008 18:00:00 11.71667 C 8.52 g/m*3 11.72 C 0 km/h
1172 30-09-2008 19:00:00 11.65 C 8.78 g/m*3 11.65 C 0 km/h
1173 30-09-2008 20:00:00 11.43333 C 8.97 g/m*3 11.43 C 0 km/h
1174 30-09-2008 21:00:00 11.425 C 9.03 g/m*3 11.43 C 0 km/h
1175 30-09-2008 22:00:00 10.96667 C 9.04 g/m*3 10.97 C 0 km/h
Sensor: Nr:Datum:Temp:Abs-Feuchte:Windchill:Wind:
Aussen-T/F 1176 30-09-2008 23:00:00 11.20833 C 9.07 g/m*3 11.21 C 0 km/h
1177 01-10-2008 00:00:00 11.6 C 8.52 g/m*3 11.6 C 0 km/h
1178 01-10-2008 01:00:00 11.70833 C 8.59 g/m*3 11.71 C 0 km/h
1179 01-10-2008 02:00:00 11.88333 C 8.63 g/m*3 11.88 C 0 km/h
1180 01-10-2008 03:00:00 12.18333 C 8.54 g/m*3 12.18 C 0 km/h
1181 01-10-2008 04:00:00 12.35 C 8.55 g/m*3 12.35 C 0 km/h
1182 01-10-2008 05:00:00 12.34167 C 8.63 g/m*3 12.34 C 0 km/h
1183 01-10-2008 06:00:00 12.475 C 8.64 g/m*3 12.48 C 0 km/h
1184 01-10-2008 07:00:00 12.66667 C 8.63 g/m*3 12.67 C 0 km/h
1185 01-10-2008 08:00:00 12.9 C 8.59 g/m*3 12.9 C 0 km/h
1186 01-10-2008 09:00:00 13.44167 C 8.65 g/m*3 13.44 C 0 km/h
1187 01-10-2008 10:00:00 13.94167 C 8.77 g/m*3 13.94 C 0 km/h
1188 01-10-2008 11:00:00 14.825 C 8.72 g/m*3 14.83 C 0 km/h
1189 01-10-2008 12:00:00 14.89167 C 8.91 g/m*3 14.89 C 0 km/h
1190 01-10-2008 13:00:00 14.81667 C 9.08 g/m*3 14.82 C 0 km/h
1191 01-10-2008 14:00:00 15.5 C 8.96 g/m*3 15.5 C 0 km/h
1192 01-10-2008 15:00:00 15.18333 C 8.82 g/m*3 15.18 C 0 km/h
1193 01-10-2008 16:00:00 14.45 C 9.1 g/m*3 14.45 C 0 km/h
1194 01-10-2008 17:00:00 13.11667 C 9.6 g/m*3 13.12 C 0 km/h
1195 01-10-2008 18:00:00 12.85833 C 8.26 g/m*3 12.86 C 0 km/h
1196 01-10-2008 19:00:00 12.675 C 7.8 g/m*3 12.68 C 0 km/h
1197 01-10-2008 20:00:00 12.31667 C 7.38 g/m*3 12.32 C 0 km/h
1198 01-10-2008 21:00:00 11.925 C 7.38 g/m*3 11.93 C 0 km/h
1199 01-10-2008 22:00:00 11.98333 C 7.19 g/m*3 11.98 C 0 km/h
1200 01-10-2008 23:00:00 11.7 C 6.39 g/m*3 11.7 C 0 km/h
Sensor: Nr:Datum:Temp:Abs-Feuchte:Windchill:Wind:
Aussen-T/F 1201 02-10-2008 00:00:00 11.01667 C 6.4 g/m*3 11.02 C 0 km/h
1202 02-10-2008 01:00:00 10.33333 C 6.55 g/m*3 10.33 C 0 km/h
1203 02-10-2008 02:00:00 10.04167 C 6.52 g/m*3 10.04 C 0 km/h
1204 02-10-2008 03:00:00 9.68333 C 6.72 g/m*3 9.68 C 0 km/h
1205 02-10-2008 04:00:00 9.825 C 6.88 g/m*3 9.82 C 0 km/h
1206 02-10-2008 05:00:00 10.19167 C 6.82 g/m*3 10.19 C 0 km/h
1207 02-10-2008 06:00:00 10.24167 C 6.87 g/m*3 10.24 C 0 km/h
1208 02-10-2008 07:00:00 9.69167 C 6.73 g/m*3 9.69 C 0 km/h
1209 02-10-2008 08:00:00 9.50833 C 6.72 g/m*3 9.51 C 0 km/h
1210 02-10-2008 09:00:00 10.26667 C 6.63 g/m*3 10.27 C 0 km/h
1211 02-10-2008 10:00:00 10.65 C 6.72 g/m*3 10.65 C 0 km/h
1212 02-10-2008 11:00:00 12.16667 C 6.29 g/m*3 12.17 C 0 km/h
1213 02-10-2008 12:00:00 13.08333 C 6.16 g/m*3 13.08 C 0 km/h
1214 02-10-2008 13:00:00 13.5 C 6.21 g/m*3 13.5 C 0 km/h
1215 02-10-2008 14:00:00 13.975 C 6.17 g/m*3 13.98 C 0 km/h
1216 02-10-2008 15:00:00 13.575 C 5.83 g/m*3 13.58 C 0 km/h
1217 02-10-2008 16:00:00 11.28333 C 6.67 g/m*3 11.28 C 0 km/h
1218 02-10-2008 17:00:00 12.70833 C 5.57 g/m*3 12.71 C 0 km/h
1219 02-10-2008 18:00:00 11.28333 C 5.6 g/m*3 11.28 C 0 km/h
1220 02-10-2008 19:00:00 10.10833 C 5.99 g/m*3 10.11 C 0 km/h
1221 02-10-2008 20:00:00 9.13333 C 6.09 g/m*3 9.13 C 0 km/h
1222 02-10-2008 21:00:00 8.425 C 6.13 g/m*3 8.43 C 0 km/h
1223 02-10-2008 22:00:00 8.22727 C 5.96 g/m*3 8.23 C 0 km/h
1224 02-10-2008 23:00:00 7.73333 C 6.23 g/m*3 7.73 C 0 km/h
1225 03-10-2008 00:00:00 7.96667 C 6.07 g/m*3 7.97 C 0 km/h
Sensor: Nr:Datum:Temp:Abs-Feuchte:Windchill:Wind:
Aussen-T/F 1226 03-10-2008 01:00:00 7.45 C 6.11 g/m*3 7.45 C 0 km/h
1227 03-10-2008 02:00:00 7.15833 C 6.35 g/m*3 7.16 C 0 km/h
1228 03-10-2008 03:00:00 6.69167 C 6.14 g/m*3 6.69 C 0 km/h
1229 03-10-2008 04:00:00 6.48333 C 6.27 g/m*3 6.48 C 0 km/h
1230 03-10-2008 05:00:00 6.20833 C 5.94 g/m*3 6.21 C 0 km/h
1231 03-10-2008 06:00:00 6.31667 C 5.87 g/m*3 6.32 C 0 km/h
1232 03-10-2008 07:00:00 6.08333 C 5.84 g/m*3 6.08 C 0 km/h
1233 03-10-2008 08:00:00 6.03333 C 5.9 g/m*3 6.03 C 0 km/h
1234 03-10-2008 09:00:00 7.13333 C 5.94 g/m*3 7.13 C 0 km/h
1235 03-10-2008 10:00:00 8.01667 C 5.59 g/m*3 8.02 C 0 km/h
1236 03-10-2008 11:00:00 9.85 C 5.5 g/m*3 9.85 C 0 km/h
1237 03-10-2008 12:00:00 10.84167 C 5.19 g/m*3 10.84 C 0 km/h
1238 03-10-2008 13:00:00 12.18333 C 4.97 g/m*3 12.18 C 0 km/h
1239 03-10-2008 14:00:00 13.60833 C 4.81 g/m*3 13.61 C 0 km/h
1240 03-10-2008 15:00:00 14.25 C 4.82 g/m*3 14.25 C 0 km/h
1241 03-10-2008 16:00:00 12.1 C 5.59 g/m*3 12.1 C 0 km/h
1242 03-10-2008 17:00:00 11.84167 C 5.78 g/m*3 11.84 C 0 km/h
1243 03-10-2008 18:00:00 10.73333 C 5.69 g/m*3 10.73 C 0 km/h
1244 03-10-2008 19:00:00 8.8 C 6.6 g/m*3 8.8 C 0 km/h
1245 03-10-2008 20:00:00 8.53333 C 6.82 g/m*3 8.53 C 0 km/h
1246 03-10-2008 21:00:00 8.875 C 6.77 g/m*3 8.88 C 0 km/h
1247 03-10-2008 22:00:00 8.78333 C 6.7 g/m*3 8.78 C 0 km/h
1248 03-10-2008 23:00:00 8.63333 C 6.76 g/m*3 8.63 C 0 km/h
1249 04-10-2008 00:00:00 8.59167 C 6.78 g/m*3 8.59 C 0 km/h
1250 04-10-2008 01:00:00 8.55 C 6.8 g/m*3 8.55 C 0 km/h
Sensor: Nr:Datum:Temp:Abs-Feuchte:Windchill:Wind:
Aussen-T/F 1251 04-10-2008 02:00:00 8.275 C 6.91 g/m*3 8.28 C 0 km/h
1252 04-10-2008 03:00:00 7.46667 C 7.08 g/m*3 7.47 C 0 km/h
1253 04-10-2008 04:00:00 7.325 C 7.16 g/m*3 7.33 C 0 km/h
1254 04-10-2008 05:00:00 7.575 C 7.29 g/m*3 7.58 C 0 km/h
1255 04-10-2008 06:00:00 7.34167 C 7.16 g/m*3 7.34 C 0 km/h
1256 04-10-2008 07:00:00 7.35833 C 7.14 g/m*3 7.36 C 0 km/h
1257 04-10-2008 08:00:00 7.825 C 7.18 g/m*3 7.83 C 0 km/h
1258 04-10-2008 09:00:00 8.1 C 6.83 g/m*3 8.1 C 0 km/h
1259 04-10-2008 10:00:00 9.225 C 6.27 g/m*3 9.23 C 0 km/h
1260 04-10-2008 11:00:00 10.35833 C 5.18 g/m*3 10.36 C 0 km/h
1261 04-10-2008 12:00:00 11.18333 C 4.44 g/m*3 11.18 C 0 km/h
1262 04-10-2008 13:00:00 11.50833 C 3.45 g/m*3 11.51 C 0 km/h
1263 04-10-2008 14:00:00 13.53333 C 2.98 g/m*3 13.53 C 0 km/h
1264 04-10-2008 15:00:00 13.6 C 3.03 g/m*3 13.6 C 0 km/h
1265 04-10-2008 16:00:00 14.04167 C 2.97 g/m*3 14.04 C 0 km/h
1266 04-10-2008 17:00:00 13.25833 C 3.48 g/m*3 13.26 C 0 km/h
1267 04-10-2008 18:00:00 11.33333 C 4 g/m*3 11.33 C 0 km/h
1268 04-10-2008 19:00:00 10.16667 C 4.28 g/m*3 10.17 C 0 km/h
1269 04-10-2008 20:00:00 9.81667 C 4.48 g/m*3 9.82 C 0 km/h
1270 04-10-2008 21:00:00 9.43333 C 4.81 g/m*3 9.43 C 0 km/h
1271 04-10-2008 22:00:00 9.3 C 5.08 g/m*3 9.3 C 0 km/h
1272 04-10-2008 23:00:00 9.225 C 5.11 g/m*3 9.23 C 0 km/h
1273 05-10-2008 00:00:00 9.11667 C 5.06 g/m*3 9.12 C 0 km/h
1274 05-10-2008 01:00:00 8.96667 C 5.04 g/m*3 8.97 C 0 km/h
1275 05-10-2008 02:00:00 8.56667 C 4.98 g/m*3 8.57 C 0 km/h
Sensor: Nr:Datum:Temp:Abs-Feuchte:Windchill:Wind:
Aussen-T/F 1276 05-10-2008 03:00:00 8.55 C 5.08 g/m*3 8.55 C 0 km/h
1277 05-10-2008 04:00:00 9.50833 C 5.27 g/m*3 9.51 C 0 km/h
1278 05-10-2008 05:00:00 9.975 C 5.54 g/m*3 9.98 C 0 km/h
1279 05-10-2008 06:00:00 10.11667 C 5.75 g/m*3 10.12 C 0 km/h
1280 05-10-2008 07:00:00 10.375 C 5.88 g/m*3 10.38 C 0 km/h
1281 05-10-2008 08:00:00 11.21667 C 6 g/m*3 11.22 C 0 km/h
1282 05-10-2008 09:00:00 11.96667 C 6.03 g/m*3 11.97 C 0 km/h
1283 05-10-2008 10:00:00 12.40833 C 6.09 g/m*3 12.41 C 0 km/h
1284 05-10-2008 11:00:00 12.41667 C 6.17 g/m*3 12.42 C 0 km/h
1285 05-10-2008 12:00:00 12.625 C 6.2 g/m*3 12.63 C 0 km/h
1286 05-10-2008 13:00:00 12.875 C 6.37 g/m*3 12.88 C 0 km/h
1287 05-10-2008 14:00:00 13.3 C 6.21 g/m*3 13.3 C 0 km/h
1288 05-10-2008 15:00:00 13.825 C 5.95 g/m*3 13.83 C 0 km/h
1289 05-10-2008 16:00:00 14.04167 C 5.83 g/m*3 14.04 C 0 km/h
1290 05-10-2008 17:00:00 14.175 C 5.86 g/m*3 14.18 C 0 km/h
1291 05-10-2008 18:00:00 14.09167 C 5.81 g/m*3 14.09 C 0 km/h
1292 05-10-2008 19:00:00 13.65833 C 6.2 g/m*3 13.66 C 0 km/h
1293 05-10-2008 20:00:00 12.75833 C 6.96 g/m*3 12.76 C 0 km/h
1294 05-10-2008 21:00:00 11.65833 C 7.95 g/m*3 11.66 C 0 km/h
1295 05-10-2008 22:00:00 12.075 C 8.06 g/m*3 12.08 C 0 km/h
1296 05-10-2008 23:00:00 12.30833 C 8.27 g/m*3 12.31 C 0 km/h
1297 06-10-2008 00:00:00 12.51667 C 8.74 g/m*3 12.52 C 0 km/h
1298 06-10-2008 01:00:00 13.15 C 9.09 g/m*3 13.15 C 0 km/h
1299 06-10-2008 02:00:00 13.15833 C 9.65 g/m*3 13.16 C 0 km/h
1300 06-10-2008 03:00:00 13.43333 C 10.12 g/m*3 13.43 C 0 km/h
Sensor: Nr:Datum:Temp:Abs-Feuchte:Windchill:Wind:
Aussen-T/F 1301 06-10-2008 04:00:00 13.89167 C 10.26 g/m*3 13.89 C 0 km/h
1302 06-10-2008 05:00:00 13.78333 C 10.74 g/m*3 13.78 C 0 km/h
1303 06-10-2008 06:00:00 13.875 C 10.77 g/m*3 13.88 C 0 km/h
1304 06-10-2008 07:00:00 13.64167 C 10.9 g/m*3 13.64 C 0 km/h
1305 06-10-2008 08:00:00 13.7 C 10.96 g/m*3 13.7 C 0 km/h
1306 06-10-2008 09:00:00 14.61667 C 10.95 g/m*3 14.62 C 0 km/h
1307 06-10-2008 10:00:00 15.7 C 10.44 g/m*3 15.7 C 0 km/h
1308 06-10-2008 11:00:00 16.73333 C 9.8 g/m*3 16.73 C 0 km/h
1309 06-10-2008 12:00:00 16.80833 C 9.75 g/m*3 16.81 C 0 km/h
1310 06-10-2008 13:00:00 17.36667 C 9.71 g/m*3 17.37 C 0 km/h
1311 06-10-2008 14:00:00 17.26667 C 9.73 g/m*3 17.27 C 0 km/h
1312 06-10-2008 15:00:00 17.95 C 10.17 g/m*3 17.95 C 0 km/h
1313 06-10-2008 16:00:00 16.675 C 10.34 g/m*3 16.68 C 0 km/h
1314 06-10-2008 17:00:00 16.05 C 9.76 g/m*3 16.05 C 0 km/h
1315 06-10-2008 18:00:00 14.78333 C 9.81 g/m*3 14.78 C 0 km/h
1316 06-10-2008 19:00:00 14.05 C 10.26 g/m*3 14.05 C 0 km/h
1317 06-10-2008 20:00:00 13.85 C 10.44 g/m*3 13.85 C 0 km/h
1318 06-10-2008 21:00:00 13.9 C 10.43 g/m*3 13.9 C 0 km/h
1319 06-10-2008 22:00:00 14.05833 C 9.99 g/m*3 14.06 C 0 km/h
1320 06-10-2008 23:00:00 14.075 C 9.84 g/m*3 14.08 C 0 km/h
1321 07-10-2008 00:00:00 13.78333 C 9.9 g/m*3 13.78 C 0 km/h
1322 07-10-2008 01:00:00 13.49167 C 9.89 g/m*3 13.49 C 0 km/h
1323 07-10-2008 02:00:00 13.31667 C 9.94 g/m*3 13.32 C 0 km/h
1324 07-10-2008 03:00:00 12.8 C 9.83 g/m*3 12.8 C 0 km/h
1325 07-10-2008 04:00:00 12.90833 C 9.92 g/m*3 12.91 C 0 km/h
Sensor: Nr:Datum:Temp:Abs-Feuchte:Windchill:Wind:
Aussen-T/F 1326 07-10-2008 05:00:00 12.725 C 9.83 g/m*3 12.73 C 0 km/h
1327 07-10-2008 06:00:00 12.23333 C 9.7 g/m*3 12.23 C 0 km/h
1328 07-10-2008 07:00:00 12.53333 C 10.03 g/m*3 12.53 C 0 km/h
1329 07-10-2008 08:00:00 12.55833 C 9.98 g/m*3 12.56 C 0 km/h
1330 07-10-2008 09:00:00 13.58333 C 10.48 g/m*3 13.58 C 0 km/h
1331 07-10-2008 10:00:00 14.36667 C 10.33 g/m*3 14.37 C 0 km/h
1332 07-10-2008 11:00:00 15.98333 C 10.63 g/m*3 15.98 C 0 km/h
1333 07-10-2008 12:00:00 17.84167 C 9.43 g/m*3 17.84 C 0 km/h
1334 07-10-2008 13:00:00 18.51667 C 9.62 g/m*3 18.52 C 0 km/h
1335 07-10-2008 14:00:00 19.5 C 9.06 g/m*3 19.5 C 0 km/h
1336 07-10-2008 15:00:00 19.4 C 9.37 g/m*3 19.4 C 0 km/h
1337 07-10-2008 16:00:00 18.56667 C 10.06 g/m*3 18.57 C 0 km/h
1338 07-10-2008 17:00:00 18.175 C 9.64 g/m*3 18.18 C 0 km/h
1339 07-10-2008 18:00:00 17.26667 C 10.16 g/m*3 17.27 C 0 km/h
1340 07-10-2008 19:00:00 16.50833 C 10.23 g/m*3 16.51 C 0 km/h
1341 07-10-2008 20:00:00 15.04167 C 10.77 g/m*3 15.04 C 0 km/h
1342 07-10-2008 21:00:00 14.59167 C 11.2 g/m*3 14.59 C 0 km/h
1343 07-10-2008 22:00:00 14.44545 C 11.28 g/m*3 14.45 C 0 km/h
1344 07-10-2008 23:00:00 14.09167 C 11.16 g/m*3 14.09 C 0 km/h
1345 08-10-2008 00:00:00 13.93333 C 11.12 g/m*3 13.93 C 0 km/h
1346 08-10-2008 01:00:00 13.74167 C 11.1 g/m*3 13.74 C 0 km/h
1347 08-10-2008 02:00:00 13.475 C 10.98 g/m*3 13.48 C 0 km/h
1348 08-10-2008 03:00:00 13.09167 C 10.72 g/m*3 13.09 C 0 km/h
1349 08-10-2008 04:00:00 12.95 C 10.68 g/m*3 12.95 C 0 km/h
1350 08-10-2008 05:00:00 12.93333 C 10.72 g/m*3 12.93 C 0 km/h
Sensor: Nr:Datum:Temp:Abs-Feuchte:Windchill:Wind:
Aussen-T/F 1351 08-10-2008 06:00:00 12.9 C 10.71 g/m*3 12.9 C 0 km/h
1352 08-10-2008 07:00:00 12.675 C 10.56 g/m*3 12.68 C 0 km/h
1353 08-10-2008 08:00:00 12.80833 C 10.65 g/m*3 12.81 C 0 km/h
1354 08-10-2008 09:00:00 13.09167 C 10.84 g/m*3 13.09 C 0 km/h
1355 08-10-2008 10:00:00 13.45833 C 11.08 g/m*3 13.46 C 0 km/h
1356 08-10-2008 11:00:00 14.58333 C 11.83 g/m*3 14.58 C 0 km/h
1357 08-10-2008 12:00:00 15.71667 C 12.56 g/m*3 15.72 C 0 km/h
1358 08-10-2008 13:00:00 16.28333 C 12.62 g/m*3 16.28 C 0 km/h
1359 08-10-2008 14:00:00 15.65833 C 11.42 g/m*3 15.66 C 0 km/h
1360 08-10-2008 15:00:00 13.46667 C 9.92 g/m*3 13.47 C 0 km/h
1361 08-10-2008 16:00:00 12.95833 C 9.84 g/m*3 12.96 C 0 km/h
1362 08-10-2008 17:00:00 12.575 C 9.29 g/m*3 12.58 C 0 km/h
1363 08-10-2008 18:00:00 12.1 C 8.99 g/m*3 12.1 C 0 km/h
1364 08-10-2008 19:00:00 11.51667 C 9.35 g/m*3 11.52 C 0 km/h
1365 08-10-2008 20:00:00 11.725 C 9.73 g/m*3 11.73 C 0 km/h
1366 08-10-2008 21:00:00 12.00833 C 9.92 g/m*3 12.01 C 0 km/h
1367 08-10-2008 22:00:00 12.25 C 10.07 g/m*3 12.25 C 0 km/h
1368 08-10-2008 23:00:00 12.43333 C 10.19 g/m*3 12.43 C 0 km/h
1369 09-10-2008 00:00:00 12.475 C 10.09 g/m*3 12.48 C 0 km/h
1370 09-10-2008 01:00:00 12.34167 C 9.9 g/m*3 12.34 C 0 km/h
1371 09-10-2008 02:00:00 12.2 C 9.71 g/m*3 12.2 C 0 km/h
1372 09-10-2008 03:00:00 12.24167 C 9.7 g/m*3 12.24 C 0 km/h
1373 09-10-2008 04:00:00 12.19167 C 9.52 g/m*3 12.19 C 0 km/h
1374 09-10-2008 05:00:00 12.05833 C 9.33 g/m*3 12.06 C 0 km/h
1375 09-10-2008 06:00:00 11.71667 C 9.11 g/m*3 11.72 C 0 km/h
Sensor: Nr:Datum:Temp:Abs-Feuchte:Windchill:Wind:
Aussen-T/F 1376 09-10-2008 07:00:00 11.15833 C 8.85 g/m*3 11.16 C 0 km/h
1377 09-10-2008 08:00:00 11.50833 C 9.03 g/m*3 11.51 C 0 km/h
1378 09-10-2008 09:00:00 12.35 C 9.16 g/m*3 12.35 C 0 km/h
1379 09-10-2008 10:00:00 13.2 C 8.93 g/m*3 13.2 C 0 km/h
1380 09-10-2008 11:00:00 14.16667 C 8.63 g/m*3 14.17 C 0 km/h
1381 09-10-2008 12:00:00 14.625 C 8.46 g/m*3 14.63 C 0 km/h
1382 09-10-2008 13:00:00 15.10833 C 8.38 g/m*3 15.11 C 0 km/h
1383 09-10-2008 14:00:00 16.08333 C 7.52 g/m*3 16.08 C 0 km/h
1384 09-10-2008 15:00:00 17.125 C 7.14 g/m*3 17.13 C 0 km/h
1385 09-10-2008 16:00:00 16.975 C 7.28 g/m*3 16.98 C 0 km/h
1386 09-10-2008 17:00:00 15.69167 C 7.54 g/m*3 15.69 C 0 km/h
1387 09-10-2008 18:00:00 13.95 C 8.17 g/m*3 13.95 C 0 km/h
1388 09-10-2008 19:00:00 12.18333 C 8.26 g/m*3 12.18 C 0 km/h
1389 09-10-2008 20:00:00 11.88333 C 8.49 g/m*3 11.88 C 0 km/h
1390 09-10-2008 21:00:00 12.1 C 8.58 g/m*3 12.1 C 0 km/h
1391 09-10-2008 22:00:00 11.94167 C 8.57 g/m*3 11.94 C 0 km/h
1392 09-10-2008 23:00:00 11.75 C 8.61 g/m*3 11.75 C 0 km/h
1393 10-10-2008 00:00:00 11.31667 C 8.48 g/m*3 11.32 C 0 km/h
1394 10-10-2008 01:00:00 10.875 C 8.37 g/m*3 10.88 C 0 km/h
1395 10-10-2008 02:00:00 9.925 C 8.03 g/m*3 9.93 C 0 km/h
1396 10-10-2008 03:00:00 8.8 C 7.67 g/m*3 8.8 C 0 km/h
1397 10-10-2008 04:00:00 8.225 C 7.49 g/m*3 8.23 C 0 km/h
1398 10-10-2008 05:00:00 8.10833 C 7.61 g/m*3 8.11 C 0 km/h
1399 10-10-2008 06:00:00 8.31667 C 7.83 g/m*3 8.32 C 0 km/h
1400 10-10-2008 07:00:00 8.25833 C 7.77 g/m*3 8.26 C 0 km/h
Sensor: Nr:Datum:Temp:Abs-Feuchte:Windchill:Wind:
Aussen-T/F 1401 10-10-2008 08:00:00 8.3 C 7.82 g/m*3 8.3 C 0 km/h
1402 10-10-2008 09:00:00 9.00833 C 8.13 g/m*3 9.01 C 0 km/h
1403 10-10-2008 10:00:00 10.21667 C 8.48 g/m*3 10.22 C 0 km/h
1404 10-10-2008 11:00:00 12.14167 C 8.5 g/m*3 12.14 C 0 km/h
1405 10-10-2008 12:00:00 13.30833 C 8.75 g/m*3 13.31 C 0 km/h
1406 10-10-2008 13:00:00 16.19167 C 9.11 g/m*3 16.19 C 0 km/h
1407 10-10-2008 14:00:00 18.25 C 8.99 g/m*3 18.25 C 0 km/h
1408 10-10-2008 15:00:00 21.05833 C 8.76 g/m*3 21.06 C 0 km/h
1409 10-10-2008 16:00:00 22.00833 C 7.51 g/m*3 22.01 C 0 km/h
1410 10-10-2008 17:00:00 20.575 C 7.98 g/m*3 20.58 C 0 km/h
1411 10-10-2008 18:00:00 17.58333 C 8.74 g/m*3 17.58 C 0 km/h
1412 10-10-2008 19:00:00 16.00833 C 9.2 g/m*3 16.01 C 0 km/h
1413 10-10-2008 20:00:00 14.75833 C 9.31 g/m*3 14.76 C 0 km/h
1414 10-10-2008 21:00:00 14.00833 C 9.22 g/m*3 14.01 C 0 km/h
1415 10-10-2008 22:00:00 12.95833 C 9.17 g/m*3 12.96 C 0 km/h
1416 10-10-2008 23:00:00 12.23333 C 9.05 g/m*3 12.23 C 0 km/h
1417 11-10-2008 00:00:00 11.38333 C 8.72 g/m*3 11.38 C 0 km/h
1418 11-10-2008 01:00:00 10.475 C 8.33 g/m*3 10.48 C 0 km/h
1419 11-10-2008 02:00:00 9.90833 C 8.13 g/m*3 9.91 C 0 km/h
1420 11-10-2008 03:00:00 9.38333 C 8 g/m*3 9.38 C 0 km/h
1421 11-10-2008 04:00:00 9.15 C 8 g/m*3 9.15 C 0 km/h
1422 11-10-2008 05:00:00 9.35 C 8.24 g/m*3 9.35 C 0 km/h
1423 11-10-2008 06:00:00 9.20833 C 8.13 g/m*3 9.21 C 0 km/h
1424 11-10-2008 07:00:00 9.11667 C 8.08 g/m*3 9.12 C 0 km/h
1425 11-10-2008 08:00:00 9.13333 C 8.09 g/m*3 9.13 C 0 km/h
Sensor: Nr:Datum:Temp:Abs-Feuchte:Windchill:Wind:
Aussen-T/F 1426 11-10-2008 09:00:00 9.43333 C 8.29 g/m*3 9.43 C 0 km/h
1427 11-10-2008 10:00:00 10.9 C 8.6 g/m*3 10.9 C 0 km/h
1428 11-10-2008 11:00:00 12.525 C 8.78 g/m*3 12.53 C 0 km/h
1429 11-10-2008 12:00:00 13.31667 C 9.07 g/m*3 13.32 C 0 km/h
1430 11-10-2008 13:00:00 16.00833 C 9.59 g/m*3 16.01 C 0 km/h
1431 11-10-2008 14:00:00 19.05 C 9.52 g/m*3 19.05 C 0 km/h
1432 11-10-2008 15:00:00 21.00833 C 9.45 g/m*3 21.01 C 0 km/h
1433 11-10-2008 16:00:00 21.06667 C 9.19 g/m*3 21.07 C 0 km/h
1434 11-10-2008 17:00:00 18.975 C 9.15 g/m*3 18.98 C 0 km/h
1435 11-10-2008 18:00:00 15.84167 C 9.22 g/m*3 15.84 C 0 km/h
1436 11-10-2008 19:00:00 14.08333 C 9.35 g/m*3 14.08 C 0 km/h
1437 11-10-2008 20:00:00 14.35833 C 9.6 g/m*3 14.36 C 0 km/h
1438 11-10-2008 21:00:00 14.6 C 9.66 g/m*3 14.6 C 0 km/h
1439 11-10-2008 22:00:00 14.51667 C 9.71 g/m*3 14.52 C 0 km/h
1440 11-10-2008 23:00:00 14.30833 C 9.59 g/m*3 14.31 C 0 km/h
1441 12-10-2008 00:00:00 13.70833 C 9.25 g/m*3 13.71 C 0 km/h
1442 12-10-2008 01:00:00 12.7 C 8.91 g/m*3 12.7 C 0 km/h
1443 12-10-2008 02:00:00 12.33333 C 9.11 g/m*3 12.33 C 0 km/h
1444 12-10-2008 03:00:00 12.94167 C 9.22 g/m*3 12.94 C 0 km/h
1445 12-10-2008 04:00:00 12.90833 C 9.32 g/m*3 12.91 C 0 km/h
1446 12-10-2008 05:00:00 12.98333 C 9.32 g/m*3 12.98 C 0 km/h
1447 12-10-2008 06:00:00 12.85833 C 9.31 g/m*3 12.86 C 0 km/h
1448 12-10-2008 07:00:00 12.74167 C 9.28 g/m*3 12.74 C 0 km/h
1449 12-10-2008 08:00:00 12.96667 C 9.34 g/m*3 12.97 C 0 km/h
1450 12-10-2008 09:00:00 13.11667 C 9.17 g/m*3 13.12 C 0 km/h
Sensor: Nr:Datum:Temp:Abs-Feuchte:Windchill:Wind:
Aussen-T/F 1451 12-10-2008 10:00:00 13.58333 C 9.24 g/m*3 13.58 C 0 km/h
1452 12-10-2008 11:00:00 14.46667 C 9.11 g/m*3 14.47 C 0 km/h
1453 12-10-2008 12:00:00 15.71667 C 9.32 g/m*3 15.72 C 0 km/h
1454 12-10-2008 13:00:00 18.31667 C 9.51 g/m*3 18.32 C 0 km/h
1455 12-10-2008 14:00:00 20.95 C 9.25 g/m*3 20.95 C 0 km/h
1456 12-10-2008 15:00:00 22.90833 C 9.46 g/m*3 22.91 C 0 km/h
1457 12-10-2008 16:00:00 22.6 C 9.58 g/m*3 22.6 C 0 km/h
1458 12-10-2008 17:00:00 20.90833 C 9.85 g/m*3 20.91 C 0 km/h
1459 12-10-2008 18:00:00 18.45 C 10.21 g/m*3 18.45 C 0 km/h
1460 12-10-2008 19:00:00 16.4 C 10.43 g/m*3 16.4 C 0 km/h
1461 12-10-2008 20:00:00 15.33333 C 10.35 g/m*3 15.33 C 0 km/h
1462 12-10-2008 21:00:00 14.6 C 10.22 g/m*3 14.6 C 0 km/h
1463 12-10-2008 22:00:00 13.525 C 9.81 g/m*3 13.53 C 0 km/h
1464 12-10-2008 23:00:00 12.75833 C 9.47 g/m*3 12.76 C 0 km/h
1465 13-10-2008 00:00:00 11.975 C 9.08 g/m*3 11.98 C 0 km/h
1466 13-10-2008 01:00:00 11.3 C 8.82 g/m*3 11.3 C 0 km/h
1467 13-10-2008 02:00:00 11.55833 C 8.96 g/m*3 11.56 C 0 km/h
1468 13-10-2008 03:00:00 11.475 C 8.87 g/m*3 11.48 C 0 km/h
1469 13-10-2008 04:00:00 11.19167 C 8.81 g/m*3 11.19 C 0 km/h
1470 13-10-2008 05:00:00 10.69167 C 8.73 g/m*3 10.69 C 0 km/h
1471 13-10-2008 06:00:00 10.55 C 8.76 g/m*3 10.55 C 0 km/h
1472 13-10-2008 07:00:00 10.03333 C 8.55 g/m*3 10.03 C 0 km/h
1473 13-10-2008 08:00:00 10.19167 C 8.66 g/m*3 10.19 C 0 km/h
1474 13-10-2008 09:00:00 10.43333 C 8.74 g/m*3 10.43 C 0 km/h
1475 13-10-2008 10:00:00 11.94167 C 9.06 g/m*3 11.94 C 0 km/h
Sensor: Nr:Datum:Temp:Abs-Feuchte:Windchill:Wind:
Aussen-T/F 1476 13-10-2008 11:00:00 13.69167 C 9.18 g/m*3 13.69 C 0 km/h
1477 13-10-2008 12:00:00 15.875 C 9.94 g/m*3 15.88 C 0 km/h
1478 13-10-2008 13:00:00 18.26667 C 10.29 g/m*3 18.27 C 0 km/h
1479 13-10-2008 14:00:00 19.25833 C 9.73 g/m*3 19.26 C 0 km/h
1480 13-10-2008 15:00:00 21.15 C 9.09 g/m*3 21.15 C 0 km/h
1481 13-10-2008 16:00:00 20.11667 C 9.16 g/m*3 20.12 C 0 km/h
1482 13-10-2008 17:00:00 19.10833 C 9.42 g/m*3 19.11 C 0 km/h
1483 13-10-2008 18:00:00 17.89167 C 9.16 g/m*3 17.89 C 0 km/h
1484 13-10-2008 19:00:00 17.275 C 9.54 g/m*3 17.27 C 0 km/h
1485 13-10-2008 20:00:00 16.36667 C 10.1 g/m*3 16.37 C 0 km/h
1486 13-10-2008 21:00:00 15.93636 C 10.18 g/m*3 15.94 C 0 km/h
1487 13-10-2008 22:00:00 15.05 C 10.14 g/m*3 15.05 C 0 km/h
1488 13-10-2008 23:00:00 14.63333 C 10.48 g/m*3 14.63 C 0 km/h
1489 14-10-2008 00:00:00 14.73333 C 10.58 g/m*3 14.73 C 0 km/h
1490 14-10-2008 01:00:00 14.85833 C 10.8 g/m*3 14.86 C 0 km/h
1491 14-10-2008 02:00:00 15.08333 C 10.88 g/m*3 15.08 C 0 km/h
1492 14-10-2008 03:00:00 15.31667 C 10.95 g/m*3 15.32 C 0 km/h
1493 14-10-2008 04:00:00 15.38333 C 11.06 g/m*3 15.38 C 0 km/h
1494 14-10-2008 05:00:00 14.83333 C 10.63 g/m*3 14.83 C 0 km/h
1495 14-10-2008 06:00:00 14.33333 C 10.52 g/m*3 14.33 C 0 km/h
1496 14-10-2008 07:00:00 14.41667 C 10.63 g/m*3 14.42 C 0 km/h
1497 14-10-2008 08:00:00 14.025 C 10.06 g/m*3 14.03 C 0 km/h
1498 14-10-2008 09:00:00 15.09167 C 10.01 g/m*3 15.09 C 0 km/h
1499 14-10-2008 10:00:00 16.425 C 9.19 g/m*3 16.43 C 0 km/h
1500 14-10-2008 11:00:00 17.24167 C 9.03 g/m*3 17.24 C 0 km/h
Sensor: Nr:Datum:Temp:Abs-Feuchte:Windchill:Wind:
Aussen-T/F 1501 14-10-2008 12:00:00 18.48333 C 8.18 g/m*3 18.48 C 0 km/h
1502 14-10-2008 13:00:00 17.39167 C 8.57 g/m*3 17.39 C 0 km/h
1503 14-10-2008 14:00:00 17.4 C 8.66 g/m*3 17.4 C 0 km/h
1504 14-10-2008 15:00:00 17.61667 C 8.12 g/m*3 17.62 C 0 km/h
1505 14-10-2008 16:00:00 18.49167 C 7.64 g/m*3 18.49 C 0 km/h
1506 14-10-2008 17:00:00 18.18333 C 7.36 g/m*3 18.18 C 0 km/h
1507 14-10-2008 18:00:00 15.7 C 7.96 g/m*3 15.7 C 0 km/h
1508 14-10-2008 19:00:00 14.925 C 8.2 g/m*3 14.93 C 0 km/h
1509 14-10-2008 20:00:00 14.64167 C 8.35 g/m*3 14.64 C 0 km/h
1510 14-10-2008 21:00:00 14.25833 C 8.18 g/m*3 14.26 C 0 km/h
1511 14-10-2008 22:00:00 13.6 C 8.28 g/m*3 13.6 C 0 km/h
1512 14-10-2008 23:00:00 12.79167 C 8.4 g/m*3 12.79 C 0 km/h
1513 15-10-2008 00:00:00 12.43333 C 8.43 g/m*3 12.43 C 0 km/h
1514 15-10-2008 01:00:00 12.11667 C 8.44 g/m*3 12.12 C 0 km/h
1515 15-10-2008 02:00:00 11.86667 C 8.34 g/m*3 11.87 C 0 km/h
1516 15-10-2008 03:00:00 11.49167 C 8.23 g/m*3 11.49 C 0 km/h
1517 15-10-2008 04:00:00 11.4 C 8.24 g/m*3 11.4 C 0 km/h
1518 15-10-2008 05:00:00 11.46667 C 8.2 g/m*3 11.47 C 0 km/h
1519 15-10-2008 06:00:00 11.225 C 8.18 g/m*3 11.23 C 0 km/h
1520 15-10-2008 07:00:00 11.15833 C 8.24 g/m*3 11.16 C 0 km/h
1521 15-10-2008 08:00:00 11.46667 C 8.43 g/m*3 11.47 C 0 km/h
1522 15-10-2008 09:00:00 12.29167 C 8.62 g/m*3 12.29 C 0 km/h
1523 15-10-2008 10:00:00 13.03333 C 8.77 g/m*3 13.03 C 0 km/h
1524 15-10-2008 11:00:00 14.61667 C 9.07 g/m*3 14.62 C 0 km/h
1525 15-10-2008 12:00:00 14.90833 C 9.04 g/m*3 14.91 C 0 km/h
Sensor: Nr:Datum:Temp:Abs-Feuchte:Windchill:Wind:
Aussen-T/F 1526 15-10-2008 13:00:00 15.36667 C 8.96 g/m*3 15.37 C 0 km/h
1527 15-10-2008 14:00:00 15.725 C 8.86 g/m*3 15.73 C 0 km/h
1528 15-10-2008 15:00:00 15.56667 C 8.7 g/m*3 15.57 C 0 km/h
1529 15-10-2008 16:00:00 15.60833 C 8.7 g/m*3 15.61 C 0 km/h
1530 15-10-2008 17:00:00 15.53333 C 8.7 g/m*3 15.53 C 0 km/h
1531 15-10-2008 18:00:00 15.19167 C 8.99 g/m*3 15.19 C 0 km/h
1532 15-10-2008 19:00:00 13.94167 C 9.98 g/m*3 13.94 C 0 km/h
1533 15-10-2008 20:00:00 14.53333 C 9.96 g/m*3 14.53 C 0 km/h
1534 15-10-2008 21:00:00 14.83333 C 9.92 g/m*3 14.83 C 0 km/h
1535 15-10-2008 22:00:00 15.1 C 9.83 g/m*3 15.1 C 0 km/h
1536 15-10-2008 23:00:00 14.89167 C 9.97 g/m*3 14.89 C 0 km/h
1537 16-10-2008 00:00:00 14.925 C 9.82 g/m*3 14.93 C 0 km/h
1538 16-10-2008 01:00:00 14.99167 C 9.75 g/m*3 14.99 C 0 km/h
1539 16-10-2008 02:00:00 14.89167 C 9.77 g/m*3 14.89 C 0 km/h
1540 16-10-2008 03:00:00 14.86667 C 9.41 g/m*3 14.87 C 0 km/h
1541 16-10-2008 04:00:00 14.33333 C 9.27 g/m*3 14.33 C 0 km/h
1542 16-10-2008 05:00:00 13.28333 C 9.46 g/m*3 13.28 C 0 km/h
1543 16-10-2008 06:00:00 13.15833 C 9.33 g/m*3 13.16 C 0 km/h
1544 16-10-2008 07:00:00 13.16667 C 8.14 g/m*3 13.17 C 0 km/h
1545 16-10-2008 08:00:00 12.95 C 8.14 g/m*3 12.95 C 0 km/h
1546 16-10-2008 09:00:00 13.03333 C 8.12 g/m*3 13.03 C 0 km/h
1547 16-10-2008 10:00:00 12.175 C 8.71 g/m*3 12.18 C 0 km/h
1548 16-10-2008 11:00:00 12.025 C 9.12 g/m*3 12.03 C 0 km/h
1549 16-10-2008 12:00:00 12.24167 C 9.41 g/m*3 12.24 C 0 km/h
1550 16-10-2008 13:00:00 12.09167 C 9.28 g/m*3 12.09 C 0 km/h
Sensor: Nr:Datum:Temp:Abs-Feuchte:Windchill:Wind:
Aussen-T/F 1551 16-10-2008 14:00:00 10.925 C 8.85 g/m*3 10.93 C 0 km/h
1552 16-10-2008 15:00:00 9.65833 C 8.45 g/m*3 9.66 C 0 km/h
1553 16-10-2008 16:00:00 9.51667 C 8.41 g/m*3 9.52 C 0 km/h
1554 16-10-2008 17:00:00 10.05833 C 8.07 g/m*3 10.06 C 0 km/h
1555 16-10-2008 18:00:00 9.86667 C 7.49 g/m*3 9.87 C 0 km/h
1556 16-10-2008 19:00:00 8.75 C 7.5 g/m*3 8.75 C 0 km/h
1557 16-10-2008 20:00:00 8.425 C 6.89 g/m*3 8.43 C 0 km/h
1558 16-10-2008 21:00:00 8.29167 C 6.64 g/m*3 8.29 C 0 km/h
1559 16-10-2008 22:00:00 7.65833 C 6.6 g/m*3 7.66 C 0 km/h
1560 16-10-2008 23:00:00 6.98333 C 6.52 g/m*3 6.98 C 0 km/h
1561 17-10-2008 00:00:00 6.825 C 6.29 g/m*3 6.83 C 0 km/h
1562 17-10-2008 01:00:00 6.55833 C 6.19 g/m*3 6.56 C 0 km/h
1563 17-10-2008 02:00:00 6.16667 C 6.18 g/m*3 6.17 C 0 km/h
1564 17-10-2008 03:00:00 5.84167 C 6.18 g/m*3 5.84 C 0 km/h
1565 17-10-2008 04:00:00 5.89167 C 6.16 g/m*3 5.89 C 0 km/h
1566 17-10-2008 05:00:00 6.4 C 6.1 g/m*3 6.4 C 0 km/h
1567 17-10-2008 06:00:00 5.95833 C 6.02 g/m*3 5.96 C 0 km/h
1568 17-10-2008 07:00:00 5.375 C 6.01 g/m*3 5.38 C 0 km/h
1569 17-10-2008 08:00:00 5.28333 C 6.07 g/m*3 5.28 C 0 km/h
1570 17-10-2008 09:00:00 6.38333 C 6.29 g/m*3 6.38 C 0 km/h
1571 17-10-2008 10:00:00 7.81667 C 6.3 g/m*3 7.82 C 0 km/h
1572 17-10-2008 11:00:00 8.325 C 6.37 g/m*3 8.32 C 0 km/h
1573 17-10-2008 12:00:00 10.20833 C 6.54 g/m*3 10.21 C 0 km/h
1574 17-10-2008 13:00:00 12.45833 C 5.83 g/m*3 12.46 C 0 km/h
1575 17-10-2008 14:00:00 12.48333 C 5.38 g/m*3 12.48 C 0 km/h
Sensor: Nr:Datum:Temp:Abs-Feuchte:Windchill:Wind:
Aussen-T/F 1576 17-10-2008 15:00:00 13.14167 C 5.16 g/m*3 13.14 C 0 km/h
1577 17-10-2008 16:00:00 12.36667 C 5.43 g/m*3 12.37 C 0 km/h
1578 17-10-2008 17:00:00 11.86667 C 6.17 g/m*3 11.87 C 0 km/h
1579 17-10-2008 18:00:00 10.04167 C 6.16 g/m*3 10.04 C 0 km/h
1580 17-10-2008 19:00:00 8.21667 C 6.09 g/m*3 8.22 C 0 km/h
1581 17-10-2008 20:00:00 7.175 C 6.03 g/m*3 7.18 C 0 km/h
1582 17-10-2008 21:00:00 6.475 C 6.03 g/m*3 6.48 C 0 km/h
1583 17-10-2008 22:00:00 5.69167 C 5.96 g/m*3 5.69 C 0 km/h
1584 17-10-2008 23:00:00 5.125 C 5.9 g/m*3 5.13 C 0 km/h
1585 18-10-2008 00:00:00 4.575 C 5.85 g/m*3 4.58 C 0 km/h
1586 18-10-2008 01:00:00 4.075 C 5.75 g/m*3 4.08 C 0 km/h
1587 18-10-2008 02:00:00 3.49167 C 5.59 g/m*3 3.49 C 0 km/h
1588 18-10-2008 03:00:00 3.475 C 5.64 g/m*3 3.48 C 0 km/h
1589 18-10-2008 04:00:00 3.8 C 5.83 g/m*3 3.8 C 0 km/h
1590 18-10-2008 05:00:00 3.66667 C 5.78 g/m*3 3.67 C 0 km/h
1591 18-10-2008 06:00:00 3.33333 C 5.57 g/m*3 3.33 C 0 km/h
1592 18-10-2008 07:00:00 2.73333 C 5.4 g/m*3 2.73 C 0 km/h
1593 18-10-2008 08:00:00 2.8 C 5.44 g/m*3 2.8 C 0 km/h
1594 18-10-2008 09:00:00 3.08333 C 5.48 g/m*3 3.08 C 0 km/h
1595 18-10-2008 10:00:00 3.775 C 5.71 g/m*3 3.78 C 0 km/h
1596 18-10-2008 11:00:00 4.9 C 5.84 g/m*3 4.9 C 0 km/h
1597 18-10-2008 12:00:00 6.85833 C 6.26 g/m*3 6.86 C 0 km/h
1598 18-10-2008 13:00:00 10.225 C 6.7 g/m*3 10.23 C 0 km/h
1599 18-10-2008 14:00:00 14.24167 C 6.77 g/m*3 14.24 C 0 km/h
1600 18-10-2008 15:00:00 15.84167 C 5.08 g/m*3 15.84 C 0 km/h
Sensor: Nr:Datum:Temp:Abs-Feuchte:Windchill:Wind:
Aussen-T/F 1601 18-10-2008 16:00:00 15.65 C 4.69 g/m*3 15.65 C 0 km/h
1602 18-10-2008 17:00:00 13.70833 C 4.87 g/m*3 13.71 C 0 km/h
1603 18-10-2008 18:00:00 11.41667 C 5.22 g/m*3 11.42 C 0 km/h
1604 18-10-2008 19:00:00 9.81667 C 5.62 g/m*3 9.82 C 0 km/h
1605 18-10-2008 20:00:00 8.55 C 5.79 g/m*3 8.55 C 0 km/h
1606 18-10-2008 21:00:00 7.7 C 5.82 g/m*3 7.7 C 0 km/h
1607 18-10-2008 22:00:00 6.79091 C 5.84 g/m*3 6.79 C 0 km/h
1608 18-10-2008 23:00:00 5.98333 C 5.86 g/m*3 5.98 C 0 km/h
1609 19-10-2008 00:00:00 5.60833 C 5.92 g/m*3 5.61 C 0 km/h
1610 19-10-2008 01:00:00 4.96667 C 5.82 g/m*3 4.97 C 0 km/h
1611 19-10-2008 02:00:00 4.56667 C 5.89 g/m*3 4.57 C 0 km/h
1612 19-10-2008 03:00:00 4.50833 C 5.94 g/m*3 4.51 C 0 km/h
1613 19-10-2008 04:00:00 4.50833 C 5.94 g/m*3 4.51 C 0 km/h
1614 19-10-2008 05:00:00 4.76667 C 5.98 g/m*3 4.77 C 0 km/h
1615 19-10-2008 06:00:00 3.83333 C 5.71 g/m*3 3.83 C 0 km/h
1616 19-10-2008 07:00:00 3.16667 C 5.53 g/m*3 3.17 C 0 km/h
1617 19-10-2008 08:00:00 3.19167 C 5.57 g/m*3 3.19 C 0 km/h
1618 19-10-2008 09:00:00 3.95 C 5.89 g/m*3 3.95 C 0 km/h
1619 19-10-2008 10:00:00 5.44167 C 6.51 g/m*3 5.44 C 0 km/h
1620 19-10-2008 11:00:00 8.33333 C 7.19 g/m*3 8.33 C 0 km/h
1621 19-10-2008 12:00:00 10.61667 C 6.42 g/m*3 10.62 C 0 km/h
1622 19-10-2008 13:00:00 13.10833 C 5.96 g/m*3 13.11 C 0 km/h
1623 19-10-2008 14:00:00 14.43333 C 5.74 g/m*3 14.43 C 0 km/h
1624 19-10-2008 15:00:00 15.4 C 5.35 g/m*3 15.4 C 0 km/h
1625 19-10-2008 16:00:00 16.19167 C 5.21 g/m*3 16.19 C 0 km/h
Sensor: Nr:Datum:Temp:Abs-Feuchte:Windchill:Wind:
Aussen-T/F 1626 19-10-2008 17:00:00 14.70833 C 5.75 g/m*3 14.71 C 0 km/h
1627 19-10-2008 18:00:00 12.14167 C 6.1 g/m*3 12.14 C 0 km/h
1628 19-10-2008 19:00:00 10.275 C 6.38 g/m*3 10.28 C 0 km/h
1629 19-10-2008 20:00:00 9.19167 C 6.49 g/m*3 9.19 C 0 km/h
1630 19-10-2008 21:00:00 8.1 C 6.41 g/m*3 8.1 C 0 km/h
1631 19-10-2008 22:00:00 7.15833 C 6.34 g/m*3 7.16 C 0 km/h
1632 19-10-2008 23:00:00 6.35833 C 6.28 g/m*3 6.36 C 0 km/h
1633 20-10-2008 00:00:00 5.68333 C 6.18 g/m*3 5.68 C 0 km/h
1634 20-10-2008 01:00:00 5.00833 C 6.01 g/m*3 5.01 C 0 km/h
1635 20-10-2008 02:00:00 4.35833 C 5.8 g/m*3 4.36 C 0 km/h
1636 20-10-2008 03:00:00 3.83333 C 5.68 g/m*3 3.83 C 0 km/h
1637 20-10-2008 04:00:00 3.30833 C 5.52 g/m*3 3.31 C 0 km/h
1638 20-10-2008 05:00:00 2.91667 C 5.41 g/m*3 2.92 C 0 km/h
1639 20-10-2008 06:00:00 2.68333 C 5.41 g/m*3 2.68 C 0 km/h
1640 20-10-2008 07:00:00 2.65833 C 5.42 g/m*3 2.66 C 0 km/h
1641 20-10-2008 08:00:00 2.63333 C 5.4 g/m*3 2.63 C 0 km/h
1642 20-10-2008 09:00:00 3.05 C 5.57 g/m*3 3.05 C 0 km/h
1643 20-10-2008 10:00:00 3.59167 C 5.75 g/m*3 3.59 C 0 km/h
1644 20-10-2008 11:00:00 5.825 C 6.73 g/m*3 5.83 C 0 km/h
1645 20-10-2008 12:00:00 9.98333 C 8.14 g/m*3 9.98 C 0 km/h
1646 20-10-2008 13:00:00 14.05 C 7.49 g/m*3 14.05 C 0 km/h
1647 20-10-2008 14:00:00 17.69167 C 7.68 g/m*3 17.69 C 0 km/h
1648 20-10-2008 15:00:00 19.71667 C 7.52 g/m*3 19.72 C 0 km/h
1649 20-10-2008 16:00:00 20.275 C 7.61 g/m*3 20.27 C 0 km/h
1650 20-10-2008 17:00:00 20.04167 C 7.67 g/m*3 20.04 C 0 km/h
Sensor: Nr:Datum:Temp:Abs-Feuchte:Windchill:Wind:
Aussen-T/F 1651 20-10-2008 18:00:00 17.35833 C 8.13 g/m*3 17.36 C 0 km/h
1652 20-10-2008 19:00:00 15.76667 C 8.8 g/m*3 15.77 C 0 km/h
1653 20-10-2008 20:00:00 15.25833 C 9.12 g/m*3 15.26 C 0 km/h
1654 20-10-2008 21:00:00 14.19167 C 9.35 g/m*3 14.19 C 0 km/h
1655 20-10-2008 22:00:00 13.26667 C 9.31 g/m*3 13.27 C 0 km/h
1656 20-10-2008 23:00:00 12.925 C 9.48 g/m*3 12.93 C 0 km/h
1657 21-10-2008 00:00:00 13.925 C 10.11 g/m*3 13.93 C 0 km/h
1658 21-10-2008 01:00:00 14.01667 C 9.77 g/m*3 14.02 C 0 km/h
1659 21-10-2008 02:00:00 13.25 C 9.88 g/m*3 13.25 C 0 km/h
1660 21-10-2008 03:00:00 13.325 C 9.97 g/m*3 13.33 C 0 km/h
1661 21-10-2008 04:00:00 13.9 C 10.09 g/m*3 13.9 C 0 km/h
1662 21-10-2008 05:00:00 14.975 C 10.4 g/m*3 14.98 C 0 km/h
1663 21-10-2008 06:00:00 16.29167 C 10.16 g/m*3 16.29 C 0 km/h
1664 21-10-2008 07:00:00 16.60833 C 9.96 g/m*3 16.61 C 0 km/h
1665 21-10-2008 08:00:00 17.05 C 9.48 g/m*3 17.05 C 0 km/h
1666 21-10-2008 09:00:00 17.20833 C 8.97 g/m*3 17.21 C 0 km/h
1667 21-10-2008 10:00:00 17.49167 C 8.74 g/m*3 17.49 C 0 km/h
1668 21-10-2008 11:00:00 17.95833 C 8.48 g/m*3 17.96 C 0 km/h
1669 21-10-2008 12:00:00 15.59167 C 8.16 g/m*3 15.59 C 0 km/h
1670 21-10-2008 13:00:00 11.775 C 8.85 g/m*3 11.78 C 0 km/h
1671 21-10-2008 14:00:00 11.45833 C 9.12 g/m*3 11.46 C 0 km/h
1672 21-10-2008 15:00:00 11.46667 C 9.21 g/m*3 11.47 C 0 km/h
1673 21-10-2008 16:00:00 11 C 9 g/m*3 11 C 0 km/h
1674 21-10-2008 17:00:00 10.95833 C 9.15 g/m*3 10.96 C 0 km/h
1675 21-10-2008 18:00:00 10.35 C 8.84 g/m*3 10.35 C 0 km/h
Sensor: Nr:Datum:Temp:Abs-Feuchte:Windchill:Wind:
Aussen-T/F 1676 21-10-2008 19:00:00 9.81667 C 8.71 g/m*3 9.82 C 0 km/h
1677 21-10-2008 20:00:00 9.51667 C 8.57 g/m*3 9.52 C 0 km/h
1678 21-10-2008 21:00:00 9.46667 C 8.63 g/m*3 9.47 C 0 km/h
1679 21-10-2008 22:00:00 9.03333 C 8.33 g/m*3 9.03 C 0 km/h
1680 21-10-2008 23:00:00 8.68333 C 8.21 g/m*3 8.68 C 0 km/h
1681 22-10-2008 00:00:00 8.775 C 8.24 g/m*3 8.78 C 0 km/h
1682 22-10-2008 01:00:00 8.73333 C 8.15 g/m*3 8.73 C 0 km/h
1683 22-10-2008 02:00:00 8.6 C 8.08 g/m*3 8.6 C 0 km/h
1684 22-10-2008 03:00:00 8.5 C 8.1 g/m*3 8.5 C 0 km/h
1685 22-10-2008 04:00:00 8.41667 C 8.07 g/m*3 8.42 C 0 km/h
1686 22-10-2008 05:00:00 8.25833 C 7.99 g/m*3 8.26 C 0 km/h
1687 22-10-2008 06:00:00 8.14167 C 7.93 g/m*3 8.14 C 0 km/h
1688 22-10-2008 07:00:00 8.00833 C 7.86 g/m*3 8.01 C 0 km/h
1689 22-10-2008 08:00:00 8.04167 C 7.88 g/m*3 8.04 C 0 km/h
1690 22-10-2008 09:00:00 8.475 C 8.1 g/m*3 8.48 C 0 km/h
1691 22-10-2008 10:00:00 8.78333 C 8.11 g/m*3 8.78 C 0 km/h
1692 22-10-2008 11:00:00 9.55833 C 8.07 g/m*3 9.56 C 0 km/h
1693 22-10-2008 12:00:00 10.83333 C 7.71 g/m*3 10.83 C 0 km/h
1694 22-10-2008 13:00:00 11.73333 C 7.35 g/m*3 11.73 C 0 km/h
1695 22-10-2008 14:00:00 12.30833 C 6.75 g/m*3 12.31 C 0 km/h
1696 22-10-2008 15:00:00 12.23333 C 6.44 g/m*3 12.23 C 0 km/h
1697 22-10-2008 16:00:00 11.80833 C 6.2 g/m*3 11.81 C 0 km/h
1698 22-10-2008 17:00:00 11.275 C 6.37 g/m*3 11.28 C 0 km/h
1699 22-10-2008 18:00:00 10.39167 C 6.57 g/m*3 10.39 C 0 km/h
1700 22-10-2008 19:00:00 9.7 C 6.71 g/m*3 9.7 C 0 km/h
Sensor: Nr:Datum:Temp:Abs-Feuchte:Windchill:Wind:
Aussen-T/F 1701 22-10-2008 20:00:00 9.15833 C 6.69 g/m*3 9.16 C 0 km/h
1702 22-10-2008 21:00:00 8.45 C 6.83 g/m*3 8.45 C 0 km/h
1703 22-10-2008 22:00:00 7.59167 C 6.89 g/m*3 7.59 C 0 km/h
1704 22-10-2008 23:00:00 6.99167 C 6.87 g/m*3 6.99 C 0 km/h
1705 23-10-2008 00:00:00 6.35833 C 6.81 g/m*3 6.36 C 0 km/h
1706 23-10-2008 01:00:00 5.93333 C 6.78 g/m*3 5.93 C 0 km/h
1707 23-10-2008 02:00:00 6.225 C 6.98 g/m*3 6.23 C 0 km/h
1708 23-10-2008 03:00:00 6.95833 C 7.26 g/m*3 6.96 C 0 km/h
1709 23-10-2008 04:00:00 7.25833 C 7.27 g/m*3 7.26 C 0 km/h
1710 23-10-2008 05:00:00 7.34167 C 7 g/m*3 7.34 C 0 km/h
1711 23-10-2008 06:00:00 7.45 C 6.73 g/m*3 7.45 C 0 km/h
1712 23-10-2008 07:00:00 7.4 C 6.75 g/m*3 7.4 C 0 km/h
1713 23-10-2008 08:00:00 7.425 C 6.78 g/m*3 7.43 C 0 km/h
1714 23-10-2008 09:00:00 8.05 C 6.55 g/m*3 8.05 C 0 km/h
1715 23-10-2008 10:00:00 8.825 C 6.3 g/m*3 8.82 C 0 km/h
1716 23-10-2008 11:00:00 9.4 C 6.14 g/m*3 9.4 C 0 km/h
1717 23-10-2008 12:00:00 10.68333 C 6.28 g/m*3 10.68 C 0 km/h
1718 23-10-2008 13:00:00 12.51667 C 6.12 g/m*3 12.52 C 0 km/h
1719 23-10-2008 14:00:00 13.89167 C 5.79 g/m*3 13.89 C 0 km/h
1720 23-10-2008 15:00:00 15.73333 C 5.27 g/m*3 15.73 C 0 km/h
1721 23-10-2008 16:00:00 15.31667 C 5.21 g/m*3 15.32 C 0 km/h
1722 23-10-2008 17:00:00 14.85 C 5.75 g/m*3 14.85 C 0 km/h
1723 23-10-2008 18:00:00 10.79167 C 5.66 g/m*3 10.79 C 0 km/h
1724 23-10-2008 19:00:00 9.05833 C 5.85 g/m*3 9.06 C 0 km/h
1725 23-10-2008 20:00:00 8.38333 C 5.95 g/m*3 8.38 C 0 km/h
Sensor: Nr:Datum:Temp:Abs-Feuchte:Windchill:Wind:
Aussen-T/F 1726 23-10-2008 21:00:00 7.66667 C 6.01 g/m*3 7.67 C 0 km/h
1727 23-10-2008 22:00:00 7.11818 C 5.98 g/m*3 7.12 C 0 km/h
1728 23-10-2008 23:00:00 6.26667 C 5.96 g/m*3 6.27 C 0 km/h
1729 24-10-2008 00:00:00 5.35833 C 5.82 g/m*3 5.36 C 0 km/h
1730 24-10-2008 01:00:00 4.65 C 5.74 g/m*3 4.65 C 0 km/h
1731 24-10-2008 02:00:00 4.08333 C 5.6 g/m*3 4.08 C 0 km/h
1732 24-10-2008 03:00:00 3.7 C 5.59 g/m*3 3.7 C 0 km/h
1733 24-10-2008 04:00:00 3.975 C 5.75 g/m*3 3.98 C 0 km/h
1734 24-10-2008 05:00:00 3.54167 C 5.61 g/m*3 3.54 C 0 km/h
1735 24-10-2008 06:00:00 3.175 C 5.45 g/m*3 3.18 C 0 km/h
1736 24-10-2008 07:00:00 3.025 C 5.37 g/m*3 3.03 C 0 km/h
1737 24-10-2008 08:00:00 2.96667 C 5.46 g/m*3 2.97 C 0 km/h
1738 24-10-2008 09:00:00 4.08333 C 5.75 g/m*3 4.08 C 0 km/h
1739 24-10-2008 10:00:00 5.25 C 5.77 g/m*3 5.25 C 0 km/h
1740 24-10-2008 11:00:00 5.95833 C 5.92 g/m*3 5.96 C 0 km/h
1741 24-10-2008 12:00:00 8.10833 C 6.39 g/m*3 8.11 C 0 km/h
1742 24-10-2008 13:00:00 11.13333 C 6.03 g/m*3 11.13 C 0 km/h
1743 24-10-2008 14:00:00 12.85 C 5.55 g/m*3 12.85 C 0 km/h
1744 24-10-2008 15:00:00 13.23333 C 5.39 g/m*3 13.23 C 0 km/h
1745 24-10-2008 16:00:00 13.03333 C 5.52 g/m*3 13.03 C 0 km/h
1746 24-10-2008 17:00:00 11.79167 C 5.98 g/m*3 11.79 C 0 km/h
1747 24-10-2008 18:00:00 10.6 C 6.12 g/m*3 10.6 C 0 km/h
1748 24-10-2008 19:00:00 10.24167 C 6.46 g/m*3 10.24 C 0 km/h
1749 24-10-2008 20:00:00 9.94167 C 7.04 g/m*3 9.94 C 0 km/h
1750 24-10-2008 21:00:00 9.79167 C 6.85 g/m*3 9.79 C 0 km/h
Sensor: Nr:Datum:Temp:Abs-Feuchte:Windchill:Wind:
Aussen-T/F 1751 24-10-2008 22:00:00 9.39167 C 6.7 g/m*3 9.39 C 0 km/h
1752 24-10-2008 23:00:00 8.75833 C 6.77 g/m*3 8.76 C 0 km/h
1753 25-10-2008 00:00:00 9.20833 C 6.95 g/m*3 9.21 C 0 km/h
1754 25-10-2008 01:00:00 9.85833 C 6.91 g/m*3 9.86 C 0 km/h
1755 25-10-2008 02:00:00 9.98333 C 6.95 g/m*3 9.98 C 0 km/h
1756 25-10-2008 03:00:00 9.925 C 7.12 g/m*3 9.93 C 0 km/h
1757 25-10-2008 04:00:00 9.94167 C 7.21 g/m*3 9.94 C 0 km/h
1758 25-10-2008 05:00:00 9.91667 C 7.27 g/m*3 9.92 C 0 km/h
1759 25-10-2008 06:00:00 9.725 C 7.53 g/m*3 9.73 C 0 km/h
1760 25-10-2008 07:00:00 9.58333 C 7.78 g/m*3 9.58 C 0 km/h
1761 25-10-2008 08:00:00 9.79167 C 7.77 g/m*3 9.79 C 0 km/h
1762 25-10-2008 09:00:00 10.24 C 7.77 g/m*3 10.24 C 0 km/h
1763 25-10-2008 10:00:00 11.35 C 7.78 g/m*3 11.35 C 0 km/h
1764 25-10-2008 11:00:00 12.23333 C 7.75 g/m*3 12.23 C 0 km/h
1765 25-10-2008 12:00:00 13.35 C 7.94 g/m*3 13.35 C 0 km/h
1766 25-10-2008 13:00:00 14.66667 C 7.58 g/m*3 14.67 C 0 km/h
1767 25-10-2008 14:00:00 15.15 C 7.51 g/m*3 15.15 C 0 km/h
1768 25-10-2008 15:00:00 15.25 C 7.42 g/m*3 15.25 C 0 km/h
1769 25-10-2008 16:00:00 17.03333 C 7.39 g/m*3 17.03 C 0 km/h
1770 25-10-2008 17:00:00 16.15 C 7.42 g/m*3 16.15 C 0 km/h
1771 25-10-2008 18:00:00 12.83333 C 7.71 g/m*3 12.83 C 0 km/h
1772 25-10-2008 19:00:00 12.2 C 7.88 g/m*3 12.2 C 0 km/h
1773 25-10-2008 20:00:00 11.35 C 7.57 g/m*3 11.35 C 0 km/h
1774 25-10-2008 21:00:00 9.93333 C 7.42 g/m*3 9.93 C 0 km/h
1775 25-10-2008 22:00:00 8.95 C 7.29 g/m*3 8.95 C 0 km/h
Sensor: Nr:Datum:Temp:Abs-Feuchte:Windchill:Wind:
Aussen-T/F 1776 25-10-2008 23:00:00 8.15 C 7.05 g/m*3 8.15 C 0 km/h
1777 26-10-2008 00:00:00 7.5 C 6.96 g/m*3 7.5 C 0 km/h
1778 26-10-2008 01:00:00 6.96667 C 6.8 g/m*3 6.97 C 0 km/h
1779 26-10-2008 02:00:00 6.5 C 6.67 g/m*3 6.5 C 0 km/h
1780 26-10-2008 03:00:00 6 C 6.56 g/m*3 6 C 0 km/h
1781 26-10-2008 04:00:00 5.775 C 6.56 g/m*3 5.78 C 0 km/h
1782 26-10-2008 05:00:00 5.6 C 6.53 g/m*3 5.6 C 0 km/h
1783 26-10-2008 06:00:00 6.05 C 6.77 g/m*3 6.05 C 0 km/h
1784 26-10-2008 07:00:00 6.76667 C 6.84 g/m*3 6.77 C 0 km/h
1785 26-10-2008 08:00:00 6.55 C 6.7 g/m*3 6.55 C 0 km/h
1786 26-10-2008 09:00:00 8.1 C 7.32 g/m*3 8.1 C 0 km/h
1787 26-10-2008 10:00:00 10.7 C 7.33 g/m*3 10.7 C 0 km/h
1788 26-10-2008 11:00:00 12.5 C 6.6 g/m*3 12.5 C 0 km/h
1789 26-10-2008 12:00:00 14.33333 C 5.99 g/m*3 14.33 C 0 km/h
1790 26-10-2008 13:00:00 16.4 C 5.09 g/m*3 16.4 C 0 km/h
1791 26-10-2008 14:00:00 15.4 C 4.86 g/m*3 15.4 C 0 km/h
1792 26-10-2008 15:00:00 15.16667 C 4.88 g/m*3 15.17 C 0 km/h
1793 26-10-2008 16:00:00 14.9 C 5.1 g/m*3 14.9 C 0 km/h
1794 26-10-2008 17:00:00 14.43333 C 5.16 g/m*3 14.43 C 0 km/h
1795 26-10-2008 18:00:00 14.4 C 5.01 g/m*3 14.4 C 0 km/h
1796 26-10-2008 19:00:00 14.1 C 5.1 g/m*3 14.1 C 0 km/h
1797 26-10-2008 20:00:00 13.8 C 5.6 g/m*3 13.8 C 0 km/h
1798 26-10-2008 21:00:00 13.6 C 6.18 g/m*3 13.6 C 0 km/h
1799 26-10-2008 22:00:00 13.46667 C 6.54 g/m*3 13.47 C 0 km/h
1800 26-10-2008 23:00:00 13.35 C 6.84 g/m*3 13.35 C 0 km/h
Sensor: Nr:Datum:Temp:Abs-Feuchte:Windchill:Wind:
Aussen-T/F 1801 27-10-2008 00:00:00 13.2 C 6.95 g/m*3 13.2 C 0 km/h
1802 27-10-2008 01:00:00 11.46667 C 8.21 g/m*3 11.47 C 0 km/h
1803 27-10-2008 02:00:00 11.1 C 8.46 g/m*3 11.1 C 0 km/h
1804 27-10-2008 03:00:00 10.96667 C 8.52 g/m*3 10.97 C 0 km/h
1805 27-10-2008 04:00:00 10.65 C 8.76 g/m*3 10.65 C 0 km/h
1806 27-10-2008 05:00:00 10.5 C 8.87 g/m*3 10.5 C 0 km/h
1807 27-10-2008 06:00:00 10.3 C 8.81 g/m*3 10.3 C 0 km/h
1808 27-10-2008 07:00:00 10.15 C 8.82 g/m*3 10.15 C 0 km/h
1809 27-10-2008 08:00:00 10.2 C 8.91 g/m*3 10.2 C 0 km/h
1810 27-10-2008 09:00:00 10.4 C 9.06 g/m*3 10.4 C 0 km/h
1811 27-10-2008 10:00:00 10.5 C 9.12 g/m*3 10.5 C 0 km/h
1812 27-10-2008 11:00:00 9.7 C 8.64 g/m*3 9.7 C 0 km/h
1813 27-10-2008 12:00:00 10.35 C 8.93 g/m*3 10.35 C 0 km/h
1814 27-10-2008 13:00:00 10.5 C 8.47 g/m*3 10.5 C 0 km/h
1815 27-10-2008 14:00:00 11.95 C 8.18 g/m*3 11.95 C 0 km/h
1816 27-10-2008 15:00:00 13.75 C 8.14 g/m*3 13.75 C 0 km/h
1817 27-10-2008 16:00:00 12.03333 C 7.26 g/m*3 12.03 C 0 km/h
1818 27-10-2008 17:00:00 10.45 C 7.06 g/m*3 10.45 C 0 km/h
1819 27-10-2008 18:00:00 9.73333 C 6.84 g/m*3 9.73 C 0 km/h
1820 27-10-2008 19:00:00 8.95 C 6.94 g/m*3 8.95 C 0 km/h
1821 27-10-2008 20:00:00 8.6 C 6.96 g/m*3 8.6 C 0 km/h
1822 27-10-2008 21:00:00 7.7 C 6.73 g/m*3 7.7 C 0 km/h
1823 27-10-2008 22:00:00 7.25 C 6.73 g/m*3 7.25 C 0 km/h
1824 27-10-2008 23:00:00 6.4 C 6.56 g/m*3 6.4 C 0 km/h
1825 28-10-2008 00:00:00 5.95 C 6.51 g/m*3 5.95 C 0 km/h
Sensor: Nr:Datum:Temp:Abs-Feuchte:Windchill:Wind:
Aussen-T/F 1826 28-10-2008 01:00:00 5.95 C 6.58 g/m*3 5.95 C 0 km/h
1827 28-10-2008 02:00:00 6.23333 C 6.73 g/m*3 6.23 C 0 km/h
1828 28-10-2008 03:00:00 6.5 C 6.82 g/m*3 6.5 C 0 km/h
1829 28-10-2008 04:00:00 6.5 C 6.85 g/m*3 6.5 C 0 km/h
1830 28-10-2008 05:00:00 6.45 C 6.91 g/m*3 6.45 C 0 km/h
1831 28-10-2008 06:00:00 6.4 C 6.93 g/m*3 6.4 C 0 km/h
1832 28-10-2008 07:00:00 6.06667 C 6.78 g/m*3 6.07 C 0 km/h
1833 28-10-2008 08:00:00 6.4 C 7 g/m*3 6.4 C 0 km/h
1834 28-10-2008 09:00:00 7.36667 C 7.12 g/m*3 7.37 C 0 km/h
1835 28-10-2008 10:00:00 8.2 C 6.78 g/m*3 8.2 C 0 km/h
1836 28-10-2008 11:00:00 9.65 C 6.8 g/m*3 9.65 C 0 km/h
1837 28-10-2008 12:00:00 10.43333 C 5.7 g/m*3 10.43 C 0 km/h
1838 28-10-2008 13:00:00 10.55 C 5.4 g/m*3 10.55 C 0 km/h
1839 28-10-2008 14:00:00 10.23333 C 5.34 g/m*3 10.23 C 0 km/h
1840 28-10-2008 15:00:00 10 C 5.31 g/m*3 10 C 0 km/h
1841 28-10-2008 16:00:00 8.7 C 5.97 g/m*3 8.7 C 0 km/h
1842 28-10-2008 17:00:00 7.1 C 6.01 g/m*3 7.1 C 0 km/h
1843 28-10-2008 18:00:00 5.85 C 5.86 g/m*3 5.85 C 0 km/h
1844 28-10-2008 19:00:00 5.2 C 5.74 g/m*3 5.2 C 0 km/h
1845 28-10-2008 20:00:00 4.8 C 5.77 g/m*3 4.8 C 0 km/h
1846 28-10-2008 21:00:00 4.3 C 5.61 g/m*3 4.3 C 0 km/h
1847 28-10-2008 22:00:00 3.76667 C 5.53 g/m*3 3.77 C 0 km/h
1848 28-10-2008 23:00:00 3.3 C 5.4 g/m*3 3.3 C 0 km/h
1849 29-10-2008 00:00:00 3.03333 C 5.38 g/m*3 3.03 C 0 km/h
1850 29-10-2008 01:00:00 2.85 C 5.41 g/m*3 2.85 C 0 km/h
Sensor: Nr:Datum:Temp:Abs-Feuchte:Windchill:Wind:
Aussen-T/F 1851 29-10-2008 02:00:00 2.95 C 5.48 g/m*3 2.95 C 0 km/h
1852 29-10-2008 03:00:00 3.36667 C 5.65 g/m*3 3.37 C 0 km/h
1853 29-10-2008 04:00:00 3.5 C 5.66 g/m*3 3.5 C 0 km/h
1854 29-10-2008 05:00:00 3.63333 C 5.71 g/m*3 3.63 C 0 km/h
1855 29-10-2008 06:00:00 3.7 C 5.7 g/m*3 3.7 C 0 km/h
1856 29-10-2008 07:00:00 3.65 C 5.65 g/m*3 3.65 C 0 km/h
1857 29-10-2008 08:00:00 3.8 C 5.69 g/m*3 3.8 C 0 km/h
1858 29-10-2008 09:00:00 4.5 C 5.72 g/m*3 4.5 C 0 km/h
1859 29-10-2008 10:00:00 5.4 C 5.6 g/m*3 5.4 C 0 km/h
1860 29-10-2008 11:00:00 6.85 C 5.72 g/m*3 6.85 C 0 km/h
1861 29-10-2008 12:00:00 7.3 C 5.65 g/m*3 7.3 C 0 km/h
1862 29-10-2008 13:00:00 8.53333 C 5.5 g/m*3 8.53 C 0 km/h
1863 29-10-2008 14:00:00 9.65 C 5.42 g/m*3 9.65 C 0 km/h
1864 29-10-2008 15:00:00 9.96667 C 5.19 g/m*3 9.97 C 0 km/h
1865 29-10-2008 16:00:00 8.15 C 5.43 g/m*3 8.15 C 0 km/h
1866 29-10-2008 17:00:00 6.9 C 5.43 g/m*3 6.9 C 0 km/h
1867 29-10-2008 18:00:00 6.2 C 5.54 g/m*3 6.2 C 0 km/h
1868 29-10-2008 19:00:00 5.9 C 5.66 g/m*3 5.9 C 0 km/h
1869 29-10-2008 20:00:00 5.43333 C 5.59 g/m*3 5.43 C 0 km/h
1870 29-10-2008 21:00:00 5.2 C 5.51 g/m*3 5.2 C 0 km/h
1871 29-10-2008 22:00:00 5.2 C 5.54 g/m*3 5.2 C 0 km/h
1872 29-10-2008 23:00:00 5.13333 C 5.64 g/m*3 5.13 C 0 km/h
1873 30-10-2008 00:00:00 4.95 C 5.72 g/m*3 4.95 C 0 km/h
1874 30-10-2008 01:00:00 4.76667 C 5.8 g/m*3 4.77 C 0 km/h
1875 30-10-2008 02:00:00 4.9 C 5.84 g/m*3 4.9 C 0 km/h
Sensor: Nr:Datum:Temp:Abs-Feuchte:Windchill:Wind:
Aussen-T/F 1876 30-10-2008 03:00:00 4.75 C 5.91 g/m*3 4.75 C 0 km/h
1877 30-10-2008 04:00:00 4.56667 C 5.99 g/m*3 4.57 C 0 km/h
1878 30-10-2008 05:00:00 4.5 C 6.05 g/m*3 4.5 C 0 km/h
1879 30-10-2008 06:00:00 4.16667 C 5.91 g/m*3 4.17 C 0 km/h
1880 30-10-2008 07:00:00 3.9 C 5.91 g/m*3 3.9 C 0 km/h
1881 30-10-2008 08:00:00 4.1 C 6.02 g/m*3 4.1 C 0 km/h
1882 30-10-2008 09:00:00 4.73333 C 6.25 g/m*3 4.73 C 0 km/h
1883 30-10-2008 10:00:00 4.7 C 5.96 g/m*3 4.7 C 0 km/h
1884 30-10-2008 11:00:00 5.4 C 6.12 g/m*3 5.4 C 0 km/h
1885 30-10-2008 12:00:00 5.65 C 6.06 g/m*3 5.65 C 0 km/h
1886 30-10-2008 13:00:00 5.5 C 5.97 g/m*3 5.5 C 0 km/h
1887 30-10-2008 14:00:00 5.56667 C 6.04 g/m*3 5.57 C 0 km/h
1888 30-10-2008 15:00:00 5.75 C 6.1 g/m*3 5.75 C 0 km/h
1889 30-10-2008 16:00:00 5.6 C 6.13 g/m*3 5.6 C 0 km/h
1890 30-10-2008 17:00:00 4.75 C 5.88 g/m*3 4.75 C 0 km/h
1891 30-10-2008 18:00:00 4.7 C 5.93 g/m*3 4.7 C 0 km/h
1892 30-10-2008 19:00:00 4.6 C 6.04 g/m*3 4.6 C 0 km/h
1893 30-10-2008 20:00:00 4.45 C 6.06 g/m*3 4.45 C 0 km/h
1894 30-10-2008 21:00:00 4.33333 C 6.05 g/m*3 4.33 C 0 km/h
1895 30-10-2008 22:00:00 4.3 C 6.1 g/m*3 4.3 C 0 km/h
1896 30-10-2008 23:00:00 4 C 5.98 g/m*3 4 C 0 km/h
1897 31-10-2008 00:00:00 3.63333 C 5.89 g/m*3 3.63 C 0 km/h
1898 31-10-2008 01:00:00 3 C 5.65 g/m*3 3 C 0 km/h
1899 31-10-2008 02:00:00 2.93333 C 5.62 g/m*3 2.93 C 0 km/h
1900 31-10-2008 03:00:00 3.05 C 5.67 g/m*3 3.05 C 0 km/h
Sensor: Nr:Datum:Temp:Abs-Feuchte:Windchill:Wind:
Aussen-T/F 1901 31-10-2008 04:00:00 3.15 C 5.71 g/m*3 3.15 C 0 km/h
1902 31-10-2008 05:00:00 3.53333 C 5.85 g/m*3 3.53 C 0 km/h
1903 31-10-2008 06:00:00 3.9 C 6 g/m*3 3.9 C 0 km/h
1904 31-10-2008 07:00:00 4.03333 C 6.05 g/m*3 4.03 C 0 km/h
1905 31-10-2008 08:00:00 4.4 C 6.2 g/m*3 4.4 C 0 km/h
1906 31-10-2008 09:00:00 5.15 C 6.52 g/m*3 5.15 C 0 km/h
1907 31-10-2008 10:00:00 6.2 C 6.72 g/m*3 6.2 C 0 km/h
1908 31-10-2008 11:00:00 7.05 C 6.53 g/m*3 7.05 C 0 km/h
1909 31-10-2008 12:00:00 7.6 C 6.79 g/m*3 7.6 C 0 km/h
1910 31-10-2008 13:00:00 8.4 C 6.7 g/m*3 8.4 C 0 km/h
1911 31-10-2008 14:00:00 9.75 C 6.75 g/m*3 9.75 C 0 km/h
1912 31-10-2008 15:00:00 10.83333 C 6.57 g/m*3 10.83 C 0 km/h
1913 31-10-2008 16:00:00 9.25 C 6.49 g/m*3 9.25 C 0 km/h
1914 31-10-2008 17:00:00 8.13333 C 6.39 g/m*3 8.13 C 0 km/h
1915 31-10-2008 18:00:00 7.05 C 6.37 g/m*3 7.05 C 0 km/h
1916 31-10-2008 19:00:00 6.9 C 6.5 g/m*3 6.9 C 0 km/h
1917 31-10-2008 20:00:00 6.53333 C 6.54 g/m*3 6.53 C 0 km/h
1918 31-10-2008 21:00:00 6.2 C 6.51 g/m*3 6.2 C 0 km/h
1919 31-10-2008 22:00:00 6.23333 C 6.58 g/m*3 6.23 C 0 km/h
1920 31-10-2008 23:00:00 6.5 C 6.71 g/m*3 6.5 C 0 km/h
1921 01-11-2008 00:00:00 6.35 C 6.65 g/m*3 6.35 C 0 km/h
1922 01-11-2008 01:00:00 6.4 C 6.78 g/m*3 6.4 C 0 km/h
1923 01-11-2008 02:00:00 6.25 C 6.82 g/m*3 6.25 C 0 km/h
1924 01-11-2008 03:00:00 6.03333 C 6.86 g/m*3 6.03 C 0 km/h
1925 01-11-2008 04:00:00 5.95 C 6.87 g/m*3 5.95 C 0 km/h
Sensor: Nr:Datum:Temp:Abs-Feuchte:Windchill:Wind:
Aussen-T/F 1926 01-11-2008 05:00:00 6 C 6.9 g/m*3 6 C 0 km/h
1927 01-11-2008 06:00:00 5.83333 C 6.82 g/m*3 5.83 C 0 km/h
1928 01-11-2008 07:00:00 5.4 C 6.63 g/m*3 5.4 C 0 km/h
1929 01-11-2008 08:00:00 6 C 6.9 g/m*3 6 C 0 km/h
1930 01-11-2008 09:00:00 7.25 C 7.48 g/m*3 7.25 C 0 km/h
1931 01-11-2008 10:00:00 8.05 C 7.38 g/m*3 8.05 C 0 km/h
1932 01-11-2008 11:00:00 8.83333 C 6.95 g/m*3 8.83 C 0 km/h
1933 01-11-2008 12:00:00 9.8 C 6.68 g/m*3 9.8 C 0 km/h
1934 01-11-2008 13:00:00 10.2 C 6.69 g/m*3 10.2 C 0 km/h
1935 01-11-2008 14:00:00 10.45 C 6.86 g/m*3 10.45 C 0 km/h
1936 01-11-2008 15:00:00 10.65 C 7.05 g/m*3 10.65 C 0 km/h
1937 01-11-2008 16:00:00 9.8 C 7.45 g/m*3 9.8 C 0 km/h
1938 01-11-2008 17:00:00 9.45 C 7.67 g/m*3 9.45 C 0 km/h
1939 01-11-2008 18:00:00 9.26667 C 7.65 g/m*3 9.27 C 0 km/h
1940 01-11-2008 19:00:00 9.2 C 7.68 g/m*3 9.2 C 0 km/h
1941 01-11-2008 20:00:00 8.95 C 7.47 g/m*3 8.95 C 0 km/h
1942 01-11-2008 21:00:00 8.46667 C 7.44 g/m*3 8.47 C 0 km/h
1943 01-11-2008 22:00:00 8.6 C 7.69 g/m*3 8.6 C 0 km/h
1944 01-11-2008 23:00:00 8.43333 C 7.68 g/m*3 8.43 C 0 km/h
1945 02-11-2008 00:00:00 8.5 C 7.81 g/m*3 8.5 C 0 km/h
1946 02-11-2008 01:00:00 9.7 C 7.61 g/m*3 9.7 C 0 km/h
1947 02-11-2008 02:00:00 9.23333 C 7.46 g/m*3 9.23 C 0 km/h
1948 02-11-2008 03:00:00 8.7 C 7.48 g/m*3 8.7 C 0 km/h
1949 02-11-2008 04:00:00 8.1 C 7.49 g/m*3 8.1 C 0 km/h
1950 02-11-2008 05:00:00 7.6 C 7.41 g/m*3 7.6 C 0 km/h
Sensor: Nr:Datum:Temp:Abs-Feuchte:Windchill:Wind:
Aussen-T/F 1951 02-11-2008 06:00:00 7.45 C 7.46 g/m*3 7.45 C 0 km/h
1952 02-11-2008 07:00:00 7.26667 C 7.41 g/m*3 7.27 C 0 km/h
1953 02-11-2008 08:00:00 7.45 C 7.54 g/m*3 7.45 C 0 km/h
1954 02-11-2008 09:00:00 8.13333 C 7.87 g/m*3 8.13 C 0 km/h
1955 02-11-2008 10:00:00 9.8 C 8.44 g/m*3 9.8 C 0 km/h
1956 02-11-2008 11:00:00 11.15 C 8.13 g/m*3 11.15 C 0 km/h
1957 02-11-2008 12:00:00 13.13333 C 8.04 g/m*3 13.13 C 0 km/h
1958 02-11-2008 13:00:00 13.95 C 7.82 g/m*3 13.95 C 0 km/h
1959 02-11-2008 14:00:00 14.86667 C 7.84 g/m*3 14.87 C 0 km/h
1960 02-11-2008 15:00:00 14.1 C 8.01 g/m*3 14.1 C 0 km/h
1961 02-11-2008 16:00:00 13.05 C 8.19 g/m*3 13.05 C 0 km/h
1962 02-11-2008 17:00:00 11.2 C 8.04 g/m*3 11.2 C 0 km/h
1963 02-11-2008 18:00:00 10.4 C 8 g/m*3 10.4 C 0 km/h
1964 02-11-2008 19:00:00 9.76667 C 7.9 g/m*3 9.77 C 0 km/h
1965 02-11-2008 20:00:00 9.3 C 7.86 g/m*3 9.3 C 0 km/h
1966 02-11-2008 21:00:00 9.1 C 7.85 g/m*3 9.1 C 0 km/h
1967 02-11-2008 22:00:00 8.96667 C 7.83 g/m*3 8.97 C 0 km/h
1968 02-11-2008 23:00:00 8.4 C 7.68 g/m*3 8.4 C 0 km/h
1969 03-11-2008 00:00:00 7.93333 C 7.52 g/m*3 7.93 C 0 km/h
1970 03-11-2008 01:00:00 7.9 C 7.64 g/m*3 7.9 C 0 km/h
1971 03-11-2008 02:00:00 8 C 7.69 g/m*3 8 C 0 km/h
1972 03-11-2008 03:00:00 8.8 C 8.12 g/m*3 8.8 C 0 km/h
1973 03-11-2008 04:00:00 9.1 C 8.03 g/m*3 9.1 C 0 km/h
1974 03-11-2008 05:00:00 9.16667 C 7.87 g/m*3 9.17 C 0 km/h
1975 03-11-2008 06:00:00 9.2 C 7.81 g/m*3 9.2 C 0 km/h
Sensor: Nr:Datum:Temp:Abs-Feuchte:Windchill:Wind:
Aussen-T/F 1976 03-11-2008 07:00:00 9.2 C 7.77 g/m*3 9.2 C 0 km/h
1977 03-11-2008 08:00:00 9.56667 C 7.95 g/m*3 9.57 C 0 km/h
1978 03-11-2008 09:00:00 10.15 C 7.92 g/m*3 10.15 C 0 km/h
1979 03-11-2008 10:00:00 10.66667 C 7.84 g/m*3 10.67 C 0 km/h
1980 03-11-2008 11:00:00 11.55 C 7.82 g/m*3 11.55 C 0 km/h
1981 03-11-2008 12:00:00 12.9 C 8.11 g/m*3 12.9 C 0 km/h
1982 03-11-2008 13:00:00 13.43333 C 7.84 g/m*3 13.43 C 0 km/h
1983 03-11-2008 14:00:00 14 C 7.78 g/m*3 14 C 0 km/h
1984 03-11-2008 15:00:00 13.5 C 8.07 g/m*3 13.5 C 0 km/h
1985 03-11-2008 16:00:00 12.5 C 8.25 g/m*3 12.5 C 0 km/h
1986 03-11-2008 17:00:00 11.15 C 8.03 g/m*3 11.15 C 0 km/h
1987 03-11-2008 18:00:00 9.7 C 7.87 g/m*3 9.7 C 0 km/h
1988 03-11-2008 19:00:00 8.75 C 7.68 g/m*3 8.75 C 0 km/h
1989 03-11-2008 20:00:00 8.13333 C 7.56 g/m*3 8.13 C 0 km/h
1990 03-11-2008 21:00:00 7.3 C 7.27 g/m*3 7.3 C 0 km/h
1991 03-11-2008 22:00:00 6.7 C 7.07 g/m*3 6.7 C 0 km/h
1992 03-11-2008 23:00:00 6.73333 C 7.13 g/m*3 6.73 C 0 km/h
1993 04-11-2008 00:00:00 6.8 C 7.27 g/m*3 6.8 C 0 km/h
1994 04-11-2008 01:00:00 6.73333 C 7.23 g/m*3 6.73 C 0 km/h
1995 04-11-2008 02:00:00 6.6 C 7.17 g/m*3 6.6 C 0 km/h
1996 04-11-2008 03:00:00 6.8 C 7.27 g/m*3 6.8 C 0 km/h
1997 04-11-2008 04:00:00 6.76667 C 7.25 g/m*3 6.77 C 0 km/h
1998 04-11-2008 05:00:00 6.35 C 7.06 g/m*3 6.35 C 0 km/h
1999 04-11-2008 06:00:00 6.3 C 7.03 g/m*3 6.3 C 0 km/h
2000 04-11-2008 07:00:00 6.45 C 7.1 g/m*3 6.45 C 0 km/h
Sensor: Nr:Datum:Temp:Abs-Feuchte:Windchill:Wind:
Aussen-T/F 2001 04-11-2008 08:00:00 6.6 C 7.17 g/m*3 6.6 C 0 km/h
2002 04-11-2008 09:00:00 7.33333 C 7.52 g/m*3 7.33 C 0 km/h
2003 04-11-2008 10:00:00 7.95 C 7.83 g/m*3 7.95 C 0 km/h
2004 04-11-2008 11:00:00 8.83333 C 8.02 g/m*3 8.83 C 0 km/h
2005 04-11-2008 12:00:00 9.4 C 7.96 g/m*3 9.4 C 0 km/h
2006 04-11-2008 13:00:00 12.85 C 8.48 g/m*3 12.85 C 0 km/h
2007 04-11-2008 14:00:00 14.43333 C 8.42 g/m*3 14.43 C 0 km/h
2008 04-11-2008 15:00:00 13.65 C 8.5 g/m*3 13.65 C 0 km/h
2009 04-11-2008 16:00:00 12.23333 C 8.33 g/m*3 12.23 C 0 km/h
2010 04-11-2008 17:00:00 11.5 C 8.21 g/m*3 11.5 C 0 km/h
2011 04-11-2008 18:00:00 10.85 C 8.33 g/m*3 10.85 C 0 km/h
2012 04-11-2008 19:00:00 10.4 C 8.32 g/m*3 10.4 C 0 km/h
2013 04-11-2008 20:00:00 9.9 C 8.26 g/m*3 9.9 C 0 km/h
2014 04-11-2008 21:00:00 9.16667 C 8.05 g/m*3 9.17 C 0 km/h
2015 04-11-2008 22:00:00 8.9 C 8.1 g/m*3 8.9 C 0 km/h
2016 04-11-2008 23:00:00 8.7 C 8.04 g/m*3 8.7 C 0 km/h
2017 05-11-2008 00:00:00 8.66667 C 8.03 g/m*3 8.67 C 0 km/h
2018 05-11-2008 01:00:00 8.75 C 7.98 g/m*3 8.75 C 0 km/h
2019 05-11-2008 02:00:00 8.53333 C 7.62 g/m*3 8.53 C 0 km/h
2020 05-11-2008 03:00:00 8.35 C 7.53 g/m*3 8.35 C 0 km/h
2021 05-11-2008 04:00:00 8.05 C 7.38 g/m*3 8.05 C 0 km/h
2022 05-11-2008 05:00:00 8.33333 C 7.52 g/m*3 8.33 C 0 km/h
2023 05-11-2008 06:00:00 8.45 C 7.36 g/m*3 8.45 C 0 km/h
2024 05-11-2008 07:00:00 8.43333 C 7.23 g/m*3 8.43 C 0 km/h
2025 05-11-2008 08:00:00 8.8 C 7.4 g/m*3 8.8 C 0 km/h
Sensor: Nr:Datum:Temp:Abs-Feuchte:Windchill:Wind:
Aussen-T/F 2026 05-11-2008 09:00:00 9.5 C 7.65 g/m*3 9.5 C 0 km/h
2027 05-11-2008 10:00:00 10.46667 C 7.45 g/m*3 10.47 C 0 km/h
2028 05-11-2008 11:00:00 10.95 C 7.48 g/m*3 10.95 C 0 km/h
2029 05-11-2008 12:00:00 10.96667 C 7.46 g/m*3 10.97 C 0 km/h
2030 05-11-2008 13:00:00 11.1 C 7.6 g/m*3 11.1 C 0 km/h
2031 05-11-2008 14:00:00 11.3 C 7.75 g/m*3 11.3 C 0 km/h
2032 05-11-2008 15:00:00 11.46667 C 7.66 g/m*3 11.47 C 0 km/h
2033 05-11-2008 16:00:00 11 C 7.71 g/m*3 11 C 0 km/h
2034 05-11-2008 17:00:00 10.56667 C 7.69 g/m*3 10.57 C 0 km/h
2035 05-11-2008 18:00:00 10.4 C 7.81 g/m*3 10.4 C 0 km/h
2036 05-11-2008 19:00:00 10.35 C 7.88 g/m*3 10.35 C 0 km/h
2037 05-11-2008 20:00:00 10.26667 C 7.9 g/m*3 10.27 C 0 km/h
2038 05-11-2008 21:00:00 10.2 C 7.9 g/m*3 10.2 C 0 km/h
2039 05-11-2008 22:00:00 10.2 C 7.96 g/m*3 10.2 C 0 km/h
2040 05-11-2008 23:00:00 10.1 C 7.99 g/m*3 10.1 C 0 km/h
2041 06-11-2008 00:00:00 10 C 7.99 g/m*3 10 C 0 km/h
2042 06-11-2008 01:00:00 9.9 C 8.06 g/m*3 9.9 C 0 km/h
2043 06-11-2008 02:00:00 9.75 C 7.91 g/m*3 9.75 C 0 km/h
2044 06-11-2008 03:00:00 9.23333 C 7.7 g/m*3 9.23 C 0 km/h
2045 06-11-2008 04:00:00 8.55 C 7.45 g/m*3 8.55 C 0 km/h
2046 06-11-2008 05:00:00 8.95 C 7.65 g/m*3 8.95 C 0 km/h
2047 06-11-2008 06:00:00 9.2 C 7.56 g/m*3 9.2 C 0 km/h
2048 06-11-2008 07:00:00 9.2 C 7.41 g/m*3 9.2 C 0 km/h
2049 06-11-2008 08:00:00 9.7 C 7.5 g/m*3 9.7 C 0 km/h
2050 06-11-2008 09:00:00 10.45 C 7.3 g/m*3 10.45 C 0 km/h
Sensor: Nr:Datum:Temp:Abs-Feuchte:Windchill:Wind:
Aussen-T/F 2051 06-11-2008 10:00:00 11.15 C 7.02 g/m*3 11.15 C 0 km/h
2052 06-11-2008 11:00:00 12.23333 C 7.06 g/m*3 12.23 C 0 km/h
2053 06-11-2008 12:00:00 12.15 C 6.94 g/m*3 12.15 C 0 km/h
2054 06-11-2008 13:00:00 12.56667 C 7.07 g/m*3 12.57 C 0 km/h
2055 06-11-2008 14:00:00 13.05 C 7.05 g/m*3 13.05 C 0 km/h
2056 06-11-2008 15:00:00 12.8 C 6.94 g/m*3 12.8 C 0 km/h
2057 06-11-2008 16:00:00 11.86667 C 6.98 g/m*3 11.87 C 0 km/h
2058 06-11-2008 17:00:00 11 C 7.01 g/m*3 11 C 0 km/h
2059 06-11-2008 18:00:00 10.13333 C 6.98 g/m*3 10.13 C 0 km/h
2060 06-11-2008 19:00:00 10.35 C 7.11 g/m*3 10.35 C 0 km/h
2061 06-11-2008 20:00:00 10.25 C 7.21 g/m*3 10.25 C 0 km/h
2062 06-11-2008 21:00:00 10.3 C 7.21 g/m*3 10.3 C 0 km/h
2063 06-11-2008 22:00:00 10.2 C 7.33 g/m*3 10.2 C 0 km/h
2064 06-11-2008 23:00:00 10.16667 C 7.25 g/m*3 10.17 C 0 km/h
2065 07-11-2008 00:00:00 10.1 C 7.19 g/m*3 10.1 C 0 km/h
2066 07-11-2008 01:00:00 10 C 7.24 g/m*3 10 C 0 km/h
2067 07-11-2008 02:00:00 9.96667 C 7.19 g/m*3 9.97 C 0 km/h
2068 07-11-2008 03:00:00 9.95 C 7.17 g/m*3 9.95 C 0 km/h
2069 07-11-2008 04:00:00 10.2 C 7.2 g/m*3 10.2 C 0 km/h
2070 07-11-2008 05:00:00 10.25 C 7.26 g/m*3 10.25 C 0 km/h
2071 07-11-2008 06:00:00 10.05 C 7.16 g/m*3 10.05 C 0 km/h
2072 07-11-2008 07:00:00 10 C 7.05 g/m*3 10 C 0 km/h
2073 07-11-2008 08:00:00 9.95 C 7.07 g/m*3 9.95 C 0 km/h
2074 07-11-2008 09:00:00 10.96667 C 6.96 g/m*3 10.97 C 0 km/h
2075 07-11-2008 10:00:00 11.25 C 6.97 g/m*3 11.25 C 0 km/h
Sensor: Nr:Datum:Temp:Abs-Feuchte:Windchill:Wind:
Aussen-T/F 2076 07-11-2008 11:00:00 11.9 C 6.94 g/m*3 11.9 C 0 km/h
2077 07-11-2008 12:00:00 13 C 6.84 g/m*3 13 C 0 km/h
2078 07-11-2008 13:00:00 13.7 C 6.81 g/m*3 13.7 C 0 km/h
2079 07-11-2008 14:00:00 14.1 C 7.04 g/m*3 14.1 C 0 km/h
2080 07-11-2008 15:00:00 13.65 C 7.32 g/m*3 13.65 C 0 km/h
2081 07-11-2008 16:00:00 12.9 C 7.44 g/m*3 12.9 C 0 km/h
2082 07-11-2008 17:00:00 11.76667 C 7.28 g/m*3 11.77 C 0 km/h
2083 07-11-2008 18:00:00 10.4 C 7.32 g/m*3 10.4 C 0 km/h
2084 07-11-2008 19:00:00 10.43333 C 7.4 g/m*3 10.43 C 0 km/h
2085 07-11-2008 20:00:00 9.7 C 7.47 g/m*3 9.7 C 0 km/h
2086 07-11-2008 21:00:00 8.9 C 7.4 g/m*3 8.9 C 0 km/h
2087 07-11-2008 22:00:00 7.93333 C 7.27 g/m*3 7.93 C 0 km/h
2088 07-11-2008 23:00:00 7.3 C 7.07 g/m*3 7.3 C 0 km/h
2089 08-11-2008 00:00:00 7.1 C 7.15 g/m*3 7.1 C 0 km/h
2090 08-11-2008 01:00:00 7.1 C 7.21 g/m*3 7.1 C 0 km/h
2091 08-11-2008 02:00:00 7.4 C 7.4 g/m*3 7.4 C 0 km/h
2092 08-11-2008 03:00:00 7.93333 C 7.57 g/m*3 7.93 C 0 km/h
2093 08-11-2008 04:00:00 8.25 C 7.65 g/m*3 8.25 C 0 km/h
2094 08-11-2008 05:00:00 8.3 C 7.61 g/m*3 8.3 C 0 km/h
2095 08-11-2008 06:00:00 8.55 C 7.62 g/m*3 8.55 C 0 km/h
2096 08-11-2008 07:00:00 8.25 C 7.65 g/m*3 8.25 C 0 km/h
2097 08-11-2008 08:00:00 7.46667 C 7.4 g/m*3 7.47 C 0 km/h
2098 08-11-2008 09:00:00 7.9 C 7.72 g/m*3 7.9 C 0 km/h
2099 08-11-2008 10:00:00 8.96667 C 7.77 g/m*3 8.97 C 0 km/h
2100 08-11-2008 11:00:00 10 C 6.2 g/m*3 10 C 0 km/h
Sensor: Nr:Datum:Temp:Abs-Feuchte:Windchill:Wind:
Aussen-T/F 2101 08-11-2008 12:00:00 11.3 C 5.92 g/m*3 11.3 C 0 km/h
2102 08-11-2008 13:00:00 12.2 C 5.29 g/m*3 12.2 C 0 km/h
2103 08-11-2008 14:00:00 11.95 C 5.47 g/m*3 11.95 C 0 km/h
2104 08-11-2008 15:00:00 11.66667 C 5.88 g/m*3 11.67 C 0 km/h
2105 08-11-2008 16:00:00 9.85 C 5.91 g/m*3 9.85 C 0 km/h
2106 08-11-2008 17:00:00 8.5 C 6.06 g/m*3 8.5 C 0 km/h
2107 08-11-2008 18:00:00 7.43333 C 6.08 g/m*3 7.43 C 0 km/h
2108 08-11-2008 19:00:00 6.65 C 6.13 g/m*3 6.65 C 0 km/h
2109 08-11-2008 20:00:00 5.83333 C 6.03 g/m*3 5.83 C 0 km/h
2110 08-11-2008 21:00:00 5.25 C 6.01 g/m*3 5.25 C 0 km/h
2111 08-11-2008 22:00:00 4.9 C 6.01 g/m*3 4.9 C 0 km/h
2112 08-11-2008 23:00:00 5.33333 C 6.39 g/m*3 5.33 C 0 km/h
2113 09-11-2008 00:00:00 6.76 C 6.76 g/m*3 6.76 C 0 km/h
2114 09-11-2008 01:00:00 6.54 C 6.44 g/m*3 6.54 C 0 km/h
2115 09-11-2008 02:00:00 7.4 C 6.49 g/m*3 7.4 C 0 km/h
2116 09-11-2008 03:00:00 8.14 C 6.51 g/m*3 8.14 C 0 km/h
2117 09-11-2008 04:00:00 9.38 C 6.52 g/m*3 9.38 C 0 km/h
2118 09-11-2008 05:00:00 9.56 C 6.6 g/m*3 9.56 C 0 km/h
2119 09-11-2008 06:00:00 9.68 C 6.65 g/m*3 9.68 C 0 km/h
2120 09-11-2008 07:00:00 9.66 C 7.01 g/m*3 9.66 C 0 km/h
2121 09-11-2008 08:00:00 9.3 C 7.82 g/m*3 9.3 C 0 km/h
2122 09-11-2008 09:00:00 9.68 C 8.21 g/m*3 9.68 C 0 km/h
2123 09-11-2008 10:00:00 9.74 C 8.39 g/m*3 9.74 C 0 km/h
2124 09-11-2008 11:00:00 10.08 C 8.69 g/m*3 10.08 C 0 km/h
2125 09-11-2008 12:00:00 10.76 C 9.01 g/m*3 10.76 C 0 km/h
Sensor: Nr:Datum:Temp:Abs-Feuchte:Windchill:Wind:
Aussen-T/F 2126 09-11-2008 13:00:00 10.36 C 8.27 g/m*3 10.36 C 0 km/h
2127 09-11-2008 14:00:00 9.6 C 7.33 g/m*3 9.6 C 0 km/h
2128 09-11-2008 15:00:00 9.98 C 7 g/m*3 9.98 C 0 km/h
2129 09-11-2008 16:00:00 9.42 C 7.17 g/m*3 9.42 C 0 km/h
2130 09-11-2008 17:00:00 8.86 C 7.22 g/m*3 8.86 C 0 km/h
2131 09-11-2008 18:00:00 8.18 C 6.93 g/m*3 8.18 C 0 km/h
2132 09-11-2008 19:00:00 7.42 C 6.74 g/m*3 7.42 C 0 km/h
2133 09-11-2008 20:00:00 7.46 C 6.83 g/m*3 7.46 C 0 km/h
2134 09-11-2008 21:00:00 7.8 C 7.18 g/m*3 7.8 C 0 km/h
2135 09-11-2008 22:00:00 8.1 C 7.51 g/m*3 8.1 C 0 km/h
2136 09-11-2008 23:00:00 9.64 C 8.41 g/m*3 9.64 C 0 km/h
2137 10-11-2008 00:00:00 12.26 C 8.64 g/m*3 12.26 C 0 km/h
2138 10-11-2008 01:00:00 13 C 7.94 g/m*3 13 C 0 km/h
2139 10-11-2008 02:00:00 12.68 C 7.67 g/m*3 12.68 C 0 km/h
2140 10-11-2008 03:00:00 11.4 C 8.52 g/m*3 11.4 C 0 km/h
2141 10-11-2008 04:00:00 12.1 C 8.24 g/m*3 12.1 C 0 km/h
2142 10-11-2008 05:00:00 12.76 C 8.02 g/m*3 12.76 C 0 km/h
2143 10-11-2008 06:00:00 13.02 C 7.79 g/m*3 13.02 C 0 km/h
2144 10-11-2008 07:00:00 13.1 C 7.85 g/m*3 13.1 C 0 km/h
2145 10-11-2008 08:00:00 12.9 C 8.32 g/m*3 12.9 C 0 km/h
2146 10-11-2008 09:00:00 13.22 C 8.21 g/m*3 13.22 C 0 km/h
2147 10-11-2008 10:00:00 13.78 C 7.97 g/m*3 13.78 C 0 km/h
2148 10-11-2008 11:00:00 14.08 C 8.12 g/m*3 14.08 C 0 km/h
2149 10-11-2008 12:00:00 14.98 C 7.89 g/m*3 14.98 C 0 km/h
2150 10-11-2008 13:00:00 14.86 C 7.78 g/m*3 14.86 C 0 km/h
Sensor: Nr:Datum:Temp:Abs-Feuchte:Windchill:Wind:
Aussen-T/F 2151 10-11-2008 14:00:00 15.1 C 7.77 g/m*3 15.1 C 0 km/h
2152 10-11-2008 15:00:00 14.82 C 7.74 g/m*3 14.82 C 0 km/h
2153 10-11-2008 16:00:00 14.68 C 7.77 g/m*3 14.68 C 0 km/h
2154 10-11-2008 17:00:00 14.68 C 7.62 g/m*3 14.68 C 0 km/h
2155 10-11-2008 18:00:00 15.1 C 7.38 g/m*3 15.1 C 0 km/h
2156 10-11-2008 19:00:00 15.12 C 7.1 g/m*3 15.12 C 0 km/h
2157 10-11-2008 20:00:00 15.28 C 7.3 g/m*3 15.28 C 0 km/h
2158 10-11-2008 21:00:00 15.44 C 7.69 g/m*3 15.44 C 0 km/h
2159 10-11-2008 22:00:00 15.5 C 7.85 g/m*3 15.5 C 0 km/h
2160 10-11-2008 23:00:00 15.86 C 7.54 g/m*3 15.86 C 0 km/h
2161 11-11-2008 00:00:00 15.94 C 7.55 g/m*3 15.94 C 0 km/h
2162 11-11-2008 01:00:00 15.9 C 7.45 g/m*3 15.9 C 0 km/h
2163 11-11-2008 02:00:00 15.26 C 7.35 g/m*3 15.26 C 0 km/h
2164 11-11-2008 03:00:00 14.92 C 7.09 g/m*3 14.92 C 0 km/h
2165 11-11-2008 04:00:00 14.04 C 6.92 g/m*3 14.04 C 0 km/h
2166 11-11-2008 05:00:00 13.42 C 6.91 g/m*3 13.42 C 0 km/h
2167 11-11-2008 06:00:00 12.92 C 7.38 g/m*3 12.92 C 0 km/h
2168 11-11-2008 07:00:00 12.48 C 8.17 g/m*3 12.48 C 0 km/h
2169 11-11-2008 08:00:00 13.68 C 7.9 g/m*3 13.68 C 0 km/h
2170 11-11-2008 09:00:00 13.6 C 8.33 g/m*3 13.6 C 0 km/h
2171 11-11-2008 10:00:00 13.5 C 7.81 g/m*3 13.5 C 0 km/h
2172 11-11-2008 11:00:00 12.08 C 6.51 g/m*3 12.08 C 0 km/h
2173 11-11-2008 12:00:00 12.38 C 6.05 g/m*3 12.38 C 0 km/h
2174 11-11-2008 13:00:00 13.38 C 5.27 g/m*3 13.38 C 0 km/h
2175 11-11-2008 14:00:00 13.7 C 4.78 g/m*3 13.7 C 0 km/h
Sensor: Nr:Datum:Temp:Abs-Feuchte:Windchill:Wind:
Aussen-T/F 2176 11-11-2008 15:00:00 12.52 C 4.78 g/m*3 12.52 C 0 km/h
2177 11-11-2008 16:00:00 12.04 C 5.04 g/m*3 12.04 C 0 km/h
2178 11-11-2008 17:00:00 11.74 C 4.89 g/m*3 11.74 C 0 km/h
2179 11-11-2008 18:00:00 11.22 C 4.83 g/m*3 11.22 C 0 km/h
2180 11-11-2008 19:00:00 11.1 C 5.1 g/m*3 11.1 C 0 km/h
2181 11-11-2008 20:00:00 11.04 C 5.34 g/m*3 11.04 C 0 km/h
2182 11-11-2008 21:00:00 10.82 C 5.7 g/m*3 10.82 C 0 km/h
2183 11-11-2008 22:00:00 9.7 C 6.58 g/m*3 9.7 C 0 km/h
2184 11-11-2008 23:00:00 8.36 C 7.28 g/m*3 8.36 C 0 km/h
2185 12-11-2008 00:00:00 8.18 C 7.38 g/m*3 8.18 C 0 km/h
2186 12-11-2008 01:00:00 8.4 C 7.52 g/m*3 8.4 C 0 km/h
2187 12-11-2008 02:00:00 8.1 C 7.11 g/m*3 8.1 C 0 km/h
2188 12-11-2008 03:00:00 7.5 C 6.85 g/m*3 7.5 C 0 km/h
2189 12-11-2008 04:00:00 7.42 C 7.01 g/m*3 7.42 C 0 km/h
2190 12-11-2008 05:00:00 7.72 C 7.06 g/m*3 7.72 C 0 km/h
2191 12-11-2008 06:00:00 7.74 C 6.85 g/m*3 7.74 C 0 km/h
2192 12-11-2008 07:00:00 7.5 C 6.56 g/m*3 7.5 C 0 km/h
2193 12-11-2008 08:00:00 7.94 C 6.49 g/m*3 7.94 C 0 km/h
2194 12-11-2008 09:00:00 7.9 C 6.54 g/m*3 7.9 C 0 km/h
2195 12-11-2008 10:00:00 9.08 C 6.4 g/m*3 9.08 C 0 km/h
2196 12-11-2008 11:00:00 10.24 C 6.45 g/m*3 10.24 C 0 km/h
2197 12-11-2008 12:00:00 10.68 C 6.71 g/m*3 10.68 C 0 km/h
2198 12-11-2008 13:00:00 11.52 C 6.14 g/m*3 11.52 C 0 km/h
2199 12-11-2008 14:00:00 11.38 C 5.86 g/m*3 11.38 C 0 km/h
2200 12-11-2008 15:00:00 11.58 C 5.88 g/m*3 11.58 C 0 km/h
Sensor: Nr:Datum:Temp:Abs-Feuchte:Windchill:Wind:
Aussen-T/F 2201 12-11-2008 16:00:00 10.3 C 5.94 g/m*3 10.3 C 0 km/h
2202 12-11-2008 17:00:00 8.76 C 6.04 g/m*3 8.76 C 0 km/h
2203 12-11-2008 18:00:00 7.72 C 6.19 g/m*3 7.72 C 0 km/h
2204 12-11-2008 19:00:00 7.72 C 6.32 g/m*3 7.72 C 0 km/h
2205 12-11-2008 20:00:00 7.74 C 6.39 g/m*3 7.74 C 0 km/h
2206 12-11-2008 21:00:00 7.1 C 6.32 g/m*3 7.1 C 0 km/h
2207 12-11-2008 22:00:00 6.72 C 6.27 g/m*3 6.72 C 0 km/h
2208 12-11-2008 23:00:00 5.48 C 5.99 g/m*3 5.48 C 0 km/h

Maximal/Minimal-Werte vom 17.04.2019 - 19.05.2019

Sensor Min Max Avg
Temp
(Aussen-T/F)
2.2 °C
13-05-2019  06:50:00
26.6 °C
24-04-2019  17:05:00
11.51 °C

Die Daten stammen von einer Davis Vantage Pro 2 Wetter-Station und werden unter Linux mit der Software wview2wettercgi und aufbereitet. Alle Angaben erfolgen ohne Gewähr für ihre Vollständigkeit oder Richtigkeit.
Kontakt: Rainer Krienke krienke@uni-koblenz.de . Meine Webseiten an der Uni Koblenz oder privat.
Version: $Revision: 0.78 $